Provisional Data: Susquehanna River at Kirkwood, NY


Please select a monitoring station.
Please select start date.
Please select start date.

Toggle Unit: C/F Toggle Unit: C/F
Sample Time Temperature (C) Temperature (F) Specific Conductivity (mS/cm) pH   Turbidity (NTU+) DO (mg/L)
8/1/2022 12:00:00 AM 25.35 77.63 0.179 7.53 95.26 5.18
8/1/2022 12:15:00 AM 25.31 77.558 0.179 7.51 95.22 4.58
8/1/2022 12:30:00 AM 25.27 77.486 0.18 7.52 95.09 3.95
8/1/2022 12:45:00 AM 25.19 77.342 0.181 7.51 94.68 4.8
8/1/2022 1:00:00 AM 25.11 77.198 0.182 7.43 94.68 4.4
8/1/2022 1:15:00 AM 25.02 77.036 0.182 7.39 94.68 4.5
8/1/2022 1:30:00 AM 24.99 76.982 0.183 7.4 94.69 3.53
8/1/2022 1:45:00 AM 24.95 76.91 0.184 7.35 94.65 3.08
8/1/2022 2:00:00 AM 24.91 76.838 0.184 7.35 94.54 1.8
8/1/2022 2:15:00 AM 24.83 76.694 0.185 7.3 94.48 3.39
8/1/2022 2:30:00 AM 24.74 76.532 0.186 7.29 94.67 3.4
8/1/2022 2:45:00 AM 24.67 76.406 0.186 7.31 94.7 3.52
8/1/2022 3:00:00 AM 24.51 76.118 0.186 7.32 96.74 4.17
8/1/2022 3:15:00 AM 24.48 76.064 0.186 7.33 96.55 4.18
8/1/2022 3:30:00 AM 24.39 75.902 0.187 7.34 96.37 4.18
8/1/2022 3:45:00 AM 24.33 75.794 0.187 7.33 96.32 4.13
8/1/2022 4:00:00 AM 24.26 75.668 0.188 7.36 91.73 4.15
8/1/2022 4:15:00 AM 24.21 75.578 0.188 7.32 91.34 3.76
8/1/2022 4:30:00 AM 24.14 75.452 0.189 7.31 91.92 2.93
8/1/2022 4:45:00 AM 24.09 75.362 0.191 7.33 94.6 3.54
8/1/2022 5:00:00 AM 24.05 75.29 0.191 7.28 91.62 2.88
8/1/2022 5:15:00 AM 24.02 75.236 0.192 7.3 92.02 3.84
8/1/2022 5:30:00 AM 23.99 75.182 0.193 7.32 91.92 4.16
8/1/2022 5:45:00 AM 23.95 75.11 0.194 7.28 92.14 2.96
8/1/2022 6:00:00 AM 23.9 75.02 0.195 7.31 92.22 3.6
8/1/2022 6:15:00 AM 23.85 74.93 0.195 7.33 92.23 4.38
8/1/2022 6:30:00 AM 23.8 74.84 0.196 7.37 92.71 4.54
8/1/2022 6:45:00 AM 23.77 74.786 0.197 7.38 92.85 4.4
8/1/2022 7:00:00 AM 23.76 74.768 0.197 7.35 92.88 3.62
8/1/2022 7:15:00 AM 23.73 74.714 0.198 7.29 92.74 3.33
8/1/2022 7:30:00 AM 23.71 74.67799 0.199 7.23 92.77 2.74
8/1/2022 7:45:00 AM 23.68 74.624 0.199 7.24 94.13 3.49
8/1/2022 8:00:00 AM 23.7 74.66 0.2 7.23 93.1 3.14
8/1/2022 8:15:00 AM 23.71 74.67799 0.201 7.19 93.33 2.37
8/1/2022 8:30:00 AM 23.75 74.75 0.202 7.2 93.48 2.56
8/1/2022 8:45:00 AM 23.8 74.84 0.202 7.23 93.51 2.89
8/1/2022 9:00:00 AM 23.88 74.984 0.203 7.28 93.57 3.32
8/1/2022 9:15:00 AM 23.97 75.146 0.204 7.34 93.69 4.32
8/1/2022 9:30:00 AM 24.03 75.254 0.204 7.36 95.06 4.96
8/1/2022 9:45:00 AM 24.1 75.38 0.206 7.44 95.31 5.37
8/1/2022 10:00:00 AM 24.16 75.488 0.207 7.39 95.26 4.66
8/1/2022 10:15:00 AM 24.18 75.524 0.207 7.4 95.4 5.3
8/1/2022 10:30:00 AM 24.2 75.56 0.207 7.36 95.57 4.28
8/1/2022 10:45:00 AM 24.26 75.668 0.209 7.36 96.5 5.02
8/1/2022 11:00:00 AM 24.33 75.794 0.209 7.33 97.17 4.17
8/1/2022 11:15:00 AM 24.54 76.172 0.209 7.46 97.45 6.66
8/1/2022 11:30:00 AM 24.86 76.748 0.21 7.57 98.52 7.49
8/1/2022 11:45:00 AM 25.2 77.36 0.21 7.69 99.54 8.26
8/1/2022 12:00:00 PM 25.54 77.972 0.211 7.8 99.76 8.97
8/1/2022 12:15:00 PM 25.84 78.512 0.212 7.83 99.83 8.76
8/1/2022 12:30:00 PM 26.05 78.89 0.213 7.91 98.46 9.12
8/1/2022 12:45:00 PM 26.29 79.32201 0.214 7.96 96.19 8.73
8/1/2022 1:00:00 PM 26.51 79.718 0.214 8.01 94.97 8.75
8/1/2022 1:15:00 PM 26.83 80.294 0.215 8.1 91.44 9.35
8/1/2022 1:30:00 PM 27.27 81.086 0.216 7.93 92.14 9.6
8/1/2022 1:45:00 PM 27.69 81.842 0.217 8.08 92.13 9.69
8/1/2022 2:00:00 PM 27.91 82.238 0.218 8.17 92.16 5.36
8/1/2022 2:15:00 PM 28.2 82.76 0.219 8.22 91.49 6.83
8/1/2022 2:30:00 PM 28.54 83.372 0.219 8.31 90.43 5.27
8/1/2022 2:45:00 PM 29.03 84.25401 0.22 8.31 87.85 10.06
8/1/2022 3:00:00 PM 29.41 84.938 0.222 8.39 88.16 5.72
8/1/2022 3:15:00 PM 29.74 85.532 0.223 8.41 88.96 9.59
8/1/2022 3:30:00 PM 30 86 0.224 8.46 88.61 6.18
8/1/2022 3:45:00 PM 30.11 86.198 0.225 8.45 88.56 7.71
8/1/2022 4:00:00 PM 30.17 86.306 0.226 8.51 88.44 5.57
8/1/2022 4:15:00 PM 30.27 86.486 0.227 8.49 88.57 4.58
8/1/2022 4:30:00 PM 30.39 86.702 0.228 8.35 88.71 8.45
8/1/2022 4:45:00 PM 30.48 86.864 0.229 8.37 88.64 3.41
8/1/2022 5:00:00 PM 30.56 87.008 0.23 8.42 87.86 4.44
8/1/2022 5:15:00 PM 30.53 86.954 0.231 8.35 88.65 9.62
8/1/2022 5:30:00 PM 30.52 86.936 0.232 8.53 86.76 7.83
8/1/2022 5:45:00 PM 30.5 86.9 0.233 8.49 85.26 6.27
8/1/2022 6:00:00 PM 30.47 86.84599 0.233 8.51 84.39 5.48
8/1/2022 6:15:00 PM 30.44 86.792 0.234 8.56 84.41 10.2
8/1/2022 6:30:00 PM 30.39 86.702 0.235 8.51 84.79 8.65
8/1/2022 6:45:00 PM 30.22 86.396 0.236 8.57 84.68 10.15
8/1/2022 7:00:00 PM 30 86 0.237 8.55 84.66 8.92
8/1/2022 7:15:00 PM 29.8 85.64 0.238 8.49 84.68 8.84
8/1/2022 7:30:00 PM 29.56 85.208 0.239 8.49 84.64 9.01
8/1/2022 7:45:00 PM 29.37 84.866 0.24 8.47 84.82 8.48
8/1/2022 8:00:00 PM 29.17 84.506 0.24 8.38 84.72 7.8
8/1/2022 8:15:00 PM 28.95 84.11 0.241 8.37 84.38 8.43
8/1/2022 8:30:00 PM 28.74 83.732 0.242 8.31 84.19 8.41
8/1/2022 8:45:00 PM 28.56 83.408 0.242 8.31 84.17 7.36
8/1/2022 9:00:00 PM 28.37 83.066 0.243 8.18 84.27 7.52
8/1/2022 9:15:00 PM 28.24 82.832 0.243 8.11 84.16 7.18
8/1/2022 9:30:00 PM 28.09 82.562 0.244 8.02 84.13 6.88
8/1/2022 9:45:00 PM 27.88 82.184 0.245 8.08 84.35 6.92
8/1/2022 10:00:00 PM 27.7 81.86 0.246 8.01 84.49 7.02
8/1/2022 10:15:00 PM 24.18 75.524 0.248 7.14 84.53 4.68
8/1/2022 10:30:00 PM 22.68 72.824 0.247 7.06 85.07 4.81
8/1/2022 10:45:00 PM 23.48 74.264 0.245 7.34 84.8 5.09
8/1/2022 11:00:00 PM 24.48 76.064 0.246 7.47 84.6 6.52
8/1/2022 11:15:00 PM 24.92 76.856 0.248 7.34 84.54 5.37
8/1/2022 11:30:00 PM 25.22 77.396 0.248 7.38 84.64 4.98
8/1/2022 11:45:00 PM 25.29 77.522 0.248 7.32 84.83 3.04
8/2/2022 12:00:00 AM 25.38 77.684 0.247 7.32 84.99 4.69
8/2/2022 12:15:00 AM 25.4 77.72 0.246 7.33 84.95 3.84
8/2/2022 12:30:00 AM 25.4 77.72 0.246 7.26 84.97 4.16
8/2/2022 12:45:00 AM 25.4 77.72 0.244 7.21 78.58 3.47
8/2/2022 1:00:00 AM 25.36 77.648 0.242 7.17 77.35 2.47
8/2/2022 1:15:00 AM 25.32 77.576 0.24 7.18 77.27 2.93
8/2/2022 1:30:00 AM 25.29 77.522 0.238 7.24 77.22 3.38
8/2/2022 1:45:00 AM 25.27 77.486 0.235 7.3 77.11 3.65
8/2/2022 2:00:00 AM 25.2 77.36 0.233 7.22 77.26 3.42
8/2/2022 2:15:00 AM 25.16 77.288 0.232 7.23 77.33 2.99
8/2/2022 2:30:00 AM 25.07 77.126 0.231 7.17 77.39 2.81
8/2/2022 2:45:00 AM 25.02 77.036 0.229 7.17 77.47 1.53
8/2/2022 3:00:00 AM 24.94 76.892 0.228 7.22 77.54 3.35
8/2/2022 3:15:00 AM 24.89 76.802 0.228 7.29 76.89 4.22
8/2/2022 3:30:00 AM 24.85 76.73 0.228 7.28 76.88 3.26
8/2/2022 3:45:00 AM 24.78 76.604 0.227 7.27 77.02 3.96
8/2/2022 4:00:00 AM 24.74 76.532 0.226 7.31 77.04 3.39
8/2/2022 4:15:00 AM 24.65 76.37 0.226 7.28 77.09 3.17
8/2/2022 4:30:00 AM 24.6 76.28 0.225 7.3 77.19 3.78
8/2/2022 4:45:00 AM 24.53 76.154 0.225 7.28 77.13 3.65
8/2/2022 5:00:00 AM 24.47 76.046 0.224 7.26 77.58 3.26
8/2/2022 5:15:00 AM 24.41 75.938 0.224 7.29 78.08 3.15
8/2/2022 5:30:00 AM 24.37 75.866 0.224 7.35 78.12 3.98
8/2/2022 5:45:00 AM 24.3 75.74 0.224 7.33 78.05 3.81
8/2/2022 6:00:00 AM 24.2 75.56 0.224 7.37 78.19 4.63
8/2/2022 6:15:00 AM 24.18 75.524 0.224 7.34 78.32 3.81
8/2/2022 6:30:00 AM 24.12 75.416 0.224 7.31 78.45 2.91
8/2/2022 6:45:00 AM 24.08 75.344 0.223 7.32 78.57 4.44
8/2/2022 7:00:00 AM 24.07 75.326 0.224 7.34 79.08 4.12
8/2/2022 7:15:00 AM 24.07 75.326 0.224 7.34 79.28 3.71
8/2/2022 7:30:00 AM 24.04 75.272 0.225 7.26 79.33 2.7
8/2/2022 7:45:00 AM 24.04 75.272 0.225 7.27 79.25 3.46
8/2/2022 8:00:00 AM 24.08 75.344 0.225 7.28 80.58 3.74
8/2/2022 8:15:00 AM 24.11 75.398 0.225 7.26 81.43 3.54
8/2/2022 8:30:00 AM 24.15 75.47 0.225 7.26 81.75 3.76
8/2/2022 8:45:00 AM 24.21 75.578 0.224 7.26 82.53 3.55
8/2/2022 9:00:00 AM 24.29 75.722 0.224 7.26 85.64 2.39
8/2/2022 9:15:00 AM 24.38 75.884 0.225 7.29 84.78 4.53
8/2/2022 9:30:00 AM 24.47 76.046 0.226 7.4 86.08 5.31
8/2/2022 9:45:00 AM 24.56 76.208 0.226 7.39 86.15 4.88
8/2/2022 10:00:00 AM 24.64 76.352 0.227 7.43 85.74 5.11
8/2/2022 10:15:00 AM 24.69 76.442 0.228 7.41 86.28 5.26
8/2/2022 10:30:00 AM 24.78 76.604 0.228 7.43 86.34 5.11
8/2/2022 10:45:00 AM 24.9 76.82 0.228 7.51 84.13 6.59
8/2/2022 11:00:00 AM 24.97 76.946 0.229 7.57 84.19 7.02
8/2/2022 11:15:00 AM 25.01 77.018 0.229 7.48 83.3 6.2
8/2/2022 11:30:00 AM 25.17 77.306 0.229 7.49 83.16 6.77
8/2/2022 11:45:00 AM 25.43 77.774 0.228 7.57 83.06 6.65
8/2/2022 12:00:00 PM 25.66 78.188 0.228 7.59 83.22 6.75
8/2/2022 12:15:00 PM 25.84 78.512 0.227 7.56 82.96 6.64
8/2/2022 12:30:00 PM 26.04 78.872 0.227 7.54 82.9 6.92
8/2/2022 12:45:00 PM 26.16 79.088 0.226 7.57 82.75 6.91
8/2/2022 1:00:00 PM 26.42 79.556 0.227 7.65 81.66 7.6
8/2/2022 1:15:00 PM 26.64 79.952 0.226 7.7 81.48 8.03
8/2/2022 1:30:00 PM 27.01 80.618 0.227 7.69 81.55 7.99
8/2/2022 1:45:00 PM 27.47 81.446 0.227 7.77 81.3 8.81
8/2/2022 2:00:00 PM 27.78 82.004 0.227 7.99 81.39 9.51
8/2/2022 2:15:00 PM 27.83 82.094 0.227 8.07 81.43 9.46
8/2/2022 2:30:00 PM 27.95 82.31 0.227 7.95 82.06 8.91
8/2/2022 2:45:00 PM 28.16 82.688 0.228 8.01 82.08 9.44
8/2/2022 3:00:00 PM 28.46 83.228 0.228 8.15 82.21 10.15
8/2/2022 3:15:00 PM 28.8 83.84 0.229 8.2 95.34 9.64
8/2/2022 3:30:00 PM 29 84.2 0.23 8.23 93.28 9.88
8/2/2022 3:45:00 PM 29.32 84.776 0.23 8.16 92.89 9.17
8/2/2022 4:00:00 PM 29.33 84.794 0.23 8.33 91.89 10.35
8/2/2022 4:15:00 PM 29.41 84.938 0.23 8.24 90.06 9.42
8/2/2022 4:30:00 PM 29.47 85.046 0.23 8.34 90.19 10.01
8/2/2022 4:45:00 PM 29.54 85.172 0.229 8.37 90.1 10.08
8/2/2022 5:00:00 PM 29.65 85.37 0.227 8.28 89.11 9.11
8/2/2022 5:15:00 PM 29.79 85.622 0.225 8.26 89 9.32
8/2/2022 5:30:00 PM 29.71 85.478 0.224 8.38 89.14 10.22
8/2/2022 5:45:00 PM 29.75 85.55 0.223 8.24 86.36 8.44
8/2/2022 6:00:00 PM 29.59 85.262 0.223 8.24 86.38 8.83
8/2/2022 6:15:00 PM 29.27 84.686 0.221 8.27 86.49 8.64
8/2/2022 6:30:00 PM 28.94 84.092 0.22 8.25 84.53 8.41
8/2/2022 6:45:00 PM 28.56 83.408 0.219 8.25 84.2 8.31
8/2/2022 7:00:00 PM 28.09 82.562 0.219 8.3 84 8.25
8/2/2022 7:15:00 PM 27.62 81.716 0.219 8.28 83.84 8.14
8/2/2022 7:30:00 PM 27.23 81.014 0.219 8.2 84.17 7.69
8/2/2022 7:45:00 PM 27.06 80.708 0.219 8.28 84.11 8.36
8/2/2022 8:00:00 PM 27.03 80.654 0.22 8.37 84.22 8.85
8/2/2022 8:15:00 PM 26.88 80.384 0.22 8.32 84.04 8.47
8/2/2022 8:30:00 PM 26.68 80.024 0.221 8.25 83.47 8.01
8/2/2022 8:45:00 PM 26.6 79.88 0.221 8.27 83.42 8.22
8/2/2022 9:00:00 PM 26.54 79.772 0.221 8.23 83.38 7.68
8/2/2022 9:15:00 PM 26.45 79.61 0.222 8.22 83.3 7.83
8/2/2022 9:30:00 PM 26.37 79.466 0.222 8.08 83.28 6.76
8/2/2022 9:45:00 PM 26.26 79.268 0.223 8.01 83.28 6.81
8/2/2022 10:00:00 PM 26.16 79.088 0.223 7.94 83.36 6.38
8/2/2022 10:15:00 PM 23.14 73.652 0.224 7.18 82.81 4.8
8/2/2022 10:30:00 PM 22.01 71.618 0.221 6.93 83.22 4.75
8/2/2022 10:45:00 PM 22.88 73.184 0.22 7.35 83.03 6.33
8/2/2022 11:00:00 PM 23.47 74.246 0.22 7.36 82.8 5.84
8/2/2022 11:15:00 PM 23.79 74.82201 0.221 7.36 82.73 5.56
8/2/2022 11:30:00 PM 24.03 75.254 0.222 7.34 82.7 4.68
8/2/2022 11:45:00 PM 24.26 75.668 0.222 7.28 82.66 3.12
8/3/2022 12:00:00 AM 24.42 75.956 0.222 7.43 82.59 5.24
8/3/2022 12:15:00 AM 24.43 75.974 0.223 7.34 81.99 4.72
8/3/2022 12:30:00 AM 24.35 75.83 0.223 7.32 81.89 4.67
8/3/2022 12:45:00 AM 24.31 75.758 0.223 7.31 82.02 4.62
8/3/2022 1:00:00 AM 24.37 75.866 0.223 7.39 82 4.94
8/3/2022 1:15:00 AM 24.28 75.704 0.223 7.32 81.94 4.24
8/3/2022 1:30:00 AM 24.24 75.632 0.223 7.34 81.88 4.06
8/3/2022 1:45:00 AM 24.2 75.56 0.223 7.31 81.78 3.6
8/3/2022 2:00:00 AM 24.09 75.362 0.223 7.3 81.83 4.15
8/3/2022 2:15:00 AM 24.03 75.254 0.223 7.32 81.79 4.27
8/3/2022 2:30:00 AM 24 75.2 0.223 7.39 81.79 4.27
8/3/2022 2:45:00 AM 23.89 75.002 0.223 7.33 81.77 3.98
8/3/2022 3:00:00 AM 23.76 74.768 0.224 7.33 81.7 4.35
8/3/2022 3:15:00 AM 23.68 74.624 0.223 7.34 81.71 4.17
8/3/2022 3:30:00 AM 23.6 74.48 0.224 7.31 81.68 3.93
8/3/2022 3:45:00 AM 23.51 74.318 0.224 7.3 81.67 3.87
8/3/2022 4:00:00 AM 23.46 74.228 0.224 7.27 81.71 3.12
8/3/2022 4:15:00 AM 23.39 74.102 0.224 7.29 81.7 3.52
8/3/2022 4:30:00 AM 23.29 73.922 0.224 7.34 81.68 3.65
8/3/2022 4:45:00 AM 23.18 73.724 0.224 7.29 81.67 3.62
8/3/2022 5:00:00 AM 23.1 73.58 0.225 7.34 81.74 3.78
8/3/2022 5:15:00 AM 23 73.4 0.225 7.34 81.72 4.11
8/3/2022 5:30:00 AM 22.92 73.256 0.225 7.36 81.87 4.19
8/3/2022 5:45:00 AM 22.84 73.112 0.225 7.34 80.69 4.09
8/3/2022 6:00:00 AM 22.73 72.914 0.225 7.34 80.75 4.27
8/3/2022 6:15:00 AM 22.67 72.806 0.225 7.32 80.69 2.99
8/3/2022 6:30:00 AM 22.62 72.716 0.226 7.31 80.71 3.13
8/3/2022 6:45:00 AM 22.55 72.59 0.226 7.36 80.77 3.12
8/3/2022 7:00:00 AM 22.49 72.482 0.225 7.33 80.79 4.24
8/3/2022 7:15:00 AM 22.41 72.338 0.225 7.34 80.74 3.82
8/3/2022 7:30:00 AM 22.4 72.32 0.225 7.32 80.86 3.81
8/3/2022 7:45:00 AM 22.41 72.338 0.225 7.33 80.91 2.71
8/3/2022 8:00:00 AM 22.41 72.338 0.225 7.41 80.93 4.57
8/3/2022 8:15:00 AM 22.42 72.356 0.224 7.33 80.92 3.75
8/3/2022 8:30:00 AM 22.44 72.392 0.224 7.37 81.02 4.59
8/3/2022 8:45:00 AM 22.51 72.518 0.224 7.44 81.64 5.22
8/3/2022 9:00:00 AM 22.53 72.554 0.224 7.42 81.73 5.05
8/3/2022 9:15:00 AM 22.53 72.554 0.224 7.38 81.61 4.48
8/3/2022 9:30:00 AM 22.54 72.57201 0.224 7.34 81.66 3.2
8/3/2022 9:45:00 AM 22.52 72.536 0.224 7.33 81.69 3.73
8/3/2022 10:00:00 AM 22.55 72.59 0.224 7.3 81.71 3.87
8/3/2022 10:15:00 AM 22.62 72.716 0.225 7.3 81.72 4.06
8/3/2022 10:30:00 AM 22.7 72.86 0.224 7.28 81.69 4.18
8/3/2022 10:45:00 AM 22.82 73.076 0.224 7.3 81.63 4.12
8/3/2022 11:00:00 AM 22.96 73.328 0.224 7.35 81.59 5.3
8/3/2022 11:15:00 AM 23.27 73.886 0.224 7.48 81.59 6.93
8/3/2022 11:30:00 AM 23.6 74.48 0.224 7.52 82.09 6.68
8/3/2022 11:45:00 AM 23.96 75.128 0.224 7.56 82.05 7.08
8/3/2022 12:00:00 PM 24.31 75.758 0.224 7.61 82.02 7.21
8/3/2022 12:15:00 PM 24.65 76.37 0.224 7.67 82.29 7.91
8/3/2022 12:30:00 PM 25.07 77.126 0.225 7.7 82.6 8.03
8/3/2022 12:45:00 PM 25.53 77.954 0.224 7.76 83.29 8.32
8/3/2022 1:00:00 PM 25.99 78.782 0.225 7.79 83.31 8.85
8/3/2022 1:15:00 PM 26.5 79.7 0.225 7.77 84.01 8.69
8/3/2022 1:30:00 PM 26.95 80.51 0.225 7.77 84.02 8.01
8/3/2022 1:45:00 PM 27.34 81.212 0.225 7.8 83.91 8.71
8/3/2022 2:00:00 PM 27.91 82.238 0.225 7.84 84.1 9.06
8/3/2022 2:15:00 PM 28.28 82.904 0.226 8.13 84.42 10.15
8/3/2022 2:30:00 PM 28.63 83.534 0.226 8.21 84.11 9.84
8/3/2022 2:45:00 PM 28.94 84.092 0.226 8.28 84.6 10.35
8/3/2022 3:00:00 PM 29.31 84.758 0.227 8.33 84.83 11.02
8/3/2022 3:15:00 PM 29.56 85.208 0.227 8.28 85.17 10.3
8/3/2022 3:30:00 PM 29.78 85.604 0.228 8.13 85.64 10.61
8/3/2022 3:45:00 PM 29.97 85.946 0.229 8.23 85.74 10.87
8/3/2022 4:00:00 PM 30.12 86.216 0.229 8.32 86.04 10.77
8/3/2022 4:15:00 PM 30.2 86.36 0.228 8.3 85.88 10.64
8/3/2022 4:30:00 PM 30.38 86.684 0.228 8.41 85.8 11.03
8/3/2022 4:45:00 PM 30.39 86.702 0.228 8.39 85.72 10.59
8/3/2022 5:00:00 PM 30.45 86.81001 0.228 8.39 85.64 10.52
8/3/2022 5:15:00 PM 30.49 86.882 0.228 8.43 85.89 10.82
8/3/2022 5:30:00 PM 30.48 86.864 0.228 8.48 85.4 11.14
8/3/2022 5:45:00 PM 30.44 86.792 0.228 8.47 83.86 10.89
8/3/2022 6:00:00 PM 30.37 86.666 0.229 8.45 83.8 10.83
8/3/2022 6:15:00 PM 30.26 86.468 0.229 8.45 83.81 10.54
8/3/2022 6:30:00 PM 30.13 86.23399 0.23 8.5 83.79 10.65
8/3/2022 6:45:00 PM 30.06 86.108 0.23 8.43 83.89 9.89
8/3/2022 7:00:00 PM 29.93 85.874 0.231 8.51 83.7 10.11
8/3/2022 7:15:00 PM 29.62 85.316 0.231 8.48 83.74 9.77
8/3/2022 7:30:00 PM 29.4 84.92 0.232 8.42 83.8 9.22
8/3/2022 7:45:00 PM 29.18 84.524 0.233 8.39 83.45 9.23
8/3/2022 8:00:00 PM 28.99 84.182 0.233 8.27 85.3 8.69
8/3/2022 8:15:00 PM 28.69 83.642 0.234 8.29 83.22 8.68
8/3/2022 8:30:00 PM 28.51 83.318 0.234 8.1 80.39 7.29
8/3/2022 8:45:00 PM 28.35 83.03 0.234 8.01 80.23 6.89
8/3/2022 9:00:00 PM 28.15 82.67 0.234 7.84 79.94 6.48
8/3/2022 9:15:00 PM 27.99 82.382 0.233 7.82 79.96 6.12
8/3/2022 9:30:00 PM 27.82 82.076 0.233 7.84 79.45 6.3
8/3/2022 9:45:00 PM 27.65 81.77 0.234 7.74 80.24 6.03
8/3/2022 10:00:00 PM 27.43 81.374 0.234 7.69 106.69 5.61
8/3/2022 10:15:00 PM 24.25 75.65 0.237 7.03 115.65 1.83
8/3/2022 10:30:00 PM 23.03 73.454 0.234 7.06 129.22 1.9
8/3/2022 10:45:00 PM 23.61 74.498 0.232 7.23 127.12 2.75
8/3/2022 11:00:00 PM 24.39 75.902 0.234 7.33 120.14 5.32
8/3/2022 11:15:00 PM 24.81 76.658 0.235 7.34 110.35 5.99
8/3/2022 11:30:00 PM 25.02 77.036 0.235 7.24 110.5 5.21
8/3/2022 11:45:00 PM 25.18 77.324 0.236 7.19 103.8 4.14
8/4/2022 12:00:00 AM 25.21 77.378 0.237 7.12 104.6 4
8/4/2022 12:15:00 AM 25.25 77.45 0.238 7.17 104.42 4.56
8/4/2022 12:30:00 AM 25.24 77.432 0.238 7.17 104.57 3.54
8/4/2022 12:45:00 AM 25.24 77.432 0.239 7.19 104.41 4.73
8/4/2022 1:00:00 AM 25.2 77.36 0.239 7.16 104.58 3.51
8/4/2022 1:15:00 AM 25.17 77.306 0.24 7.2 104.96 4.1
8/4/2022 1:30:00 AM 25.12 77.216 0.24 7.27 105.31 4.4
8/4/2022 1:45:00 AM 25.03 77.054 0.241 7.25 105.37 4.53
8/4/2022 2:00:00 AM 24.97 76.946 0.241 7.29 102.84 4.48
8/4/2022 2:15:00 AM 24.9 76.82 0.242 7.31 101.79 4.62
8/4/2022 2:30:00 AM 24.86 76.748 0.242 7.28 101.87 4.5
8/4/2022 2:45:00 AM 24.79 76.622 0.242 7.25 101.81 3.74
8/4/2022 3:00:00 AM 24.7 76.46 0.243 7.31 100.07 4.34
8/4/2022 3:15:00 AM 24.63 76.334 0.243 7.23 98.98 2.99
8/4/2022 3:30:00 AM 24.53 76.154 0.243 7.25 99.27 3.42
8/4/2022 3:45:00 AM 24.43 75.974 0.244 7.29 98.69 2
8/4/2022 4:00:00 AM 24.34 75.812 0.245 7.28 96.18 2.43
8/4/2022 4:15:00 AM 24.24 75.632 0.245 7.25 95.23 2.09
8/4/2022 4:30:00 AM 24.14 75.452 0.246 7.27 95.76 2.85
8/4/2022 4:45:00 AM 24.06 75.308 0.246 7.29 96.12 4.24
8/4/2022 5:00:00 AM 24 75.2 0.259 7.28 96.62 4.11
8/4/2022 5:15:00 AM 23.9 75.02 0.255 7.29 96.63 4.09
8/4/2022 5:30:00 AM 23.83 74.894 0.256 7.27 108.97 3.32
8/4/2022 5:45:00 AM 23.75 74.75 0.251 7.25 324.47 3.4
8/4/2022 6:00:00 AM 23.66 74.588 0.251 7.25 305.72 3.56
8/4/2022 6:15:00 AM 23.55 74.39 0.251 7.22 299.2 2.73
8/4/2022 6:30:00 AM 23.44 74.192 0.252 7.27 293.65 3.6
8/4/2022 6:45:00 AM 23.36 74.048 0.252 7.26 286.39 3.35
8/4/2022 7:00:00 AM 23.31 73.958 0.252 7.22 279.23 2.8
8/4/2022 7:15:00 AM 23.26 73.868 0.252 7.24 272.71 3.58
8/4/2022 7:30:00 AM 23.23 73.814 0.252 7.22 277.71 2.96
8/4/2022 7:45:00 AM 23.21 73.778 0.252 7.17 273.33 2.46
8/4/2022 8:00:00 AM 23.19 73.742 0.252 7.15 271.07 2.49
8/4/2022 8:15:00 AM 23.18 73.724 0.252 7.23 262.98 3.54
8/4/2022 8:30:00 AM 23.2 73.76 0.252 7.18 259.44 2.91
8/4/2022 8:45:00 AM 23.21 73.778 0.251 7.18 254.07 2.72
8/4/2022 9:00:00 AM 23.24 73.832 0.251 7.19 249.76 3.23
8/4/2022 9:15:00 AM 23.28 73.904 0.247 7.17 182.52 2.77
8/4/2022 9:30:00 AM 23.33 73.994 0.243 7.11 140.03 2.24
8/4/2022 9:45:00 AM 23.43 74.174 0.241 7.15 137.24 2.82
8/4/2022 10:00:00 AM 23.58 74.444 0.242 7.18 136.88 2.43
8/4/2022 10:15:00 AM 23.73 74.714 0.243 7.2 93.77 3.14
8/4/2022 10:30:00 AM 23.84 74.912 0.244 7.2 97.06 3.14
8/4/2022 10:45:00 AM 23.97 75.146 0.244 7.22 99.38 3.47
8/4/2022 11:00:00 AM 24.17 75.506 0.245 7.28 112.72 4.36
8/4/2022 11:15:00 AM 24.39 75.902 0.245 7.33 127.73 4.78
8/4/2022 11:30:00 AM 24.69 76.442 0.246 7.41 139.24 5.85
8/4/2022 11:45:00 AM 25.09 77.162 0.246 7.52 151.99 6.75
8/4/2022 12:00:00 PM 25.49 77.882 0.247 7.57 156.57 6.31
8/4/2022 12:15:00 PM 25.93 78.674 0.249 7.6 159.49 7
8/4/2022 12:30:00 PM 26.32 79.376 0.25 7.65 163.83 7.52
8/4/2022 12:45:00 PM 26.7 80.06 0.251 7.68 225.85 7.68
8/4/2022 1:00:00 PM 26.97 80.546 0.252 7.72 132.94 7.9
8/4/2022 1:15:00 PM 27.3 81.14 0.253 7.69 114.63 8.47
8/4/2022 1:30:00 PM 27.76 81.968 0.254 7.77 92.24 9.4
8/4/2022 1:45:00 PM 28.26 82.868 0.256 7.86 93.03 9
8/4/2022 2:00:00 PM 28.68 83.624 0.257 8.03 91.98 9.64
8/4/2022 2:15:00 PM 29 84.2 0.258 8.11 91.49 9.58
8/4/2022 2:30:00 PM 29.17 84.506 0.259 8.15 91.24 9.7
8/4/2022 2:45:00 PM 29.11 84.39799 0.26 7.99 91.28 8.02
8/4/2022 3:00:00 PM 28.76 83.768 0.261 7.82 91.2 7.04
8/4/2022 3:15:00 PM 28.47 83.24599 0.259 7.66 90.76 7.16
8/4/2022 3:30:00 PM 28.3 82.94 0.26 7.68 90.65 6.83
8/4/2022 3:45:00 PM 28.11 82.598 0.261 7.69 90.58 6.64
8/4/2022 4:00:00 PM 27.82 82.076 0.261 7.74 91.63 6.75
8/4/2022 4:15:00 PM 27.53 81.554 0.262 7.7 91.65 6.15
8/4/2022 4:30:00 PM 27.31 81.158 0.262 7.67 91.78 4.07
8/4/2022 4:45:00 PM 27.15 80.87 0.263 7.62 92.21 6.58
8/4/2022 5:00:00 PM 26.99 80.582 0.263 7.65 92.13 6.46
8/4/2022 5:15:00 PM 26.85 80.33 0.264 7.59 92.16 6.59
8/4/2022 5:30:00 PM 26.75 80.15 0.264 7.51 92.27 6.26
8/4/2022 5:45:00 PM 26.68 80.024 0.265 7.52 92.26 5.46
8/4/2022 6:00:00 PM 26.53 79.754 0.265 7.66 92.23 6.73
8/4/2022 6:15:00 PM 26.2 79.16 0.265 7.6 93.07 6.09
8/4/2022 6:30:00 PM 25.99 78.782 0.265 7.61 93.16 6.12
8/4/2022 6:45:00 PM 25.84 78.512 0.265 7.47 93.1 5.54
8/4/2022 7:00:00 PM 25.73 78.314 0.265 7.46 92.94 5.72
8/4/2022 7:15:00 PM 25.71 78.278 0.265 7.37 93.09 4.81
8/4/2022 7:30:00 PM 25.72 78.296 0.265 7.34 93.14 4.82
8/4/2022 7:45:00 PM 25.76 78.368 0.265 7.31 93.09 4.1
8/4/2022 8:00:00 PM 25.78 78.404 0.266 7.35 93.14 3.46
8/4/2022 8:15:00 PM 25.8 78.44 0.266 7.32 93.1 3.79
8/4/2022 8:30:00 PM 25.79 78.422 0.266 7.29 92.69 3.91
8/4/2022 8:45:00 PM 25.77 78.386 0.267 7.34 93.63 4.88
8/4/2022 9:00:00 PM 25.74 78.332 0.267 7.37 93.83 4.69
8/4/2022 9:15:00 PM 25.7 78.26 0.268 7.33 93.83 4.84
8/4/2022 9:30:00 PM 25.67 78.206 0.268 7.29 93.6 3.73
8/4/2022 9:45:00 PM 25.66 78.188 0.269 7.26 93.45 2.59
8/4/2022 10:00:00 PM 25.63 78.134 0.269 7.24 94.46 2.37
8/4/2022 10:15:00 PM 22.49 72.482 0.271 6.82 93.19 4.09
8/4/2022 10:30:00 PM 21.71 71.078 0.268 6.8 94 3.8
8/4/2022 10:45:00 PM 22.34 72.212 0.267 7.03 93.9 2.92
8/4/2022 11:00:00 PM 22.88 73.184 0.268 7.11 93.89 2.83
8/4/2022 11:15:00 PM 23.32 73.976 0.268 7.13 93.87 2.65
8/4/2022 11:30:00 PM 23.69 74.642 0.267 7.19 93.89 3.07
8/4/2022 11:45:00 PM 24.07 75.326 0.267 7.22 93.95 3.39
8/5/2022 12:00:00 AM 24.24 75.632 0.267 7.18 94 1.9
8/5/2022 12:15:00 AM 24.37 75.866 0.267 7.16 93.92 2.07
8/5/2022 12:30:00 AM 24.49 76.082 0.267 7.15 93.98 2.95
8/5/2022 12:45:00 AM 24.6 76.28 0.268 7.2 93.96 4.13
8/5/2022 1:00:00 AM 24.64 76.352 0.268 7.16 93.94 2.47
8/5/2022 1:15:00 AM 24.68 76.424 0.268 7.17 93.89 2.56
8/5/2022 1:30:00 AM 24.67 76.406 0.268 7.14 94.08 1.92
8/5/2022 1:45:00 AM 24.63 76.334 0.268 7.14 94.07 2.48
8/5/2022 2:00:00 AM 24.59 76.262 0.267 7.13 94.06 2.55
8/5/2022 2:15:00 AM 24.54 76.172 0.267 7.18 93.93 3.15
8/5/2022 2:30:00 AM 24.54 76.172 0.267 7.17 93.95 3.05
8/5/2022 2:45:00 AM 24.51 76.118 0.266 7.23 93.57 3.6
8/5/2022 3:00:00 AM 24.48 76.064 0.266 7.2 93.47 2.41
8/5/2022 3:15:00 AM 24.42 75.956 0.266 7.16 93.4 2.05
8/5/2022 3:30:00 AM 24.36 75.848 0.265 7.19 93.96 3.1
8/5/2022 3:45:00 AM 24.3 75.74 0.265 7.22 94.1 3.41
8/5/2022 4:00:00 AM 24.27 75.686 0.265 7.23 94.13 3.67
8/5/2022 4:15:00 AM 24.23 75.614 0.265 7.23 94.09 3.01
8/5/2022 4:30:00 AM 24.19 75.542 0.264 7.22 94.26 3.17
8/5/2022 4:45:00 AM 24.15 75.47 0.264 7.21 94.42 2.92
8/5/2022 5:00:00 AM 24.1 75.38 0.264 7.24 89.4 3.75
8/5/2022 5:15:00 AM 24.05 75.29 0.264 7.24 89.73 3.88
8/5/2022 5:30:00 AM 24.01 75.218 0.264 7.23 90.06 3.78
8/5/2022 5:45:00 AM 23.98 75.164 0.264 7.24 90.33 3.69
8/5/2022 6:00:00 AM 23.94 75.092 0.264 7.25 88.91 3.66
8/5/2022 6:15:00 AM 23.88 74.984 0.264 7.24 89.19 3.71
8/5/2022 6:30:00 AM 23.83 74.894 0.265 7.23 89.38 3.73
8/5/2022 6:45:00 AM 23.81 74.858 0.265 7.23 89.7 3.5
8/5/2022 7:00:00 AM 23.82 74.876 0.265 7.24 89.81 3.52
8/5/2022 7:15:00 AM 23.83 74.894 0.265 7.24 90.04 3.98
8/5/2022 7:30:00 AM 23.86 74.948 0.265 7.27 90.19 4.08
8/5/2022 7:45:00 AM 23.88 74.984 0.264 7.25 89.26 3.67
8/5/2022 8:00:00 AM 23.9 75.02 0.264 7.24 88.47 3.56
8/5/2022 8:15:00 AM 23.94 75.092 0.264 7.22 88.55 2.98
8/5/2022 8:30:00 AM 23.99 75.182 0.264 7.2 88.82 3.28
8/5/2022 8:45:00 AM 24.04 75.272 0.264 7.19 89.03 3.35
8/5/2022 9:00:00 AM 24.08 75.344 0.264 7.21 89.29 3.56
8/5/2022 9:15:00 AM 24.1 75.38 0.263 7.21 89.49 3.45
8/5/2022 9:30:00 AM 24.12 75.416 0.263 7.23 89.59 4.16
8/5/2022 9:45:00 AM 24.2 75.56 0.263 7.23 89.98 3.28
8/5/2022 10:00:00 AM 24.35 75.83 0.263 7.27 84.54 4.52
8/5/2022 10:15:00 AM 24.51 76.118 0.263 7.29 90.15 4.81
8/5/2022 10:30:00 AM 24.74 76.532 0.263 7.34 90.31 5.7
8/5/2022 10:45:00 AM 24.93 76.874 0.263 7.37 89.99 6.26
8/5/2022 11:00:00 AM 25.14 77.252 0.263 7.47 88.02 7.17
8/5/2022 11:15:00 AM 25.34 77.612 0.263 7.43 87.68 6.63
8/5/2022 11:30:00 AM 25.52 77.936 0.263 7.44 87.55 6.74
8/5/2022 11:45:00 AM 25.71 78.278 0.263 7.47 87.79 7.32
8/5/2022 12:00:00 PM 25.9 78.62 0.263 7.49 87.7 6.94
8/5/2022 12:15:00 PM 26.08 78.944 0.26 7.51 87.82 4.93
8/5/2022 12:30:00 PM 26.23 79.214 0.257 7.52 87.37 4.69
8/5/2022 12:45:00 PM 26.38 79.484 0.257 7.52 87.33 5.66
8/5/2022 1:00:00 PM 26.52 79.736 0.258 7.52 87.78 3.7
8/5/2022 1:15:00 PM 26.77 80.186 0.258 7.58 88.28 3.03
8/5/2022 1:30:00 PM 27.04 80.672 0.258 7.61 89.06 3.75
8/5/2022 1:45:00 PM 27.3 81.14 0.257 7.6 89.28 3.14
8/5/2022 2:00:00 PM 27.64 81.752 0.258 7.56 86.36 3.6
8/5/2022 2:15:00 PM 28.01 82.418 0.257 7.79 86.87 3.92
8/5/2022 2:30:00 PM 28.38 83.084 0.253 7.8 86.86 3.85
8/5/2022 2:45:00 PM 28.66 83.588 0.251 8.02 87.18 4.11
8/5/2022 3:00:00 PM 28.96 84.128 0.251 8.01 87.57 4.23
8/5/2022 3:15:00 PM 29.31 84.758 0.25 8.11 87.91 4.81
8/5/2022 3:30:00 PM 29.61 85.298 0.251 8.2 75.11 5.76
8/5/2022 3:45:00 PM 29.8 85.64 0.251 8.18 73.04 3.47
8/5/2022 4:00:00 PM 29.84 85.712 0.25 8.19 73.06 4.72
8/5/2022 4:15:00 PM 29.91 85.838 0.25 8.21 72.97 6.01
8/5/2022 4:30:00 PM 29.68 85.424 0.25 8.14 73.18 6.6
8/5/2022 4:45:00 PM 29.48 85.064 0.251 8.09 73.28 8.95
8/5/2022 5:00:00 PM 29.42 84.956 0.251 8.11 73.32 7.27
8/5/2022 5:15:00 PM 28.81 83.858 0.251 7.89 73.37 6.15
8/5/2022 5:30:00 PM 27.67 81.806 0.252 7.71 73.09 6.05
8/5/2022 5:45:00 PM 26.06 78.908 0.252 7.51 73.31 5.86
8/5/2022 6:00:00 PM 25.29 77.522 0.252 7.34 73.47 3.81
8/5/2022 6:15:00 PM 24.89 76.802 0.251 7.19 73.53 3.2
8/5/2022 6:30:00 PM 24.62 76.316 0.251 7.12 73.55 1.89
8/5/2022 6:45:00 PM 24.46 76.028 0.251 7.06 73.44 0.72
8/5/2022 7:00:00 PM 24.4 75.92 0.251 6.97 73.49 0.72
8/5/2022 7:15:00 PM 24.09 75.362 0.251 7.04 73.46 0.89
8/5/2022 7:30:00 PM 23.61 74.498 0.251 7.02 73.56 1.09
8/5/2022 7:45:00 PM 23.32 73.976 0.251 6.99 73.77 1.25
8/5/2022 8:00:00 PM 23.21 73.778 0.251 6.97 74 1.05
8/5/2022 8:15:00 PM 23.19 73.742 0.251 6.99 73.93 1.16
8/5/2022 8:30:00 PM 23.18 73.724 0.251 6.99 74.07 0.99
8/5/2022 8:45:00 PM 23.16 73.688 0.251 6.99 74.05 1.04
8/5/2022 9:00:00 PM 23.18 73.724 0.251 6.98 74.13 1.22
8/5/2022 9:15:00 PM 23.16 73.688 0.251 6.97 74.21 2.01
8/5/2022 9:30:00 PM 23.12 73.616 0.251 6.95 75.11 1.96
8/5/2022 9:45:00 PM 23.08 73.544 0.25 6.95 74.98 1.03
8/5/2022 10:00:00 PM 23.07 73.526 0.25 6.96 74.97 0.85
8/5/2022 10:15:00 PM 22.14 71.852 0.251 6.71 74.65 0.74
8/5/2022 10:30:00 PM 21.96 71.528 0.25 6.79 74.9 0.7
8/5/2022 10:45:00 PM 22.18 71.924 0.249 6.82 74.86 0.63
8/5/2022 11:00:00 PM 22.38 72.284 0.249 6.85 74.88 0.65
8/5/2022 11:15:00 PM 22.55 72.59 0.249 6.88 74.78 0.8
8/5/2022 11:30:00 PM 22.67 72.806 0.249 6.89 74.81 0.66
8/5/2022 11:45:00 PM 22.73 72.914 0.249 6.93 74.86 0.57
8/6/2022 12:00:00 AM 22.78 73.004 0.249 6.9 74.88 0.46
8/6/2022 12:15:00 AM 22.8 73.04 0.248 6.94 74.98 0.33
8/6/2022 12:30:00 AM 22.79 73.022 0.248 6.95 74.96 0.32
8/6/2022 12:45:00 AM 22.77 72.986 0.248 6.98 75.21 0.32
8/6/2022 1:00:00 AM 22.76 72.968 0.248 7.02 75.29 0.33
8/6/2022 1:15:00 AM 22.77 72.986 0.248 7.03 74.85 0.41
8/6/2022 1:30:00 AM 22.79 73.022 0.248 7.03 74.83 0.39
8/6/2022 1:45:00 AM 22.81 73.058 0.248 7.04 74.84 0.32
8/6/2022 2:00:00 AM 22.83 73.094 0.247 7.02 74.9 0.29
8/6/2022 2:15:00 AM 22.86 73.148 0.247 7 75.45 0.28
8/6/2022 2:30:00 AM 22.87 73.166 0.247 6.99 75.17 0.28
8/6/2022 2:45:00 AM 22.89 73.202 0.247 7 75.24 0.27
8/6/2022 3:00:00 AM 22.88 73.184 0.247 7.02 75.22 0.28
8/6/2022 3:15:00 AM 22.89 73.202 0.247 7.03 77.07 0.28
8/6/2022 3:30:00 AM 22.87 73.166 0.247 7.01 77.15 0.27
8/6/2022 3:45:00 AM 22.87 73.166 0.247 7.02 77.01 0.27
8/6/2022 4:00:00 AM 22.86 73.148 0.247 7.01 76.93 0.27
8/6/2022 4:15:00 AM 22.85 73.13 0.246 7.01 76.94 0.27
8/6/2022 4:30:00 AM 22.84 73.112 0.246 7.02 76.28 0.27
8/6/2022 4:45:00 AM 22.81 73.058 0.246 7.07 76.15 0.27
8/6/2022 5:00:00 AM 22.78 73.004 0.246 7.07 76.15 0.27
8/6/2022 5:15:00 AM 22.77 72.986 0.246 7.09 76.17 0.27
8/6/2022 5:30:00 AM 22.75 72.95 0.246 7.07 76.23 0.27
8/6/2022 5:45:00 AM 22.72 72.896 0.246 7.09 76.33 0.28
8/6/2022 6:00:00 AM 22.7 72.86 0.246 7.07 76.4 0.27
8/6/2022 6:15:00 AM 22.68 72.824 0.246 7.11 76.4 0.27
8/6/2022 6:30:00 AM 22.66 72.788 0.246 7.12 76.63 0.26
8/6/2022 6:45:00 AM 22.63 72.734 0.247 7.15 76.62 0.26
8/6/2022 7:00:00 AM 22.62 72.716 0.247 7.15 74.89 0.26
8/6/2022 7:15:00 AM 22.6 72.68 0.247 7.17 74.31 0.26
8/6/2022 7:30:00 AM 22.61 72.698 0.247 7.2 74.41 0.26
8/6/2022 7:45:00 AM 22.61 72.698 0.247 7.23 74.48 0.26
8/6/2022 8:00:00 AM 22.61 72.698 0.247 7.27 74.25 0.26
8/6/2022 8:15:00 AM 22.62 72.716 0.247 7.24 74.38 0.26
8/6/2022 8:30:00 AM 22.61 72.698 0.247 7.27 74.35 0.27
8/6/2022 8:45:00 AM 22.6 72.68 0.247 7.24 74.32 0.27
8/6/2022 9:00:00 AM 22.58 72.644 0.247 7.3 74.59 0.27
8/6/2022 9:15:00 AM 22.6 72.68 0.247 7.25 74.86 0.27
8/6/2022 9:30:00 AM 22.64 72.752 0.247 7.26 75.03 0.27
8/6/2022 9:45:00 AM 22.68 72.824 0.248 7.23 75.34 0.26
8/6/2022 10:00:00 AM 22.73 72.914 0.248 7.21 75.29 0.26
8/6/2022 10:15:00 AM 22.8 73.04 0.248 7.18 76.1 0.26
8/6/2022 10:30:00 AM 22.89 73.202 0.248 7.1 76.1 0.26
8/6/2022 10:45:00 AM 22.99 73.382 0.248 7.1 76.4 0.26
8/6/2022 11:00:00 AM 23.15 73.67 0.248 7.06 76.15 0.26
8/6/2022 11:15:00 AM 23.29 73.922 0.249 7.06 76.07 0.26
8/6/2022 11:30:00 AM 23.54 74.372 0.249 7.08 76.37 0.26
8/6/2022 11:45:00 AM 23.83 74.894 0.249 7.11 76.71 0.28
8/6/2022 12:00:00 PM 24.19 75.542 0.25 7.1 76.6 0.29
8/6/2022 12:15:00 PM 24.46 76.028 0.25 7.1 76.93 0.37
8/6/2022 12:30:00 PM 24.82 76.676 0.25 7.17 76.82 0.37
8/6/2022 12:45:00 PM 25.19 77.342 0.251 7.22 77 0.4
8/6/2022 1:00:00 PM 25.56 78.008 0.251 7.3 77.16 0.46
8/6/2022 1:15:00 PM 25.99 78.782 0.252 7.36 77.59 0.36
8/6/2022 1:30:00 PM 26.33 79.394 0.252 7.41 77.82 0.37
8/6/2022 1:45:00 PM 26.62 79.916 0.253 7.46 77.88 0.31
8/6/2022 2:00:00 PM 26.86 80.348 0.253 7.48 78.21 0.38
8/6/2022 2:15:00 PM 27.12 80.816 0.254 7.52 74.98 0.4
8/6/2022 2:30:00 PM 27.44 81.392 0.254 7.57 74.47 0.4
8/6/2022 2:45:00 PM 27.71 81.878 0.255 7.58 74.44 0.42
8/6/2022 3:00:00 PM 27.79 82.022 0.255 7.58 74.41 0.29
8/6/2022 3:15:00 PM 27.59 81.662 0.256 7.57 74.63 0.28
8/6/2022 3:30:00 PM 27.42 81.356 0.256 7.52 74.78 0.5
8/6/2022 3:45:00 PM 27.31 81.158 0.257 7.54 73.57 0.53
8/6/2022 4:00:00 PM 27.37 81.266 0.258 7.54 73.96 0.51
8/6/2022 4:15:00 PM 27.47 81.446 0.258 7.55 75.57 0.52
8/6/2022 4:30:00 PM 27.71 81.878 0.258 7.55 75.85 0.56
8/6/2022 4:45:00 PM 27.83 82.094 0.259 7.54 76.01 0.52
8/6/2022 5:00:00 PM 27.97 82.346 0.26 7.61 76.04 0.59
8/6/2022 5:15:00 PM 27.94 82.292 0.261 7.66 75.19 0.64
8/6/2022 5:30:00 PM 27.95 82.31 0.262 7.68 73.41 0.55
8/6/2022 5:45:00 PM 27.99 82.382 0.263 7.64 73.51 0.52
8/6/2022 6:00:00 PM 27.93 82.274 0.263 7.67 73.19 0.54
8/6/2022 6:15:00 PM 27.83 82.094 0.264 7.65 73.1 0.48
8/6/2022 6:30:00 PM 27.71 81.878 0.265 7.66 73.04 0.51
8/6/2022 6:45:00 PM 25.28 77.504 0.266 7.06 72.89 0.43
8/6/2022 7:00:00 PM 23.93 75.074 0.265 6.9 73.06 0.44
8/6/2022 7:15:00 PM 23.92 75.056 0.264 6.88 73.06 0.37
8/6/2022 7:30:00 PM 24.23 75.614 0.264 6.88 73.07 0.39
8/6/2022 7:45:00 PM 24.76 76.568 0.264 6.92 73.06 0.44
8/6/2022 8:00:00 PM 25.07 77.126 0.265 6.93 73.03 0.47
8/6/2022 8:15:00 PM 25.24 77.432 0.266 6.87 73.01 0.39
8/6/2022 8:30:00 PM 25.33 77.594 0.266 6.92 72.9 0.46
8/6/2022 8:45:00 PM 25.58 78.044 0.266 6.98 72.91 0.51
8/6/2022 9:00:00 PM 25.48 77.864 0.267 7 72.89 0.4
8/6/2022 9:15:00 PM 25.4 77.72 0.267 7.11 72.91 0.4
8/6/2022 9:30:00 PM 25.4 77.72 0.268 7.2 72.91 0.5
8/6/2022 9:45:00 PM 25.37 77.666 0.268 7.24 72.9 0.5
8/6/2022 10:00:00 PM 25.41 77.738 0.268 7.22 72.96 0.43
8/6/2022 10:15:00 PM 25.36 77.648 0.269 7.28 73.01 0.46
8/6/2022 10:30:00 PM 25.36 77.648 0.269 7.27 72.99 0.53
8/6/2022 10:45:00 PM 25.35 77.63 0.27 7.27 72.72 0.47
8/6/2022 11:00:00 PM 25.43 77.774 0.27 7.25 72.82 0.45
8/6/2022 11:15:00 PM 25.66 78.188 0.27 7.26 72.85 0.61
8/6/2022 11:30:00 PM 25.46 77.828 0.271 7.33 71.86 0.52
8/6/2022 11:45:00 PM 25.2 77.36 0.271 7.32 70.56 0.51
8/7/2022 12:00:00 AM 25.03 77.054 0.272 7.33 70.56 0.55
8/7/2022 12:15:00 AM 24.93 76.874 0.273 7.32 71.07 0.51
8/7/2022 12:30:00 AM 24.8 76.64 0.271 7.34 71.08 0.53
8/7/2022 12:45:00 AM 24.76 76.568 0.271 7.29 71 0.6
8/7/2022 1:00:00 AM 24.73 76.514 0.272 7.31 71.03 0.6
8/7/2022 1:15:00 AM 24.63 76.334 0.273 7.34 71.02 0.54
8/7/2022 1:30:00 AM 24.6 76.28 0.273 7.29 70.33 0.6
8/7/2022 1:45:00 AM 24.56 76.208 0.274 7.3 69.08 0.61
8/7/2022 2:00:00 AM 24.46 76.028 0.275 7.31 68.88 0.69
8/7/2022 2:15:00 AM 24.53 76.154 0.275 7.24 68.32 0.67
8/7/2022 2:30:00 AM 24.62 76.316 0.276 7.2 68.24 0.68
8/7/2022 2:45:00 AM 24.58 76.244 0.276 7.25 68.23 0.69
8/7/2022 3:00:00 AM 24.53 76.154 0.277 7.26 68.37 0.78
8/7/2022 3:15:00 AM 24.49 76.082 0.277 7.26 68.31 0.83
8/7/2022 3:30:00 AM 24.5 76.1 0.278 7.24 68.52 1.04
8/7/2022 3:45:00 AM 24.62 76.316 0.279 7.26 68.49 1.4
8/7/2022 4:00:00 AM 24.58 76.244 0.28 7.29 68.61 1.06
8/7/2022 4:15:00 AM 24.6 76.28 0.28 7.23 69.31 0.78
8/7/2022 4:30:00 AM 24.45 76.01 0.28 7.26 69.53 0.83
8/7/2022 4:45:00 AM 24.58 76.244 0.28 7.19 69.52 0.67
8/7/2022 5:00:00 AM 24.44 75.992 0.281 7.21 69.52 0.58
8/7/2022 5:15:00 AM 24.45 76.01 0.282 7.21 69.51 0.59
8/7/2022 5:30:00 AM 24.37 75.866 0.282 7.2 69.6 0.84
8/7/2022 5:45:00 AM 24.38 75.884 0.283 7.23 69.65 0.88
8/7/2022 6:00:00 AM 24.5 76.1 0.283 7.2 69.2 0.77
8/7/2022 6:15:00 AM 24.64 76.352 0.284 7.25 69.19 0.79
8/7/2022 6:30:00 AM 24.75 76.55 0.284 7.19 68.78 0.53
8/7/2022 6:45:00 AM 24.67 76.406 0.285 7.22 69.12 0.64
8/7/2022 7:00:00 AM 24.46 76.028 0.285 7.24 69.25 0.63
8/7/2022 7:15:00 AM 24.58 76.244 0.286 7.17 69.21 0.49
8/7/2022 7:30:00 AM 24.36 75.848 0.286 7.22 69.49 2.61
8/7/2022 7:45:00 AM 24.29 75.722 0.287 7.21 69.57 2
8/7/2022 8:00:00 AM 24.49 76.082 0.287 7.2 70.1 2.18
8/7/2022 8:15:00 AM 24.57 76.226 0.288 7.24 69.58 2.57
8/7/2022 8:30:00 AM 24.55 76.19 0.288 7.28 69.69 2.14
8/7/2022 8:45:00 AM 24.39 75.902 0.289 7.28 69.71 2.73
8/7/2022 9:00:00 AM 24.55 76.19 0.289 7.25 71 1.57
8/7/2022 9:15:00 AM 24.46 76.028 0.29 7.3 69.95 2.1
8/7/2022 9:30:00 AM 24.39 75.902 0.29 7.33 69.5 2.98
8/7/2022 9:45:00 AM 24.53 76.154 0.29 7.3 69.68 2.24
8/7/2022 10:00:00 AM 24.57 76.226 0.292 7.27 69.95 2.52
8/7/2022 10:15:00 AM 24.66 76.388 0.291 7.33 70.07 2.14
8/7/2022 10:30:00 AM 24.76 76.568 0.292 7.35 70.21 4.68
8/7/2022 10:45:00 AM 24.96 76.92799 0.292 7.35 70.07 5.15
8/7/2022 11:00:00 AM 25.05 77.09 0.293 7.38 70.46 5.27
8/7/2022 11:15:00 AM 25.2 77.36 0.293 7.39 70.82 5.32
8/7/2022 11:30:00 AM 25.36 77.648 0.293 7.4 70.76 5.67
8/7/2022 11:45:00 AM 25.49 77.882 0.294 7.43 71.65 5.53
8/7/2022 12:00:00 PM 25.71 78.278 0.294 7.44 71.93 5.07
8/7/2022 12:15:00 PM 25.75 78.35 0.294 7.48 71.85 6.5
8/7/2022 12:30:00 PM 24.46 76.028 0.296 7.12 71.71 4
8/7/2022 12:45:00 PM 22.92 73.256 0.296 6.9 72.24 4.06
8/7/2022 1:00:00 PM 23.42 74.156 0.295 6.98 73.02 5.31
8/7/2022 1:15:00 PM 24.19 75.542 0.295 7.08 71.2 5.15
8/7/2022 1:30:00 PM 24.84 76.712 0.295 7.14 71.3 6.19
8/7/2022 1:45:00 PM 25.36 77.648 0.297 7.08 71.03 5.64
8/7/2022 2:00:00 PM 25.82 78.476 0.296 7.16 71.68 6.47
8/7/2022 2:15:00 PM 26.38 79.484 0.296 7.26 72.04 6.48
8/7/2022 2:30:00 PM 26.68 80.024 0.297 7.36 72.16 6.49
8/7/2022 2:45:00 PM 27.06 80.708 0.297 7.47 72.57 7.95
8/7/2022 3:00:00 PM 27.52 81.536 0.297 7.55 72.44 7.02
8/7/2022 3:15:00 PM 27.82 82.076 0.298 7.59 71.31 7.65
8/7/2022 3:30:00 PM 28.13 82.634 0.301 7.62 71.76 5.07
8/7/2022 3:45:00 PM 28.27 82.886 0.301 7.71 71.71 5.28
8/7/2022 4:00:00 PM 28.27 82.886 0.302 7.73 71.45 4.35
8/7/2022 4:15:00 PM 28.44 83.192 0.302 7.69 71.81 4.86
8/7/2022 4:30:00 PM 28.43 83.174 0.302 7.77 71.69 4.97
8/7/2022 4:45:00 PM 28.35 83.03 0.302 7.77 71.95 4.41
8/7/2022 5:00:00 PM 28.27 82.886 0.302 7.8 87.85 4.19
8/7/2022 5:15:00 PM 28.14 82.652 0.303 7.83 78.59 4.64
8/7/2022 5:30:00 PM 28.01 82.418 0.303 7.82 77.7 4.61
8/7/2022 5:45:00 PM 28.04 82.472 0.302 7.81 77.59 3.95
8/7/2022 6:00:00 PM 27.88 82.184 0.303 7.81 78.47 3.15
8/7/2022 6:15:00 PM 27.85 82.13 0.302 7.71 78.7 3.38
8/7/2022 6:30:00 PM 27.82 82.076 0.301 7.8 80.8 4.01
8/7/2022 6:45:00 PM 27.86 82.148 0.301 7.79 81.61 4.05
8/7/2022 7:00:00 PM 27.87 82.166 0.3 7.78 81.92 3.61
8/7/2022 7:15:00 PM 27.77 81.986 0.3 7.77 82.21 1.81
8/7/2022 7:30:00 PM 27.77 81.986 0.299 7.71 81.94 2.64
8/7/2022 7:45:00 PM 27.73 81.914 0.298 7.67 81.95 2.33
8/7/2022 8:00:00 PM 27.55 81.59 0.298 7.59 81.88 1.52
8/7/2022 8:15:00 PM 27.51 81.518 0.297 7.51 81.84 1.33
8/7/2022 8:30:00 PM 27.42 81.356 0.297 7.53 81.86 1.77
8/7/2022 8:45:00 PM 27.53 81.554 0.296 7.46 81.27 2.76
8/7/2022 9:00:00 PM 27.41 81.338 0.296 7.54 81.46 1.2
8/7/2022 9:15:00 PM 27.28 81.104 0.297 7.58 81.54 1.42
8/7/2022 9:30:00 PM 27.12 80.816 0.297 7.56 81.57 1.53
8/7/2022 9:45:00 PM 26.84 80.312 0.298 7.58 81.67 2.16
8/7/2022 10:00:00 PM 26.56 79.808 0.297 7.55 81.63 2.3
8/7/2022 10:15:00 PM 26.44 79.592 0.295 7.49 81.6 2.02
8/7/2022 10:30:00 PM 26.3 79.34 0.295 7.52 81.75 2.18
8/7/2022 10:45:00 PM 26.18 79.124 0.295 7.47 82.2 1.92
8/7/2022 11:00:00 PM 26.27 79.286 0.295 7.44 81.99 1.52
8/7/2022 11:15:00 PM 26.2 79.16 0.295 7.43 82.09 1.3
8/7/2022 11:30:00 PM 26.07 78.926 0.295 7.47 82 1.32
8/7/2022 11:45:00 PM 25.93 78.674 0.295 7.46 82.03 1.46
8/8/2022 12:00:00 AM 25.84 78.512 0.295 7.41 81.94 1.78
8/8/2022 12:15:00 AM 25.69 78.242 0.296 7.46 82.06 1.48
8/8/2022 12:30:00 AM 25.88 78.584 0.295 7.39 81.99 1.75
8/8/2022 12:45:00 AM 25.86 78.548 0.296 7.37 81.91 0.96
8/8/2022 1:00:00 AM 25.9 78.62 0.296 7.33 81.54 0.97
8/8/2022 1:15:00 AM 25.87 78.566 0.296 7.33 81.58 1.07
8/8/2022 1:30:00 AM 25.87 78.566 0.296 7.38 80.3 1.48
8/8/2022 1:45:00 AM 25.62 78.116 0.296 7.42 80.25 1.79
8/8/2022 2:00:00 AM 25.41 77.738 0.296 7.41 80.23 1.68
8/8/2022 2:15:00 AM 25.34 77.612 0.296 7.38 80.3 0.86
8/8/2022 2:30:00 AM 25.24 77.432 0.296 7.38 80.32 0.99
8/8/2022 2:45:00 AM 25.16 77.288 0.296 7.4 80.44 0.88
8/8/2022 3:00:00 AM 25.06 77.108 0.296 7.35 80.44 1.21
8/8/2022 3:15:00 AM 25.01 77.018 0.296 7.34 80.45 1.14
8/8/2022 3:30:00 AM 25.17 77.306 0.296 7.32 80.34 1.03
8/8/2022 3:45:00 AM 24.99 76.982 0.296 7.38 80.32 1.12
8/8/2022 4:00:00 AM 24.77 76.586 0.296 7.39 80.25 1.37
8/8/2022 4:15:00 AM 24.51 76.118 0.296 7.41 80.29 1.31
8/8/2022 4:30:00 AM 24.46 76.028 0.296 7.38 80.27 1.63
8/8/2022 4:45:00 AM 24.3 75.74 0.296 7.4 80.41 1.07
8/8/2022 5:00:00 AM 24.26 75.668 0.296 7.38 80.44 0.73
8/8/2022 5:15:00 AM 24.21 75.578 0.296 7.37 80.47 0.98
8/8/2022 5:30:00 AM 24.23 75.614 0.296 7.34 81.4 0.97
8/8/2022 5:45:00 AM 24.27 75.686 0.296 7.33 82.73 1.12
8/8/2022 6:00:00 AM 24.49 76.082 0.296 7.29 75.88 1.04
8/8/2022 6:15:00 AM 24.52 76.136 0.296 7.28 75.32 0.9
8/8/2022 6:30:00 AM 24.46 76.028 0.297 7.32 73.91 1.24
8/8/2022 6:45:00 AM 24.44 75.992 0.297 7.32 74.03 0.98
8/8/2022 7:00:00 AM 24.41 75.938 0.297 7.33 73.95 1.11
8/8/2022 7:15:00 AM 24.27 75.686 0.296 7.35 73.99 1.13
8/8/2022 7:30:00 AM 24.15 75.47 0.297 7.35 73.86 0.97
8/8/2022 7:45:00 AM 24.21 75.578 0.297 7.33 73.94 0.75
8/8/2022 8:00:00 AM 24.17 75.506 0.297 7.33 73.61 1.13
8/8/2022 8:15:00 AM 24.23 75.614 0.297 7.3 73.58 0.88
8/8/2022 8:30:00 AM 24.3 75.74 0.297 7.29 73.38 1.04
8/8/2022 8:45:00 AM 24.39 75.902 0.297 7.28 73.36 0.83
8/8/2022 9:00:00 AM 24.39 75.902 0.297 7.3 73.37 0.88
8/8/2022 9:15:00 AM 24.44 75.992 0.297 7.29 73.39 0.9
8/8/2022 9:30:00 AM 24.51 76.118 0.297 7.25 73.42 0.99
8/8/2022 9:45:00 AM 24.56 76.208 0.298 7.29 73.35 1.05
8/8/2022 10:00:00 AM 24.57 76.226 0.298 7.25 73.39 0.99
8/8/2022 10:15:00 AM 24.65 76.37 0.298 7.32 73.48 1.3
8/8/2022 10:30:00 AM 24.71 76.478 0.299 7.33 72.29 1.29
8/8/2022 10:45:00 AM 24.82 76.676 0.299 7.36 72.21 1.59
8/8/2022 11:00:00 AM 24.95 76.91 0.299 7.41 72.48 1.6
8/8/2022 11:15:00 AM 25.14 77.252 0.299 7.39 72.18 1.45
8/8/2022 11:30:00 AM 25.32 77.576 0.299 7.4 72.18 1.73
8/8/2022 11:45:00 AM 25.6 78.08 0.299 7.43 70.37 1.77
8/8/2022 12:00:00 PM 25.8 78.44 0.3 7.52 70.31 1.74
8/8/2022 12:15:00 PM 26.1 78.98 0.3 7.54 70.38 2.13
8/8/2022 12:30:00 PM 26.39 79.502 0.3 7.62 70.36 1.65
8/8/2022 12:45:00 PM 26.7 80.06 0.3 7.66 70.35 2.2
8/8/2022 1:00:00 PM 26.99 80.582 0.3 7.7 70.38 1.95
8/8/2022 1:15:00 PM 27.39 81.302 0.3 7.66 70.26 3
8/8/2022 1:30:00 PM 27.56 81.608 0.3 7.68 70.23 3.22
8/8/2022 1:45:00 PM 27.74 81.932 0.3 7.75 70.18 2.78
8/8/2022 2:00:00 PM 27.89 82.202 0.301 7.79 70.16 3.01
8/8/2022 2:15:00 PM 28.2 82.76 0.301 7.85 70.23 3.11
8/8/2022 2:30:00 PM 28.45 83.21001 0.301 7.9 70.15 2.71
8/8/2022 2:45:00 PM 28.55 83.39 0.301 7.93 70.12 2.67
8/8/2022 3:00:00 PM 28.75 83.75 0.301 7.97 70.06 2.04
8/8/2022 3:15:00 PM 28.9 84.02 0.301 7.98 69.94 2.41
8/8/2022 3:30:00 PM 28.95 84.11 0.301 7.97 69.92 2.1
8/8/2022 3:45:00 PM 27.03 80.654 0.303 7.34 69.53 1.8
8/8/2022 4:00:00 PM 25.42 77.756 0.303 7.05 69.13 2.25
8/8/2022 4:15:00 PM 25.35 77.63 0.301 6.99 69.01 2.18
8/8/2022 4:30:00 PM 25.65 78.17 0.3 7.02 67.88 2.91
8/8/2022 4:45:00 PM 26.14 79.052 0.299 7.04 67.91 2.56
8/8/2022 5:00:00 PM 26.71 80.078 0.298 7.11 66.12 2.86
8/8/2022 5:15:00 PM 27.11 80.798 0.297 7.35 67.78 3.27
8/8/2022 5:30:00 PM 27.36 81.248 0.297 7.31 67.2 3.33
8/8/2022 5:45:00 PM 27.34 81.212 0.296 7.36 67.26 2.91
8/8/2022 6:00:00 PM 27.33 81.194 0.296 7.35 68.3 2.77
8/8/2022 6:15:00 PM 27.41 81.338 0.295 7.37 68.25 2.15
8/8/2022 6:30:00 PM 27.47 81.446 0.295 7.44 70.01 1.96
8/8/2022 6:45:00 PM 27.51 81.518 0.295 7.42 69.71 1.48
8/8/2022 7:00:00 PM 27.47 81.446 0.295 7.45 69.81 2.12
8/8/2022 7:15:00 PM 27.51 81.518 0.296 7.47 69.73 2.14
8/8/2022 7:30:00 PM 27.51 81.518 0.295 7.38 69.7 1.58
8/8/2022 7:45:00 PM 27.3 81.14 0.296 7.43 69.67 2.73
8/8/2022 8:00:00 PM 27.19 80.942 0.296 7.45 69.7 2.29
8/8/2022 8:15:00 PM 27.1 80.78 0.296 7.44 69.73 2.73
8/8/2022 8:30:00 PM 27.05 80.69 0.296 7.44 69.82 1.61
8/8/2022 8:45:00 PM 26.95 80.51 0.296 7.52 69.95 2.14
8/8/2022 9:00:00 PM 26.9 80.42 0.297 7.48 69.72 2.06
8/8/2022 9:15:00 PM 26.85 80.33 0.297 7.45 69.16 1.75
8/8/2022 9:30:00 PM 26.72 80.096 0.297 7.47 68.59 2.06
8/8/2022 9:45:00 PM 26.76 80.168 0.297 7.46 68.47 1.94
8/8/2022 10:00:00 PM 26.91 80.438 0.297 7.5 68.41 2.34
8/8/2022 10:15:00 PM 25.25 77.45 0.299 7.12 68.41 2.03
8/8/2022 10:30:00 PM 23.34 74.012 0.298 6.87 68.56 1.68
8/8/2022 10:45:00 PM 23.32 73.976 0.297 6.85 68.7 1.37
8/8/2022 11:00:00 PM 23.89 75.002 0.296 6.9 68.79 1.55
8/8/2022 11:15:00 PM 24.44 75.992 0.295 7 68.82 1.66
8/8/2022 11:30:00 PM 24.81 76.658 0.295 7.01 68.68 1.08
8/8/2022 11:45:00 PM 25.16 77.288 0.295 7.11 68.8 2.14
8/9/2022 12:00:00 AM 25.3 77.54 0.295 7.18 68.65 1.93
8/9/2022 12:15:00 AM 25.21 77.378 0.295 7.26 68.76 1.74
8/9/2022 12:30:00 AM 25.24 77.432 0.295 7.26 68.73 1.19
8/9/2022 12:45:00 AM 25.3 77.54 0.294 7.23 68.7 1.02
8/9/2022 1:00:00 AM 25.41 77.738 0.294 7.25 68.68 1.44
8/9/2022 1:15:00 AM 25.41 77.738 0.295 7.24 68.7 1.21
8/9/2022 1:30:00 AM 25.53 77.954 0.294 7.27 68.62 1.14
8/9/2022 1:45:00 AM 25.76 78.368 0.294 7.26 68.65 1.47
8/9/2022 2:00:00 AM 25.8 78.44 0.294 7.31 68.53 1.34
8/9/2022 2:15:00 AM 25.64 78.152 0.294 7.33 74.29 1.6
8/9/2022 2:30:00 AM 25.52 77.936 0.294 7.34 74.16 1.42
8/9/2022 2:45:00 AM 25.43 77.774 0.294 7.34 74.14 1.46
8/9/2022 3:00:00 AM 25.31 77.558 0.294 7.33 73.64 0.83
8/9/2022 3:15:00 AM 25.12 77.216 0.294 7.36 73.79 1.56
8/9/2022 3:30:00 AM 24.96 76.92799 0.294 7.36 74.05 1.22
8/9/2022 3:45:00 AM 25.05 77.09 0.294 7.3 73.9 0.87
8/9/2022 4:00:00 AM 25.07 77.126 0.294 7.31 73.48 1.16
8/9/2022 4:15:00 AM 24.99 76.982 0.294 7.32 73.67 0.99
8/9/2022 4:30:00 AM 24.84 76.712 0.294 7.36 73.54 1.46
8/9/2022 4:45:00 AM 24.86 76.748 0.294 7.31 73.38 0.94
8/9/2022 5:00:00 AM 24.94 76.892 0.293 7.29 73.29 0.86
8/9/2022 5:15:00 AM 24.88 76.784 0.294 7.28 73.34 1.06
8/9/2022 5:30:00 AM 24.75 76.55 0.294 7.33 72.02 0.85
8/9/2022 5:45:00 AM 24.72 76.496 0.294 7.33 72.28 1
8/9/2022 6:00:00 AM 24.77 76.586 0.294 7.31 72.7 0.82
8/9/2022 6:15:00 AM 25.03 77.054 0.293 7.33 72.71 0.83
8/9/2022 6:30:00 AM 25.05 77.09 0.294 7.26 72.71 0.66
8/9/2022 6:45:00 AM 25.08 77.144 0.294 7.29 72.54 0.55
8/9/2022 7:00:00 AM 25.06 77.108 0.294 7.3 72.75 0.6
8/9/2022 7:15:00 AM 25.1 77.18 0.294 7.27 72.78 0.61
8/9/2022 7:30:00 AM 25.08 77.144 0.294 7.28 72.85 0.61
8/9/2022 7:45:00 AM 25.09 77.162 0.294 7.28 72.87 0.74
8/9/2022 8:00:00 AM 25.07 77.126 0.294 7.26 72.79 0.68
8/9/2022 8:15:00 AM 24.95 76.91 0.294 7.29 72.77 0.73
8/9/2022 8:30:00 AM 24.89 76.802 0.294 7.33 72.79 0.98
8/9/2022 8:45:00 AM 25.13 77.234 0.294 7.33 72.64 0.69
8/9/2022 9:00:00 AM 25.28 77.504 0.294 7.27 72.88 0.71
8/9/2022 9:15:00 AM 25.13 77.234 0.294 7.32 72.86 0.89
8/9/2022 9:30:00 AM 25.14 77.252 0.294 7.34 72.56 0.8
8/9/2022 9:45:00 AM 25.15 77.27 0.294 7.38 72.39 1.17
8/9/2022 10:00:00 AM 25.37 77.666 0.294 7.4 72.18 1.24
8/9/2022 10:15:00 AM 25.25 77.45 0.294 7.4 72.25 1.31
8/9/2022 10:30:00 AM 25.29 77.522 0.294 7.42 71.84 1.71
8/9/2022 10:45:00 AM 25.03 77.054 0.294 7.41 71.95 1.56
8/9/2022 11:00:00 AM 24.83 76.694 0.294 7.45 72 1.8
8/9/2022 11:15:00 AM 24.95 76.91 0.294 7.37 72.23 1.37
8/9/2022 11:30:00 AM 25.01 77.018 0.294 7.43 72.3 1.03
8/9/2022 11:45:00 AM 24.68 76.424 0.294 7.5 72.16 1.55
8/9/2022 12:00:00 PM 24.41 75.938 0.294 7.53 72.08 1.72
8/9/2022 12:15:00 PM 24.34 75.812 0.294 7.52 72 1.63
8/9/2022 12:30:00 PM 24.52 76.136 0.293 7.51 72.03 1.57
8/9/2022 12:45:00 PM 24.76 76.568 0.293 7.52 72.59 1.64
8/9/2022 1:00:00 PM 25.1 77.18 0.293 7.54 72.85 1.97
8/9/2022 1:15:00 PM 25.23 77.414 0.293 7.57 72.15 1.68
8/9/2022 1:30:00 PM 25.36 77.648 0.293 7.59 72.32 1.76
8/9/2022 1:45:00 PM 25.44 77.792 0.294 7.56 73.07 1.81
8/9/2022 2:00:00 PM 25.75 78.35 0.294 7.56 72.78 2.07
8/9/2022 2:15:00 PM 26.05 78.89 0.294 7.57 72.45 1.85
8/9/2022 2:30:00 PM 26.28 79.304 0.294 7.56 72.32 1.55
8/9/2022 2:45:00 PM 26.41 79.538 0.294 7.61 72.03 1.26
8/9/2022 3:00:00 PM 26.5 79.7 0.294 7.62 71.5 1.33
8/9/2022 3:15:00 PM 26.59 79.862 0.294 7.66 71.4 1.46
8/9/2022 3:30:00 PM 26.88 80.384 0.294 7.67 71.33 1.67
8/9/2022 3:45:00 PM 27.13 80.834 0.295 7.69 71.21 1.55
8/9/2022 4:00:00 PM 27.24 81.032 0.295 7.7 71.02 1.3
8/9/2022 4:15:00 PM 27.25 81.05 0.295 7.7 71.2 1.37
8/9/2022 4:30:00 PM 27.12 80.816 0.295 7.68 71.17 1.52
8/9/2022 4:45:00 PM 26.92 80.456 0.295 7.7 71.09 1.25
8/9/2022 5:00:00 PM 26.68 80.024 0.295 7.67 71.36 1.32
8/9/2022 5:15:00 PM 26.58 79.844 0.295 7.59 71.53 1.67
8/9/2022 5:30:00 PM 26.55 79.79 0.296 7.67 74.44 1.86
8/9/2022 5:45:00 PM 26.53 79.754 0.295 7.69 74.39 1.58
8/9/2022 6:00:00 PM 26.54 79.772 0.295 7.74 74.37 1.8
8/9/2022 6:15:00 PM 26.36 79.448 0.295 7.74 74.16 1.92
8/9/2022 6:30:00 PM 26.26 79.268 0.295 7.75 73.91 1.62
8/9/2022 6:45:00 PM 26.23 79.214 0.295 7.74 73.9 1.79
8/9/2022 7:00:00 PM 26.2 79.16 0.295 7.83 73.77 1.98
8/9/2022 7:15:00 PM 25.92 78.656 0.295 7.81 73.87 2.02
8/9/2022 7:30:00 PM 25.78 78.404 0.295 7.73 73.76 1.89
8/9/2022 7:45:00 PM 25.55 77.99 0.295 7.7 73.68 1.53
8/9/2022 8:00:00 PM 25.3 77.54 0.295 7.65 73.76 1.24
8/9/2022 8:15:00 PM 25.22 77.396 0.295 7.62 73.62 1.85
8/9/2022 8:30:00 PM 25.11 77.198 0.295 7.59 73.81 1.19
8/9/2022 8:45:00 PM 25.08 77.144 0.295 7.57 73.66 1.24
8/9/2022 9:00:00 PM 24.99 76.982 0.295 7.6 73.53 1.38
8/9/2022 9:15:00 PM 24.95 76.91 0.295 7.56 73.82 0.87
8/9/2022 9:30:00 PM 24.87 76.766 0.295 7.55 74.36 1.04
8/9/2022 9:45:00 PM 24.76 76.568 0.296 7.58 74.29 1.42
8/9/2022 10:00:00 PM 24.52 76.136 0.296 7.61 72.97 1.5
8/9/2022 10:15:00 PM 23.47 74.246 0.297 7.21 73.32 1.47
8/9/2022 10:30:00 PM 22.21 71.978 0.296 6.92 73.38 0.77
8/9/2022 10:45:00 PM 21.9 71.42 0.295 6.83 73.61 0.59
8/9/2022 11:00:00 PM 22.12 71.816 0.295 6.89 73.98 1.3
8/9/2022 11:15:00 PM 22.3 72.14 0.294 6.87 74.42 0.87
8/9/2022 11:30:00 PM 22.45 72.41 0.294 6.83 75.49 2
8/9/2022 11:45:00 PM 22.49 72.482 0.294 6.84 73.57 1.28
8/10/2022 12:00:00 AM 22.59 72.662 0.294 6.97 73.88 1.64
8/10/2022 12:15:00 AM 22.66 72.788 0.294 7.1 73.62 1.61
8/10/2022 12:30:00 AM 22.63 72.734 0.294 7.19 74.18 3
8/10/2022 12:45:00 AM 23.05 73.49 0.293 7.29 73.58 3
8/10/2022 1:00:00 AM 23.07 73.526 0.293 7.28 73.54 2.97
8/10/2022 1:15:00 AM 22.97 73.346 0.293 7.32 73.42 3.34
8/10/2022 1:30:00 AM 23.1 73.58 0.293 7.34 73.03 2.93
8/10/2022 1:45:00 AM 23.13 73.634 0.293 7.34 73.01 2
8/10/2022 2:00:00 AM 22.87 73.166 0.293 7.38 73.02 2.37
8/10/2022 2:15:00 AM 22.82 73.076 0.293 7.36 72.98 1.73
8/10/2022 2:30:00 AM 22.75 72.95 0.292 7.35 73.04 1.96
8/10/2022 2:45:00 AM 22.71 72.878 0.292 7.35 72.81 1.65
8/10/2022 3:00:00 AM 22.67 72.806 0.292 7.39 73.12 1.02
8/10/2022 3:15:00 AM 22.54 72.57201 0.292 7.45 73.13 1.45
8/10/2022 3:30:00 AM 22.66 72.788 0.292 7.41 73.18 1.37
8/10/2022 3:45:00 AM 22.54 72.57201 0.292 7.42 73.32 1.14
8/10/2022 4:00:00 AM 22.38 72.284 0.292 7.45 73.24 1.17
8/10/2022 4:15:00 AM 22.27 72.086 0.292 7.44 73.32 0.76
8/10/2022 4:30:00 AM 22.16 71.888 0.291 7.44 73.39 0.83
8/10/2022 4:45:00 AM 22.09 71.762 0.291 7.43 73.03 0.83
8/10/2022 5:00:00 AM 22.01 71.618 0.291 7.44 73.03 1.36
8/10/2022 5:15:00 AM 21.99 71.582 0.291 7.41 72.99 1.49
8/10/2022 5:30:00 AM 21.94 71.492 0.291 7.4 71.62 2.36
8/10/2022 5:45:00 AM 22.09 71.762 0.29 7.35 71.11 4.24
8/10/2022 6:00:00 AM 21.92 71.456 0.291 7.39 70.72 4.49
8/10/2022 6:15:00 AM 21.91 71.438 0.29 7.37 70.88 4.27
8/10/2022 6:30:00 AM 21.77 71.186 0.29 7.39 70.75 5.76
8/10/2022 6:45:00 AM 21.75 71.15 0.289 7.4 70.4 4.76
8/10/2022 7:00:00 AM 21.74 71.132 0.289 7.39 70.27 4.82
8/10/2022 7:15:00 AM 21.6 70.88 0.289 7.43 70.3 5.21
8/10/2022 7:30:00 AM 21.59 70.862 0.289 7.43 70.11 5.24
8/10/2022 7:45:00 AM 21.54 70.772 0.289 7.42 70.38 5.62
8/10/2022 8:00:00 AM 21.52 70.736 0.289 7.44 70.58 5.54
8/10/2022 8:15:00 AM 21.54 70.772 0.289 7.43 70.3 5.36
8/10/2022 8:30:00 AM 21.53 70.754 0.289 7.47 70.46 5.28
8/10/2022 8:45:00 AM 21.57 70.826 0.289 7.5 70.45 5.36
8/10/2022 9:00:00 AM 21.59 70.862 0.288 7.52 70.56 6.8
8/10/2022 9:15:00 AM 21.64 70.952 0.288 7.54 71.11 6.97
8/10/2022 9:30:00 AM 21.69 71.042 0.298 7.55 70.84 6.98
8/10/2022 9:45:00 AM 21.8 71.24 0.297 7.52 70.93 6.96
8/10/2022 10:00:00 AM 21.88 71.384 0.296 7.46 70.29 6.34
8/10/2022 10:15:00 AM 22.22 71.996 0.296 7.47 70.3 6.66
8/10/2022 10:30:00 AM 22.17 71.906 0.296 7.51 70.25 7.29
8/10/2022 10:45:00 AM 22.23 72.014 0.296 7.51 70.19 7.04
8/10/2022 11:00:00 AM 22.28 72.104 0.296 7.54 70.57 7.17
8/10/2022 11:15:00 AM 22.43 72.374 0.297 7.58 69.84 7.12
8/10/2022 11:30:00 AM 22.57 72.626 0.296 7.62 69.72 7.82
8/10/2022 11:45:00 AM 22.95 73.31 0.296 7.59 69.83 7.66
8/10/2022 12:00:00 PM 22.95 73.31 0.296 7.59 70.11 7.67
8/10/2022 12:15:00 PM 22.98 73.364 0.296 7.58 70 7.63
8/10/2022 12:30:00 PM 23.12 73.616 0.296 7.4 69.98 8.13
8/10/2022 12:45:00 PM 23.21 73.778 0.296 7.34 70.15 8.25
8/10/2022 1:00:00 PM 23.2 73.76 0.296 7.35 70 8.09
8/10/2022 1:15:00 PM 23.21 73.778 0.295 7.4 70.06 8.11
8/10/2022 1:30:00 PM 23.24 73.832 0.295 7.41 69.72 7.8
8/10/2022 1:45:00 PM 23.47 74.246 0.295 7.34 69.73 8.63
8/10/2022 2:00:00 PM 23.8 74.84 0.295 7.37 69.72 8.66
8/10/2022 2:15:00 PM 24.03 75.254 0.295 7.31 69.93 8.44
8/10/2022 2:30:00 PM 24.19 75.542 0.295 7.34 70.05 8.76
8/10/2022 2:45:00 PM 24.34 75.812 0.295 7.34 70.11 8.88
8/10/2022 3:00:00 PM 24.56 76.208 0.295 7.36 70.05 8.95
8/10/2022 3:15:00 PM 24.66 76.388 0.295 7.4 70.12 8.83
8/10/2022 3:30:00 PM 24.7 76.46 0.295 7.4 70.08 8.73
8/10/2022 3:45:00 PM 24.84 76.712 0.295 7.41 70.23 9.07
8/10/2022 4:00:00 PM 25.3 77.54 0.295 7.44 70.25 9.25
8/10/2022 4:15:00 PM 25.53 77.954 0.295 7.42 70.16 8.97
8/10/2022 4:30:00 PM 25.64 78.152 0.296 7.41 70.13 8.63
8/10/2022 4:45:00 PM 25.63 78.134 0.296 7.38 70.16 7.37
8/10/2022 5:00:00 PM 25.66 78.188 0.295 7.33 70.11 7.36
8/10/2022 5:15:00 PM 25.66 78.188 0.296 7.41 70.23 7.37
8/10/2022 5:30:00 PM 25.7 78.26 0.296 7.34 70.46 7.47
8/10/2022 5:45:00 PM 26.09 78.962 0.296 7.41 70.5 9.38
8/10/2022 6:00:00 PM 26.38 79.484 0.296 7.4 68.1 8.69
8/10/2022 6:15:00 PM 26.13 79.034 0.296 7.42 68.08 8.05
8/10/2022 6:30:00 PM 25.9 78.62 0.294 7.4 68.01 7.84
8/10/2022 6:45:00 PM 25.7 78.26 0.297 7.41 67.81 6.74
8/10/2022 7:00:00 PM 25.53 77.954 0.297 7.41 101.53 6.8
8/10/2022 7:15:00 PM 25.39 77.702 0.297 7.39 100.87 7.34
8/10/2022 7:30:00 PM 25.2 77.36 0.297 7.41 94.99 6.53
8/10/2022 7:45:00 PM 25.14 77.252 0.297 7.41 78.53 7.13
8/10/2022 8:00:00 PM 24.87 76.766 0.297 7.37 77.78 6.94
8/10/2022 8:15:00 PM 24.74 76.532 0.297 7.34 77.62 7.14
8/10/2022 8:30:00 PM 24.69 76.442 0.297 7.35 77.54 6.91
8/10/2022 8:45:00 PM 24.76 76.568 0.297 7.21 77.33 3.47
8/10/2022 9:00:00 PM 24.74 76.532 0.297 7.24 77.27 3.68
8/10/2022 9:15:00 PM 24.62 76.316 0.297 7.27 77.14 6.03
8/10/2022 9:30:00 PM 24.43 75.974 0.297 7.3 77.12 6.6
8/10/2022 9:45:00 PM 24.22 75.596 0.297 7.3 77.23 6.61
8/10/2022 10:00:00 PM 24.21 75.578 0.297 7.35 75.77 6.16
8/10/2022 10:15:00 PM 22.5 72.5 0.298 7.1 74.44 4.9
8/10/2022 10:30:00 PM 21.64 70.952 0.298 6.94 74.35 4.24
8/10/2022 10:45:00 PM 21.66 70.988 0.297 6.89 74.34 3.59
8/10/2022 11:00:00 PM 21.86 71.348 0.297 6.85 74.28 3.21
8/10/2022 11:15:00 PM 21.96 71.528 0.296 6.84 74.82 3.01
8/10/2022 11:30:00 PM 22.07 71.726 0.296 6.82 74.88 2.54
8/10/2022 11:45:00 PM 22.1 71.78 0.296 6.8 75.23 2.67
8/11/2022 12:00:00 AM 22.09 71.762 0.296 6.81 75.16 4.11
8/11/2022 12:15:00 AM 22.14 71.852 0.296 6.93 82.41 4.93
8/11/2022 12:30:00 AM 22.39 72.302 0.295 7.03 83.12 4.64
8/11/2022 12:45:00 AM 22.35 72.23 0.295 7.12 81.4 6.11
8/11/2022 1:00:00 AM 22.24 72.032 0.295 7.17 81.43 5.92
8/11/2022 1:15:00 AM 22.15 71.87 0.294 7.18 81.66 6.35
8/11/2022 1:30:00 AM 22.1 71.78 0.294 7.2 81.6 5.55
8/11/2022 1:45:00 AM 22.07 71.726 0.294 7.22 81.55 6.09
8/11/2022 2:00:00 AM 22.04 71.672 0.293 7.23 81.58 5.93
8/11/2022 2:15:00 AM 22.04 71.672 0.293 7.22 77.1 5.93
8/11/2022 2:30:00 AM 22.16 71.888 0.292 7.21 76.79 4.84
8/11/2022 2:45:00 AM 22.1 71.78 0.292 7.25 76.83 5.7
8/11/2022 3:00:00 AM 21.98 71.564 0.291 7.26 76.82 5.62
8/11/2022 3:15:00 AM 21.86 71.348 0.29 7.29 76.77 4.98
8/11/2022 3:30:00 AM 21.73 71.114 0.284 7.25 76.83 6.1
8/11/2022 3:45:00 AM 21.7 71.06 0.283 7.24 78.07 5.3
8/11/2022 4:00:00 AM 21.64 70.952 0.283 7.31 77.62 5.59
8/11/2022 4:15:00 AM 21.54 70.772 0.282 7.3 77.55 6.11
8/11/2022 4:30:00 AM 21.42 70.556 0.282 7.33 77.37 5.31
8/11/2022 4:45:00 AM 21.33 70.394 0.281 7.33 77.19 6.31
8/11/2022 5:00:00 AM 21.22 70.196 0.281 7.3 80.43 5.44
8/11/2022 5:15:00 AM 21.25 70.25 0.28 7.24 82.38 4.73
8/11/2022 5:30:00 AM 21.17 70.106 0.28 7.22 80.92 4.11
8/11/2022 5:45:00 AM 21.12 70.016 0.279 7.23 86.64 4.64
8/11/2022 6:00:00 AM 21.03 69.854 0.278 7.26 85.74 5.04
8/11/2022 6:15:00 AM 20.9 69.62 0.278 7.27 87 4.86
8/11/2022 6:30:00 AM 20.8 69.44 0.278 7.34 83.14 5.35
8/11/2022 6:45:00 AM 20.68 69.224 0.277 7.31 81.6 5.52
8/11/2022 7:00:00 AM 20.59 69.062 0.277 7.32 294.23 7.75
8/11/2022 7:15:00 AM 20.4 68.72 0.467 7.52 77.78 6.9
8/11/2022 7:30:00 AM 20.18 68.324 0.491 7.57 31.16 7.24
8/11/2022 7:45:00 AM 20.03 68.054 0.518 7.59 16.95 7.55
8/11/2022 8:00:00 AM 20.04 68.07201 0.504 7.58 12.33 7.6
8/11/2022 8:15:00 AM 20.11 68.198 0.495 7.6 9.83 7.68
8/11/2022 8:30:00 AM 20.19 68.342 0.504 7.59 9.02 7.57
8/11/2022 8:45:00 AM 20.27 68.486 0.49 7.59 11.81 7.65
8/11/2022 9:00:00 AM 20.21 68.378 0.501 7.61 7.08 7.91
8/11/2022 9:15:00 AM 20.26 68.468 0.485 7.6 5.41 7.85
8/11/2022 9:30:00 AM 20.38 68.684 0.458 7.59 6.16 7.71
8/11/2022 9:45:00 AM 20.43 68.774 0.443 7.61 4.84 7.8
8/11/2022 10:00:00 AM 20.53 68.954 0.433 7.6 4.11 7.92
8/11/2022 10:15:00 AM 20.8 69.44 0.398 7.59 5.41 7.55
8/11/2022 10:30:00 AM 20.92 69.656 0.403 7.63 5.36 7.59
8/11/2022 10:45:00 AM 21.08 69.944 0.405 7.64 4.49 7.95
8/11/2022 11:00:00 AM 21.33 70.394 0.401 7.71 4 8.35
8/11/2022 11:15:00 AM 21.82 71.276 0.376 7.7 4.41 8.12
8/11/2022 11:30:00 AM 22.44 72.392 0.402 7.76 24.63 8.33
8/11/2022 11:45:00 AM 22.81 73.058 0.365 7.81 81.38 8.58
8/11/2022 12:00:00 PM 23.34 74.012 0.395 7.79 14.97 8.6
8/11/2022 12:15:00 PM 23.91 75.038 0.386 7.88 7.36 9.06
8/11/2022 12:30:00 PM 24.25 75.65 0.404 7.89 7.14 9.33
8/11/2022 12:45:00 PM 24.73 76.514 0.448 7.99 5.69 9.74
8/11/2022 1:00:00 PM 25.09 77.162 0.471 8 4.14 9.96
8/11/2022 1:15:00 PM 25.79 78.422 0.421 7.96 9.67 9.79
8/11/2022 1:30:00 PM 26.05 78.89 0.459 8.03 11.86 10.15
8/11/2022 1:45:00 PM 26.14 79.052 0.438 8.21 4.14 10.17
8/11/2022 2:00:00 PM 25.35 77.63 0.506 8.07 4.01 9.86
8/11/2022 2:15:00 PM 25.34 77.612 0.465 8.18 4.3 10.17
8/11/2022 2:30:00 PM 26.02 78.836 0.472 8.23 4.06 10.46
8/11/2022 2:45:00 PM 26.38 79.484 0.445 8.2 4.07 10.39
8/11/2022 3:00:00 PM 26.67 80.006 0.403 8.33 4.1 10.78
8/11/2022 3:15:00 PM 27.29 81.122 0.358 8.43 5.17 11.34
8/11/2022 3:30:00 PM 27.02 80.636 0.446 8.34 6.65 10.58
8/11/2022 3:45:00 PM 26.01 78.818 0.484 8.26 3.77 10.46
8/11/2022 4:00:00 PM 26.96 80.528 0.461 8.22 4.35 10.67
8/11/2022 4:15:00 PM 26.69 80.042 0.455 8.28 3.89 10.64
8/11/2022 4:30:00 PM 27.12 80.816 0.46 8.27 4.02 10.39
8/11/2022 4:45:00 PM 27 80.6 0.44 8.39 4.54 10.93
8/11/2022 5:00:00 PM 25.89 78.602 0.472 8.32 4.66 10.68
8/11/2022 5:15:00 PM 26.68 80.024 0.453 8.37 4.89 10.75
8/11/2022 5:30:00 PM 26.01 78.818 0.468 8.31 5.6 10.59
8/11/2022 5:45:00 PM 25.33 77.594 0.454 8.3 5.14 10.55
8/11/2022 6:00:00 PM 26.38 79.484 0.392 8.44 6.47 11.01
8/11/2022 6:15:00 PM 26.11 78.998 0.331 8.57 8.98 11.09
8/11/2022 6:30:00 PM 25.75 78.35 0.35 8.52 9.12 10.63
8/11/2022 6:45:00 PM 25.55 77.99 0.334 8.51 8.15 10.5
8/11/2022 7:00:00 PM 24.96 76.92799 0.352 8.43 7.85 9.99
8/11/2022 7:15:00 PM 24.1 75.38 0.414 8.27 6.5 9.71
8/11/2022 7:30:00 PM 24.58 76.244 0.332 8.47 6.15 10.13
8/11/2022 7:45:00 PM 24.32 75.776 0.367 8.4 4.69 9.75
8/11/2022 8:00:00 PM 24.1 75.38 0.366 8.37 5.06 9.44
8/11/2022 8:15:00 PM 23.89 75.002 0.374 8.33 3.92 9.42
8/11/2022 8:30:00 PM 23.91 75.038 0.358 8.32 7.96 9.43
8/11/2022 8:45:00 PM 23.7 74.66 0.388 8.28 5.88 9.08
8/11/2022 9:00:00 PM 23.47 74.246 0.387 8.22 6.26 9.01
8/11/2022 9:15:00 PM 23.3 73.94 0.402 8.16 6.33 8.83
8/11/2022 9:30:00 PM 23.23 73.814 0.429 8.04 10.23 8.52
8/11/2022 9:45:00 PM 22.91 73.238 0.47 8 8.86 8.56
8/11/2022 10:00:00 PM 22.63 72.734 0.516 7.92 11.06 8.43
8/11/2022 10:15:00 PM 17.56 63.608 0.333 6.66 64.29 6.59
8/11/2022 10:30:00 PM 19.02 66.236 0.306 6.74 29.54 6.5
8/11/2022 10:45:00 PM 20.11 68.198 0.301 6.83 28.09 6.54
8/11/2022 11:00:00 PM 20.72 69.296 0.296 6.89 19.58 6.5
8/11/2022 11:15:00 PM 21.03 69.854 0.298 6.91 16.6 6.22
8/11/2022 11:30:00 PM 21 69.8 0.322 6.85 17.02 5.63
8/11/2022 11:45:00 PM 21.1 69.98 0.363 6.88 15.29 5.59
8/12/2022 12:00:00 AM 21.14 70.052 0.407 6.94 15.3 5.71
8/12/2022 12:15:00 AM 21.14 70.052 0.438 7.04 17.41 5.9
8/12/2022 12:30:00 AM 21.24 70.232 0.473 7.13 13.92 6.13
8/12/2022 12:45:00 AM 21.18 70.124 0.498 7.35 9 6.67
8/12/2022 1:00:00 AM 21.09 69.962 0.514 7.51 12.29 7.18
8/12/2022 1:15:00 AM 21.08 69.944 0.516 7.52 7.7 7.34
8/12/2022 1:30:00 AM 20.99 69.782 0.523 7.54 7.18 7.36
8/12/2022 1:45:00 AM 20.85 69.53 0.531 7.59 13.2 7.56
8/12/2022 2:00:00 AM 20.65 69.17 0.543 7.59 9.03 7.64
8/12/2022 2:15:00 AM 20.57 69.026 0.559 7.62 9.15 7.54
8/12/2022 2:30:00 AM 20.42 68.756 0.563 7.6 7.87 7.58
8/12/2022 2:45:00 AM 20.37 68.666 0.563 7.58 10.89 7.63
8/12/2022 3:00:00 AM 20.27 68.486 0.565 7.6 9.69 7.77
8/12/2022 3:15:00 AM 20.15 68.27 0.573 7.6 6.08 7.72
8/12/2022 3:30:00 AM 20.16 68.288 0.528 7.59 26.11 7.56
8/12/2022 3:45:00 AM 20.01 68.018 0.552 7.55 16.66 7.36
8/12/2022 4:00:00 AM 19.98 67.964 0.559 7.53 9.37 7.24
8/12/2022 4:15:00 AM 19.76 67.568 0.579 7.53 7.16 7.48
8/12/2022 4:30:00 AM 19.74 67.532 0.595 7.54 6.53 7.82
8/12/2022 4:45:00 AM 19.81 67.658 0.594 7.54 7.17 7.42
8/12/2022 5:00:00 AM 19.69 67.442 0.591 7.53 8.48 7.47
8/12/2022 5:15:00 AM 19.73 67.514 0.572 7.51 8.82 7.25
8/12/2022 5:30:00 AM 19.63 67.334 0.559 7.56 1304.58 7.51
8/12/2022 5:45:00 AM 19.7 67.46 0.504 7.53 8.28 7.04
8/12/2022 6:00:00 AM 19.64 67.352 0.501 7.53 40.52 7.02
8/12/2022 6:15:00 AM 19.63 67.334 0.488 7.5 7.34 7.18
8/12/2022 6:30:00 AM 19.62 67.316 0.458 7.52 6.04 7.22
8/12/2022 6:45:00 AM 19.34 66.812 0.516 7.59 4.97 7.72
8/12/2022 7:00:00 AM 19.24 66.632 0.533 7.59 4.3 7.71
8/12/2022 7:15:00 AM 19.15 66.47 0.55 7.56 5.35 7.88
8/12/2022 7:30:00 AM 19.01 66.218 0.556 7.59 4.26 7.9
8/12/2022 7:45:00 AM 19 66.2 0.56 7.56 3.96 7.89
8/12/2022 8:00:00 AM 18.96 66.128 0.56 7.57 4.07 7.99
8/12/2022 8:15:00 AM 18.97 66.146 0.563 7.59 3.98 8
8/12/2022 8:30:00 AM 18.91 66.038 0.553 7.6 4.66 7.97
8/12/2022 8:45:00 AM 19.14 66.452 0.522 7.62 5.47 7.92
8/12/2022 9:00:00 AM 19.42 66.956 0.454 7.61 5.49 7.63
8/12/2022 9:15:00 AM 19.31 66.758 0.456 7.62 5.1 7.86
8/12/2022 9:30:00 AM 19.16 66.488 0.47 7.63 4.49 7.83
8/12/2022 9:45:00 AM 19.18 66.524 0.465 7.63 21.64 7.82
8/12/2022 10:00:00 AM 19.22 66.596 0.453 7.65 4.87 8
8/12/2022 10:15:00 AM 19.52 67.136 0.409 7.6 40.46 7.6
8/12/2022 10:30:00 AM 19.61 67.298 0.474 7.71 8.31 8.51
8/12/2022 10:45:00 AM 19.95 67.91 0.418 7.7 7.91 8.3
8/12/2022 11:00:00 AM 20.24 68.432 0.436 7.78 6.34 8.77
8/12/2022 11:15:00 AM 20.68 69.224 0.398 7.85 7.2 9.02
8/12/2022 11:30:00 AM 21.23 70.214 0.369 7.86 9.07 9.04
8/12/2022 11:45:00 AM 21.85 71.33 0.372 7.91 8.45 9.29
8/12/2022 12:00:00 PM 22.18 71.924 0.426 7.95 17.47 9.55
8/12/2022 12:15:00 PM 22.87 73.166 0.353 7.97 10.85 9.55
8/12/2022 12:30:00 PM 22.98 73.364 0.43 7.99 19.52 9.73
8/12/2022 12:45:00 PM 23.45 74.21 0.402 8 9.54 9.69
8/12/2022 1:00:00 PM 23.79 74.82201 0.433 8.07 8.97 10.04
8/12/2022 1:15:00 PM 24.3 75.74 0.403 8.1 11.87 10.1
8/12/2022 1:30:00 PM 24.39 75.902 0.43 8.08 9.09 10.05
8/12/2022 1:45:00 PM 24.48 76.064 0.463 8.12 10.13 10.19
8/12/2022 2:00:00 PM 24.83 76.694 0.462 8.11 14.12 10.18
8/12/2022 2:15:00 PM 25.14 77.252 0.439 8.18 8.48 10.35
8/12/2022 2:30:00 PM 25.21 77.378 0.458 8.16 8.15 10.24
8/12/2022 2:45:00 PM 25.31 77.558 0.464 8.19 7.8 10.52
8/12/2022 3:00:00 PM 25.37 77.666 0.471 8.21 6.03 10.61
8/12/2022 3:15:00 PM 25.62 78.116 0.467 8.22 6.42 10.7
8/12/2022 3:30:00 PM 25.77 78.386 0.454 8.26 7.48 10.74
8/12/2022 3:45:00 PM 25.44 77.792 0.487 8.22 6.57 10.63
8/12/2022 4:00:00 PM 25.49 77.882 0.471 8.26 7.99 10.74
8/12/2022 4:15:00 PM 25.4 77.72 0.472 8.27 8.28 10.7
8/12/2022 4:30:00 PM 25.42 77.756 0.454 8.31 11.82 10.69
8/12/2022 4:45:00 PM 25.58 78.044 0.42 8.34 11.79 10.73
8/12/2022 5:00:00 PM 25.76 78.368 0.379 8.45 7.94 11.04
8/12/2022 5:15:00 PM 25.76 78.368 0.365 8.47 7.2 11.12
8/12/2022 5:30:00 PM 25.21 77.378 0.402 8.43 7.66 10.96
8/12/2022 5:45:00 PM 25.37 77.666 0.367 8.48 7.07 11.25
8/12/2022 6:00:00 PM 25.2 77.36 0.336 8.54 7.74 11.21
8/12/2022 6:15:00 PM 24.16 75.488 0.416 8.4 8.2 10.79
8/12/2022 6:30:00 PM 24.51 76.118 0.319 8.55 7.22 10.91
8/12/2022 6:45:00 PM 23.75 74.75 0.377 8.47 6.83 10.65
8/12/2022 7:00:00 PM 23.16 73.688 0.396 8.4 7.14 10.45
8/12/2022 7:15:00 PM 22.55 72.59 0.425 8.3 9.77 10.08
8/12/2022 7:30:00 PM 22.88 73.184 0.347 8.44 7.35 10.1
8/12/2022 7:45:00 PM 22.12 71.816 0.415 8.26 8.76 9.72
8/12/2022 8:00:00 PM 21.88 71.384 0.45 8.22 5.87 9.69
8/12/2022 8:15:00 PM 21.55 70.79 0.488 8.19 4.71 9.5
8/12/2022 8:30:00 PM 21.41 70.538 0.528 8.06 4.88 9.27
8/12/2022 8:45:00 PM 21.51 70.718 0.511 8.05 5.03 9.16
8/12/2022 9:00:00 PM 21.38 70.484 0.526 7.99 4.96 8.99
8/12/2022 9:15:00 PM 21.37 70.466 0.514 7.94 9.25 8.73
8/12/2022 9:30:00 PM 21.05 69.89 0.566 7.85 7.35 8.42
8/12/2022 9:45:00 PM 20.89 69.602 0.57 7.79 6.14 8.34
8/12/2022 10:00:00 PM 20.74 69.332 0.563 7.8 6.65 8.29
8/12/2022 10:15:00 PM 17 62.6 0.297 6.59 66.32 6.4
8/12/2022 10:30:00 PM 18.1 64.58 0.307 6.68 33.16 6.58
8/12/2022 10:45:00 PM 18.78 65.804 0.31 6.7 26.07 6.63
8/12/2022 11:00:00 PM 19.11 66.398 0.309 6.74 25.95 6.39
8/12/2022 11:15:00 PM 19.26 66.668 0.313 6.71 26.06 5.94
8/12/2022 11:30:00 PM 19.33 66.794 0.392 6.87 14.95 6.31
8/12/2022 11:45:00 PM 19.43 66.974 0.458 7.14 10.51 6.77
8/13/2022 12:00:00 AM 19.45 67.01 0.52 7.34 8.25 7.16
8/13/2022 12:15:00 AM 19.43 66.974 0.553 7.54 6.15 7.76
8/13/2022 12:30:00 AM 19.42 66.956 0.558 7.6 5.09 7.81
8/13/2022 12:45:00 AM 19.3 66.74 0.555 7.66 5.02 8.14
8/13/2022 1:00:00 AM 19.25 66.65 0.548 7.66 6.32 7.97
8/13/2022 1:15:00 AM 19.16 66.488 0.542 7.67 8.93 8
8/13/2022 1:30:00 AM 19.05 66.29 0.546 7.63 7.86 7.93
8/13/2022 1:45:00 AM 18.89 66.002 0.553 7.62 6.31 7.93
8/13/2022 2:00:00 AM 18.84 65.912 0.552 7.63 6.21 7.83
8/13/2022 2:15:00 AM 18.65 65.57 0.546 7.65 6.77 7.95
8/13/2022 2:30:00 AM 18.48 65.264 0.555 7.63 5.79 7.78
8/13/2022 2:45:00 AM 18.42 65.156 0.564 7.62 5.53 7.94
8/13/2022 3:00:00 AM 18.4 65.12 0.562 7.62 5.01 7.84
8/13/2022 3:15:00 AM 18.27 64.886 0.556 7.62 5.39 7.74
8/13/2022 3:30:00 AM 18.13 64.634 0.558 7.65 4.95 8.07
8/13/2022 3:45:00 AM 18.12 64.616 0.569 7.63 4.99 8.12
8/13/2022 4:00:00 AM 17.99 64.382 0.577 7.63 8.26 8.07
8/13/2022 4:15:00 AM 17.89 64.202 0.589 7.59 5.94 8.07
8/13/2022 4:30:00 AM 17.83 64.094 0.591 7.62 5.69 8.07
8/13/2022 4:45:00 AM 17.68 63.824 0.58 7.63 7.03 8.17
8/13/2022 5:00:00 AM 17.45 63.41 0.58 7.63 4.87 8.2
8/13/2022 5:15:00 AM 17.5 63.5 0.554 7.62 14.25 8.12
8/13/2022 5:30:00 AM 17.38 63.284 0.563 7.6 13.45 8.12
8/13/2022 5:45:00 AM 17.25 63.05 0.555 7.61 12.36 8.07
8/13/2022 6:00:00 AM 17.18 62.924 0.552 7.6 9.88 7.9
8/13/2022 6:15:00 AM 17.1 62.78 0.551 7.6 7.78 7.92
8/13/2022 6:30:00 AM 17.09 62.762 0.522 7.63 8.61 8.12
8/13/2022 6:45:00 AM 17 62.6 0.529 7.63 7.45 8.22
8/13/2022 7:00:00 AM 16.72 62.096 0.559 7.63 5.27 8.41
8/13/2022 7:15:00 AM 16.77 62.186 0.573 7.59 5.16 8.15
8/13/2022 7:30:00 AM 16.77 62.186 0.539 7.62 4.19 8.11
8/13/2022 7:45:00 AM 16.69 62.042 0.53 7.63 4.02 8.38
8/13/2022 8:00:00 AM 16.6 61.88 0.534 7.62 3.89 8.46
8/13/2022 8:15:00 AM 16.56 61.808 0.542 7.61 3.7 8.35
8/13/2022 8:30:00 AM 16.54 61.772 0.542 7.63 3.7 8.18
8/13/2022 8:45:00 AM 16.56 61.808 0.544 7.62 3.41 8.24
8/13/2022 9:00:00 AM 16.57 61.826 0.544 7.63 3.45 8.31
8/13/2022 9:15:00 AM 16.66 61.988 0.542 7.6 3.71 8.22
8/13/2022 9:30:00 AM 16.69 62.042 0.542 7.62 3.98 8.29
8/13/2022 9:45:00 AM 16.85 62.33 0.537 7.59 3.59 8.02
8/13/2022 10:00:00 AM 17.01 62.618 0.529 7.54 4 7.79
8/13/2022 10:15:00 AM 17.36 63.248 0.482 7.59 4.14 8.22
8/13/2022 10:30:00 AM 17.68 63.824 0.483 7.78 3.82 9.11
8/13/2022 10:45:00 AM 17.9 64.22 0.475 7.77 4.12 8.93
8/13/2022 11:00:00 AM 18.18 64.724 0.422 7.69 4.64 8.4
8/13/2022 11:15:00 AM 18.48 65.264 0.423 7.79 4.45 8.97
8/13/2022 11:30:00 AM 19.14 66.452 0.394 7.84 5.1 9.05
8/13/2022 11:45:00 AM 19.64 67.352 0.362 7.86 6.24 9.12
8/13/2022 12:00:00 PM 20.2 68.36 0.408 7.92 6.94 9.59
8/13/2022 12:15:00 PM 20.76 69.368 0.449 7.96 5.6 9.99
8/13/2022 12:30:00 PM 21.46 70.628 0.421 7.95 4.81 9.86
8/13/2022 12:45:00 PM 21.96 71.528 0.415 8 4.72 9.96
8/13/2022 1:00:00 PM 22.47 72.446 0.428 7.97 4.96 10.19
8/13/2022 1:15:00 PM 23.17 73.706 0.435 7.96 4.81 9.94
8/13/2022 1:30:00 PM 23.79 74.82201 0.434 8.03 4.27 10.52
8/13/2022 1:45:00 PM 23.92 75.056 0.478 8.07 6.2 10.66
8/13/2022 2:00:00 PM 24.35 75.83 0.485 8.09 5.47 10.76
8/13/2022 2:15:00 PM 24.5 76.1 0.492 8.09 4.88 10.76
8/13/2022 2:30:00 PM 24.67 76.406 0.513 8.05 5.22 10.8
8/13/2022 2:45:00 PM 24.97 76.946 0.513 8.11 4.71 10.9
8/13/2022 3:00:00 PM 24.96 76.92799 0.534 8.12 4.36 10.9
8/13/2022 3:15:00 PM 25.42 77.756 0.532 8.12 4.24 11.03
8/13/2022 3:30:00 PM 24.85 76.73 0.55 8.15 4.4 11.13
8/13/2022 3:45:00 PM 25.56 78.008 0.528 8.18 4.56 11.14
8/13/2022 4:00:00 PM 25.53 77.954 0.524 8.18 3.68 11.13
8/13/2022 4:15:00 PM 25.38 77.684 0.551 8.17 3.66 11
8/13/2022 4:30:00 PM 25.72 78.296 0.543 8.18 3.58 11.1
8/13/2022 4:45:00 PM 25.44 77.792 0.548 8.16 3.7 10.96
8/13/2022 5:00:00 PM 25.43 77.774 0.536 8.21 3.51 11.15
8/13/2022 5:15:00 PM 25.12 77.216 0.536 8.23 4.32 11.17
8/13/2022 5:30:00 PM 24.88 76.784 0.521 8.25 4.3 11.12
8/13/2022 5:45:00 PM 24.82 76.676 0.53 8.22 6.59 10.93
8/13/2022 6:00:00 PM 24.63 76.334 0.519 8.25 4.56 10.97
8/13/2022 6:15:00 PM 24.31 75.758 0.505 8.26 3.4 10.96
8/13/2022 6:30:00 PM 23.94 75.092 0.516 8.24 4.46 10.97
8/13/2022 6:45:00 PM 23.61 74.498 0.516 8.2 3.88 10.76
8/13/2022 7:00:00 PM 23.23 73.814 0.539 8.13 4.4 10.25
8/13/2022 7:15:00 PM 22.86 73.148 0.534 8.09 4.49 9.99
8/13/2022 7:30:00 PM 18.13 64.634 0.3 6.8 68.97 6.89
8/13/2022 7:45:00 PM 19.54 67.172 0.364 6.96 19.37 7.63
8/13/2022 8:00:00 PM 20.32 68.576 0.355 6.97 17.3 7.54
8/13/2022 8:15:00 PM 20.84 69.512 0.352 7.05 14.84 7.65
8/13/2022 8:30:00 PM 21.25 70.25 0.36 7.16 8.25 7.77
8/13/2022 8:45:00 PM 21.36 70.448 0.401 7.34 5.94 7.84
8/13/2022 9:00:00 PM 21.38 70.484 0.426 7.42 11.61 8.14
8/13/2022 9:15:00 PM 21.22 70.196 0.441 7.4 7.67 8.04
8/13/2022 9:30:00 PM 21.29 70.32201 0.455 7.65 15.87 8.35
8/13/2022 9:45:00 PM 21.05 69.89 0.483 7.67 9.02 8.24
8/13/2022 10:00:00 PM 20.98 69.764 0.493 7.62 7.57 8.02
8/13/2022 10:15:00 PM 20.85 69.53 0.498 7.63 7.97 7.94
8/13/2022 10:30:00 PM 20.61 69.098 0.502 7.68 6.02 8.08
8/13/2022 10:45:00 PM 20.47 68.846 0.496 7.72 5.85 8.29
8/13/2022 11:00:00 PM 20.42 68.756 0.488 7.71 7.78 8.19
8/13/2022 11:15:00 PM 20.36 68.648 0.48 7.73 6.44 8.09
8/13/2022 11:30:00 PM 20.28 68.504 0.474 7.72 7.95 8.13
8/13/2022 11:45:00 PM 20.19 68.342 0.472 7.71 6.18 7.99
8/14/2022 12:00:00 AM 20.04 68.07201 0.476 7.69 6.01 8.03
8/14/2022 12:15:00 AM 19.84 67.712 0.482 7.69 6.1 7.98
8/14/2022 12:30:00 AM 19.65 67.37 0.481 7.69 5.81 8.01
8/14/2022 12:45:00 AM 19.51 67.118 0.483 7.69 5.2 8.02
8/14/2022 1:00:00 AM 19.42 66.956 0.484 7.68 5.38 7.98
8/14/2022 1:15:00 AM 19.28 66.704 0.49 7.64 6.46 7.9
8/14/2022 1:30:00 AM 19.23 66.614 0.491 7.63 5.78 7.83
8/14/2022 1:45:00 AM 19.12 66.416 0.492 7.65 5.25 7.84
8/14/2022 2:00:00 AM 19.01 66.218 0.492 7.63 5.52 7.89
8/14/2022 2:15:00 AM 18.92 66.056 0.486 7.6 18.29 7.77
8/14/2022 2:30:00 AM 18.78 65.804 0.49 7.62 6.37 7.89
8/14/2022 2:45:00 AM 18.64 65.552 0.491 7.6 8.08 7.94
8/14/2022 3:00:00 AM 18.5 65.3 0.495 7.6 6.2 7.93
8/14/2022 3:15:00 AM 18.32 64.976 0.506 7.6 6.41 7.97
8/14/2022 3:30:00 AM 18.24 64.832 0.515 7.56 7.35 7.86
8/14/2022 3:45:00 AM 18.16 64.688 0.507 7.57 5.13 7.83
8/14/2022 4:00:00 AM 18.15 64.67 0.497 7.57 4.8 7.77
8/14/2022 4:15:00 AM 18.12 64.616 0.494 7.57 4.76 7.77
8/14/2022 4:30:00 AM 17.99 64.382 0.494 7.58 4.04 7.95
8/14/2022 4:45:00 AM 17.92 64.256 0.494 7.58 5.92 7.98
8/14/2022 5:00:00 AM 17.84 64.112 0.492 7.58 4.39 7.96
8/14/2022 5:15:00 AM 17.73 63.914 0.487 7.58 4.72 7.98
8/14/2022 5:30:00 AM 17.65 63.77 0.487 7.58 5.15 7.97
8/14/2022 5:45:00 AM 17.59 63.662 0.484 7.57 5.07 7.97
8/14/2022 6:00:00 AM 17.36 63.248 0.494 7.61 6.39 8.2
8/14/2022 6:15:00 AM 17.3 63.14 0.489 7.58 5.19 8.11
8/14/2022 6:30:00 AM 17.22 62.996 0.492 7.57 4.26 8.04
8/14/2022 6:45:00 AM 17.17 62.906 0.487 7.59 4.27 8.08
8/14/2022 7:00:00 AM 17.15 62.87 0.486 7.58 4.06 8.06
8/14/2022 7:15:00 AM 17.1 62.78 0.488 7.59 3.81 8.19
8/14/2022 7:30:00 AM 17.05 62.69 0.494 7.58 6.64 8.09
8/14/2022 7:45:00 AM 16.92 62.456 0.496 7.6 5.11 8.22
8/14/2022 8:00:00 AM 16.83 62.294 0.508 7.59 6.07 8.28
8/14/2022 8:15:00 AM 16.85 62.33 0.51 7.59 4.92 8.3
8/14/2022 8:30:00 AM 16.87 62.366 0.508 7.62 3.81 8.47
8/14/2022 8:45:00 AM 14.72 58.496 0.318 6.45 104.27 6.63
8/14/2022 9:00:00 AM 14.94 58.892 0.329 6.43 48.85 6.77
8/14/2022 9:15:00 AM 14.74 58.532 0.301 6.37 154.26 6.97
8/14/2022 9:30:00 AM 15.2 59.36 0.315 6.46 29.3 7.2
8/14/2022 9:45:00 AM 16.05 60.89 0.338 6.74 14.46 7.83
8/14/2022 10:00:00 AM 16.44 61.592 0.353 6.87 9.76 7.85
8/14/2022 10:15:00 AM 16.78 62.204 0.365 7.06 6 8.06
8/14/2022 10:30:00 AM 16.97 62.546 0.374 7.15 5.88 7.98
8/14/2022 10:45:00 AM 17.22 62.996 0.388 7.27 4.41 8.37
8/14/2022 11:00:00 AM 17.54 63.572 0.404 7.39 3.79 8.5
8/14/2022 11:15:00 AM 17.74 63.932 0.415 7.48 3.96 8.54
8/14/2022 11:30:00 AM 18.02 64.436 0.43 7.57 3.63 8.96
8/14/2022 11:45:00 AM 18.57 65.426 0.44 7.69 2.89 9.4
8/14/2022 12:00:00 PM 18.97 66.146 0.441 7.72 3.36 9.1
8/14/2022 12:15:00 PM 19.56 67.208 0.439 7.6 4.51 8.82
8/14/2022 12:30:00 PM 20.15 68.27 0.419 7.55 4.24 8.43
8/14/2022 12:45:00 PM 20.8 69.44 0.399 7.54 5.75 8.71
8/14/2022 1:00:00 PM 21.8 71.24 0.403 7.48 20.95 8.45
8/14/2022 1:15:00 PM 22.18 71.924 0.411 7.47 11.66 8.01
8/14/2022 1:30:00 PM 22.28 72.104 0.433 7.64 6.72 8.72
8/14/2022 1:45:00 PM 22.75 72.95 0.448 7.63 8.65 8.67
8/14/2022 2:00:00 PM 23.47 74.246 0.461 7.74 6.31 9.34
8/14/2022 2:15:00 PM 23.59 74.462 0.474 7.79 5.11 9.38
8/14/2022 2:30:00 PM 24.32 75.776 0.473 7.81 13.75 9.68
8/14/2022 2:45:00 PM 24.63 76.334 0.478 7.87 4.47 9.87
8/14/2022 3:00:00 PM 24.51 76.118 0.483 7.96 3.71 10.09
8/14/2022 3:15:00 PM 24.31 75.758 0.49 7.91 3.42 9.92
8/14/2022 3:30:00 PM 24.17 75.506 0.493 7.92 3.13 9.9
8/14/2022 3:45:00 PM 24.27 75.686 0.487 7.92 5.02 9.98
8/14/2022 4:00:00 PM 24.55 76.19 0.485 7.95 5.96 10.07
8/14/2022 4:15:00 PM 24.39 75.902 0.483 7.97 4.33 10.2
8/14/2022 4:30:00 PM 24.29 75.722 0.482 8 4.05 10.1
8/14/2022 4:45:00 PM 24.06 75.308 0.487 7.98 4.3 10.17
8/14/2022 5:00:00 PM 23.73 74.714 0.482 7.99 3.99 10.1
8/14/2022 5:15:00 PM 23.48 74.264 0.484 7.96 4.4 9.89
8/14/2022 5:30:00 PM 23.26 73.868 0.484 7.98 3.96 9.81
8/14/2022 5:45:00 PM 23.06 73.508 0.485 7.98 3.82 9.84
8/14/2022 6:00:00 PM 22.93 73.274 0.487 7.98 3.86 9.79
8/14/2022 6:15:00 PM 22.83 73.094 0.488 7.95 3.32 9.73
8/14/2022 6:30:00 PM 22.78 73.004 0.488 7.94 4.13 9.64
8/14/2022 6:45:00 PM 22.61 72.698 0.485 7.96 3.22 9.61
8/14/2022 7:00:00 PM 22.47 72.446 0.483 7.96 2.92 9.54
8/14/2022 7:15:00 PM 22.35 72.23 0.479 7.95 3.26 9.48
8/14/2022 7:30:00 PM 22.2 71.96 0.473 7.98 3.23 9.5
8/14/2022 7:45:00 PM 22.09 71.762 0.469 7.96 3.06 9.39
8/14/2022 8:00:00 PM 21.87 71.366 0.463 7.98 2.98 9.37
8/14/2022 8:15:00 PM 21.77 71.186 0.458 7.95 3.08 9.24
8/14/2022 8:30:00 PM 21.69 71.042 0.449 7.97 3.7 9.26
8/14/2022 8:45:00 PM 21.66 70.988 0.44 7.95 3.93 9.13
8/14/2022 9:00:00 PM 22.03 71.654 0.422 7.85 17.89 8.63
8/14/2022 9:15:00 PM 21.47 70.646 0.425 7.93 5.55 8.96
8/14/2022 9:30:00 PM 21.31 70.358 0.427 7.89 4.61 8.85
8/14/2022 9:45:00 PM 21.26 70.268 0.429 7.86 4.39 8.7
8/14/2022 10:00:00 PM 21.18 70.124 0.43 7.85 3.99 8.62
8/14/2022 10:15:00 PM 21.11 69.998 0.43 7.85 4.24 8.57
8/14/2022 10:30:00 PM 20.94 69.692 0.432 7.85 4.43 8.61
8/14/2022 10:45:00 PM 20.81 69.458 0.437 7.81 4.45 8.43
8/14/2022 11:00:00 PM 21.23 70.214 0.42 7.67 49.5 7.71
8/14/2022 11:15:00 PM 21.07 69.926 0.422 7.74 25.53 8.02
8/14/2022 11:30:00 PM 20.84 69.512 0.429 7.76 29.52 8.2
8/14/2022 11:45:00 PM 20.71 69.278 0.434 7.77 25.79 8.25
8/15/2022 12:00:00 AM 20.57 69.026 0.436 7.76 15.21 8.21
8/15/2022 12:15:00 AM 20.46 68.828 0.439 7.73 13.08 8.05
8/15/2022 12:30:00 AM 20.39 68.702 0.442 7.73 11.05 8.07
8/15/2022 12:45:00 AM 20.27 68.486 0.444 7.73 9.7 8.11
8/15/2022 1:00:00 AM 20.21 68.378 0.445 7.72 8.79 8.07
8/15/2022 1:15:00 AM 20.18 68.324 0.445 7.7 8.01 7.97
8/15/2022 1:30:00 AM 20.13 68.234 0.443 7.68 9.84 7.85
8/15/2022 1:45:00 AM 20.02 68.036 0.44 7.69 8.45 7.87
8/15/2022 2:00:00 AM 19.97 67.946 0.439 7.68 7.83 7.84
8/15/2022 2:15:00 AM 20.07 68.126 0.437 7.63 7.33 7.63
8/15/2022 2:30:00 AM 20.05 68.09 0.437 7.67 8.31 7.73
8/15/2022 2:45:00 AM 20.02 68.036 0.436 7.67 6.51 7.62
8/15/2022 3:00:00 AM 20.07 68.126 0.432 7.68 6.03 7.8
8/15/2022 3:15:00 AM 20.06 68.108 0.428 7.68 6.68 7.71
8/15/2022 3:30:00 AM 19.79 67.622 0.432 7.71 5.67 8.01
8/15/2022 3:45:00 AM 19.7 67.46 0.434 7.69 5.81 7.9
8/15/2022 4:00:00 AM 19.51 67.118 0.437 7.68 6.44 7.93
8/15/2022 4:15:00 AM 19.4 66.92 0.438 7.68 5.82 7.93
8/15/2022 4:30:00 AM 19.38 66.884 0.439 7.65 5.3 7.86
8/15/2022 4:45:00 AM 19.41 66.938 0.439 7.63 6.53 7.66
8/15/2022 5:00:00 AM 19.43 66.974 0.439 7.61 6.02 7.52
8/15/2022 5:15:00 AM 19.33 66.794 0.441 7.66 6.32 7.85
8/15/2022 5:30:00 AM 19.15 66.47 0.44 7.66 13.21 7.94
8/15/2022 5:45:00 AM 19.14 66.452 0.44 7.63 9.58 7.79
8/15/2022 6:00:00 AM 19.05 66.29 0.443 7.59 9.65 7.7
8/15/2022 6:15:00 AM 18.93 66.074 0.45 7.62 5.25 7.94
8/15/2022 6:30:00 AM 18.91 66.038 0.451 7.6 5.03 7.8
8/15/2022 6:45:00 AM 19.02 66.236 0.452 7.59 5.59 7.62
8/15/2022 7:00:00 AM 19.04 66.272 0.449 7.57 5.96 7.52
8/15/2022 7:15:00 AM 15.5 59.9 0.297 6.42 74.51 6.27
8/15/2022 7:30:00 AM 16.15 61.07 0.298 6.44 24.38 6.25
8/15/2022 7:45:00 AM 15.47 59.846 0.308 6.44 39.69 6.83
8/15/2022 8:00:00 AM 15.92 60.656 0.308 6.44 20.9 6.58
8/15/2022 8:15:00 AM 16.5 61.7 0.311 6.47 17.13 6.41
8/15/2022 8:30:00 AM 17 62.6 0.312 6.49 11.59 6.2
8/15/2022 8:45:00 AM 17.37 63.266 0.311 6.53 9.4 6.05
8/15/2022 9:00:00 AM 17.7 63.86 0.31 6.53 10.07 5.79
8/15/2022 9:15:00 AM 17.94 64.292 0.309 6.56 10.87 5.73
8/15/2022 9:30:00 AM 15.75 60.35 0.294 6.46 38.3 6.19
8/15/2022 9:45:00 AM 16.35 61.43 0.296 6.47 15.12 6.14
8/15/2022 10:00:00 AM 16.91 62.438 0.298 6.48 12.85 5.92
8/15/2022 10:15:00 AM 17.34 63.212 0.298 6.47 11.85 5.81
8/15/2022 10:30:00 AM 17.8 64.04 0.297 6.52 11.34 5.69
8/15/2022 10:45:00 AM 18.35 65.03 0.295 6.59 9.33 5.69
8/15/2022 11:00:00 AM 18.43 65.174 0.295 6.58 7.27 5.59
8/15/2022 11:15:00 AM 18.96 66.128 0.293 6.66 7.06 5.95
8/15/2022 11:30:00 AM 19.58 67.244 0.288 6.65 6.39 6.47
8/15/2022 11:45:00 AM 19.85 67.73 0.288 6.7 6.48 5.97
8/15/2022 12:00:00 PM 20.34 68.612 0.289 6.69 6.46 5.67
8/15/2022 12:15:00 PM 20.72 69.296 0.287 6.71 6.16 5.97
8/15/2022 12:30:00 PM 21.15 70.07 0.282 6.81 5.25 6.37
8/15/2022 12:45:00 PM 21.64 70.952 0.277 6.91 6.39 6.55
8/15/2022 1:00:00 PM 22.11 71.798 0.274 6.97 6.39 6.62
8/15/2022 1:15:00 PM 23.18 73.724 0.273 6.98 5.72 7.03
8/15/2022 1:30:00 PM 23.79 74.82201 0.274 7 8.1 7.08
8/15/2022 1:45:00 PM 24.45 76.01 0.323 7.14 6.07 7.93
8/15/2022 2:00:00 PM 24.58 76.244 0.39 7.71 5.19 9.84
8/15/2022 2:15:00 PM 24.49 76.082 0.408 7.87 4.37 10.29
8/15/2022 2:30:00 PM 24.98 76.964 0.418 7.99 4.64 10.49
8/15/2022 2:45:00 PM 24.71 76.478 0.424 8.04 4.76 10.62
8/15/2022 3:00:00 PM 24.66 76.388 0.42 8.05 8.03 10.42
8/15/2022 3:15:00 PM 24.87 76.766 0.42 8.08 4.94 10.65
8/15/2022 3:30:00 PM 24.99 76.982 0.428 8.04 5.17 10.6
8/15/2022 3:45:00 PM 25.01 77.018 0.415 8.14 4.96 10.77
8/15/2022 4:00:00 PM 24.88 76.784 0.422 8.08 5.06 10.49
8/15/2022 4:15:00 PM 24.62 76.316 0.42 8.06 4.59 10.32
8/15/2022 4:30:00 PM 24.41 75.938 0.416 8.08 4.55 10.38
8/15/2022 4:45:00 PM 24.32 75.776 0.417 8.04 4.35 10.17
8/15/2022 5:00:00 PM 24.19 75.542 0.415 8.06 6.12 10.11
8/15/2022 5:15:00 PM 24.15 75.47 0.403 8.08 3.96 10.14
8/15/2022 5:30:00 PM 24.22 75.596 0.393 8.01 3.75 9.99
8/15/2022 5:45:00 PM 24.27 75.686 0.376 8.08 4.66 10.08
8/15/2022 6:00:00 PM 24.39 75.902 0.336 8.22 4.81 10.36
8/15/2022 6:15:00 PM 23.64 74.552 0.366 8.09 4.44 10.08
8/15/2022 6:30:00 PM 23.3 73.94 0.386 8.09 4.9 9.99
8/15/2022 6:45:00 PM 23.42 74.156 0.382 8.11 3.93 10.11
8/15/2022 7:00:00 PM 23.59 74.462 0.359 8.12 4.34 9.95
8/15/2022 7:15:00 PM 23.55 74.39 0.355 8.08 4.17 9.87
8/15/2022 7:30:00 PM 23.48 74.264 0.333 8 4.08 9.37
8/15/2022 7:45:00 PM 23.21 73.778 0.342 7.95 5.39 9.21
8/15/2022 8:00:00 PM 22.76 72.968 0.37 7.97 6.41 9.34
8/15/2022 8:15:00 PM 22.65 72.77 0.377 7.93 5.02 9.04
8/15/2022 8:30:00 PM 22.59 72.662 0.364 7.91 26.46 8.87
8/15/2022 8:45:00 PM 21.25 70.25 0.414 7.98 6.53 9.26
8/15/2022 9:00:00 PM 21.01 69.818 0.43 7.97 4.66 9.23
8/15/2022 9:15:00 PM 20.98 69.764 0.435 7.95 4.76 9.07
8/15/2022 9:30:00 PM 20.91 69.638 0.44 7.91 4.24 8.96
8/15/2022 9:45:00 PM 20.79 69.422 0.447 7.87 4.49 8.84
8/15/2022 10:00:00 PM 20.77 69.386 0.451 7.84 4.53 8.72
8/15/2022 10:15:00 PM 16.93 62.474 0.289 6.58 45.66 6.16
8/15/2022 10:30:00 PM 18.15 64.67 0.298 6.63 18.95 6.27
8/15/2022 10:45:00 PM 19.4 66.92 0.345 6.88 8.87 7.21
8/15/2022 11:00:00 PM 19.71 67.478 0.373 7.03 6.69 7.67
8/15/2022 11:15:00 PM 20.09 68.162 0.397 7.21 5.62 7.83
8/15/2022 11:30:00 PM 20.42 68.756 0.417 7.54 5.02 8.23
8/15/2022 11:45:00 PM 20.45 68.81 0.427 7.59 6.62 8.04
8/16/2022 12:00:00 AM 20.5 68.9 0.432 7.66 5.74 8.19
8/16/2022 12:15:00 AM 20.46 68.828 0.438 7.81 5.37 8.41
8/16/2022 12:30:00 AM 20.39 68.702 0.442 7.79 5.98 8.37
8/16/2022 12:45:00 AM 20.25 68.45 0.448 7.75 5.65 8.34
8/16/2022 1:00:00 AM 20.09 68.162 0.459 7.74 5.22 8.25
8/16/2022 1:15:00 AM 20.07 68.126 0.465 7.71 8.81 8.01
8/16/2022 1:30:00 AM 20.07 68.126 0.466 7.7 4.83 8.2
8/16/2022 1:45:00 AM 20.03 68.054 0.465 7.74 5.04 8.17
8/16/2022 2:00:00 AM 20.01 68.018 0.467 7.75 4.97 8.25
8/16/2022 2:15:00 AM 19.87 67.766 0.471 7.73 4.36 8.21
8/16/2022 2:30:00 AM 19.84 67.712 0.473 7.72 5.13 8.15
8/16/2022 2:45:00 AM 19.88 67.784 0.469 7.73 5.82 8.17
8/16/2022 3:00:00 AM 20.05 68.09 0.458 7.74 6.52 8.11
8/16/2022 3:15:00 AM 19.98 67.964 0.462 7.68 9.18 7.89
8/16/2022 3:30:00 AM 19.88 67.784 0.461 7.71 7.38 8.09
8/16/2022 3:45:00 AM 19.72 67.496 0.458 7.69 11.01 8
8/16/2022 4:00:00 AM 19.73 67.514 0.467 7.71 5.59 8.14
8/16/2022 4:15:00 AM 19.76 67.568 0.464 7.71 9.99 8.1
8/16/2022 4:30:00 AM 19.68 67.424 0.465 7.73 6.2 8.17
8/16/2022 4:45:00 AM 19.7 67.46 0.464 7.72 19.42 8.1
8/16/2022 5:00:00 AM 19.61 67.298 0.468 7.71 6.04 8.09
8/16/2022 5:15:00 AM 19.61 67.298 0.469 7.71 5.97 8.07
8/16/2022 5:30:00 AM 19.63 67.334 0.468 7.71 6.26 8.1
8/16/2022 5:45:00 AM 19.5 67.1 0.472 7.71 5.03 8.11
8/16/2022 6:00:00 AM 19.46 67.028 0.474 7.7 7.94 8.03
8/16/2022 6:15:00 AM 19.56 67.208 0.47 7.71 4.33 8.08
8/16/2022 6:30:00 AM 19.41 66.938 0.472 7.71 5.03 8.12
8/16/2022 6:45:00 AM 19.43 66.974 0.472 7.71 4.56 8.11
8/16/2022 7:00:00 AM 19.4 66.92 0.474 7.7 3.89 8.14
8/16/2022 7:15:00 AM 19.38 66.884 0.476 7.71 4.16 8.2
8/16/2022 7:30:00 AM 19.42 66.956 0.475 7.72 3.91 8.24
8/16/2022 7:45:00 AM 19.48 67.064 0.475 7.72 4.62 8.28
8/16/2022 8:00:00 AM 19.5 67.1 0.476 7.73 5.94 8.39
8/16/2022 8:15:00 AM 19.55 67.19 0.476 7.73 5.71 8.42
8/16/2022 8:30:00 AM 19.5 67.1 0.48 7.76 5.12 8.66
8/16/2022 8:45:00 AM 19.52 67.136 0.484 7.77 5.09 8.73
8/16/2022 9:00:00 AM 19.59 67.262 0.486 7.79 4.11 8.86
8/16/2022 9:15:00 AM 19.67 67.406 0.488 7.81 4.41 8.96
8/16/2022 9:30:00 AM 19.8 67.64 0.487 7.82 4.55 9.07
8/16/2022 9:45:00 AM 19.85 67.73 0.487 7.83 4.73 9.12
8/16/2022 10:00:00 AM 20.06 68.108 0.485 7.85 4.49 9.29
8/16/2022 10:15:00 AM 20.35 68.63 0.484 7.87 4.07 9.37
8/16/2022 10:30:00 AM 20.53 68.954 0.483 7.89 4.09 9.51
8/16/2022 10:45:00 AM 20.66 69.188 0.486 7.89 3.42 9.66
8/16/2022 11:00:00 AM 20.85 69.53 0.487 7.93 3.51 9.8
8/16/2022 11:15:00 AM 21.1 69.98 0.486 7.95 3.28 9.91
8/16/2022 11:30:00 AM 21.37 70.466 0.485 7.99 3.23 10.08
8/16/2022 11:45:00 AM 21.55 70.79 0.487 8 3.16 10.16
8/16/2022 12:00:00 PM 21.56 70.808 0.488 8.01 6.23 10.13
8/16/2022 12:15:00 PM 21.46 70.628 0.486 8.01 3.77 10.1
8/16/2022 12:30:00 PM 21.67 71.006 0.481 8.03 3.5 10.22
8/16/2022 12:45:00 PM 22.1 71.78 0.482 8.04 3.41 10.3
8/16/2022 1:00:00 PM 22.76 72.968 0.483 8.07 3.34 10.46
8/16/2022 1:15:00 PM 23.15 73.67 0.492 8.08 3.52 10.51
8/16/2022 1:30:00 PM 23.74 74.732 0.488 8.12 3.35 10.72
8/16/2022 1:45:00 PM 24.21 75.578 0.517 8.01 2.91 10.27
8/16/2022 2:00:00 PM 23.95 75.11 0.528 8.05 2.92 10.21
8/16/2022 2:15:00 PM 23.4 74.12 0.504 8.13 3.8 10.48
8/16/2022 2:30:00 PM 23.35 74.03 0.483 8.17 3.64 10.75
8/16/2022 2:45:00 PM 23.27 73.886 0.469 8.17 3.55 10.68
8/16/2022 3:00:00 PM 23.5 74.3 0.462 8.2 3.51 10.79
8/16/2022 3:15:00 PM 24.57 76.226 0.455 8.18 3.28 10.87
8/16/2022 3:30:00 PM 24.7 76.46 0.47 8.17 33.81 10.73
8/16/2022 3:45:00 PM 24.86 76.748 0.493 8.1 27.71 10.38
8/16/2022 4:00:00 PM 25.08 77.144 0.503 8.07 8.62 10.25
8/16/2022 4:15:00 PM 25.76 78.368 0.492 8.06 9.99 10.27
8/16/2022 4:30:00 PM 26.07 78.926 0.462 8.09 11.21 10.32
8/16/2022 4:45:00 PM 25.02 77.036 0.489 8.04 7.76 9.83
8/16/2022 5:00:00 PM 24.64 76.352 0.479 8.08 7.94 9.82
8/16/2022 5:15:00 PM 24.44 75.992 0.467 8.08 7.08 9.83
8/16/2022 5:30:00 PM 24.79 76.622 0.443 8.07 6.55 9.94
8/16/2022 5:45:00 PM 24.38 75.884 0.447 8.11 6.26 10.02
8/16/2022 6:00:00 PM 24.51 76.118 0.44 8.07 5.03 9.92
8/16/2022 6:15:00 PM 24.24 75.632 0.433 8.04 5.78 9.65
8/16/2022 6:30:00 PM 24.07 75.326 0.432 8.05 4.72 9.63
8/16/2022 6:45:00 PM 24.11 75.398 0.415 8.07 7.05 9.88
8/16/2022 7:00:00 PM 23.84 74.912 0.416 8.04 4.18 9.55
8/16/2022 7:15:00 PM 23.76 74.768 0.387 8.17 4.43 9.82
8/16/2022 7:30:00 PM 23.66 74.588 0.342 8.14 4.48 9.6
8/16/2022 7:45:00 PM 23.61 74.498 0.314 8.2 5.01 9.64
8/16/2022 8:00:00 PM 23.43 74.174 0.301 8.1 4.47 9.23
8/16/2022 8:15:00 PM 23.3 73.94 0.292 8.03 4.94 8.99
8/16/2022 8:30:00 PM 23.24 73.832 0.281 8.1 4.75 9.09
8/16/2022 8:45:00 PM 23.08 73.544 0.273 8 5.6 8.79
8/16/2022 9:00:00 PM 22.95 73.31 0.266 8.03 7.71 8.74
8/16/2022 9:15:00 PM 22.78 73.004 0.262 7.95 5.89 8.5
8/16/2022 9:30:00 PM 22.69 72.842 0.258 7.96 18.68 8.39
8/16/2022 9:45:00 PM 22.61 72.698 0.256 7.88 10.25 8.09
8/16/2022 10:00:00 PM 22.56 72.608 0.255 7.83 8.18 7.91
8/16/2022 10:15:00 PM 17.16 62.888 0.267 6.54 67.73 6.1
8/16/2022 10:30:00 PM 18.55 65.39 0.271 6.56 25.71 6.11
8/16/2022 10:45:00 PM 19.47 67.046 0.271 6.63 19.88 6.28
8/16/2022 11:00:00 PM 20.13 68.234 0.269 6.68 11.58 6.41
8/16/2022 11:15:00 PM 20.33 68.594 0.28 6.76 18.79 6.59
8/16/2022 11:30:00 PM 20.53 68.954 0.369 7.38 15.42 8.05
8/16/2022 11:45:00 PM 20.4 68.72 0.425 7.63 13.13 8.23
8/17/2022 12:00:00 AM 20.39 68.702 0.439 7.73 11.94 8.36
8/17/2022 12:15:00 AM 20.27 68.486 0.455 7.71 64.76 8.33
8/17/2022 12:30:00 AM 20.4 68.72 0.447 7.72 56.45 8.26
8/17/2022 12:45:00 AM 20.24 68.432 0.452 7.74 24.56 8.34
8/17/2022 1:00:00 AM 20.16 68.288 0.452 7.75 12.49 8.35
8/17/2022 1:15:00 AM 20.11 68.198 0.449 7.74 8.94 8.28
8/17/2022 1:30:00 AM 20.11 68.198 0.449 7.73 13.47 8.27
8/17/2022 1:45:00 AM 19.92 67.856 0.453 7.75 6.06 8.32
8/17/2022 2:00:00 AM 19.81 67.658 0.459 7.75 5.87 8.35
8/17/2022 2:15:00 AM 19.86 67.748 0.453 7.74 5.91 8.27
8/17/2022 2:30:00 AM 19.89 67.802 0.446 7.74 5.81 8.21
8/17/2022 2:45:00 AM 19.83 67.694 0.448 7.71 6.18 8.14
8/17/2022 3:00:00 AM 19.71 67.478 0.455 7.74 8.8 8.25
8/17/2022 3:15:00 AM 19.6 67.28 0.459 7.72 6.05 8.25
8/17/2022 3:30:00 AM 19.64 67.352 0.457 7.71 6.24 8.18
8/17/2022 3:45:00 AM 19.53 67.154 0.46 7.71 6.79 8.19
8/17/2022 4:00:00 AM 19.43 66.974 0.463 7.7 4.86 8.15
8/17/2022 4:15:00 AM 19.31 66.758 0.47 7.7 5.01 8.17
8/17/2022 4:30:00 AM 19.42 66.956 0.47 7.71 4.49 8.14
8/17/2022 4:45:00 AM 19.38 66.884 0.471 7.68 5.84 8.09
8/17/2022 5:00:00 AM 19.33 66.794 0.475 7.68 16.18 8.12
8/17/2022 5:15:00 AM 19.04 66.272 0.497 7.71 6.38 8.31
8/17/2022 5:30:00 AM 18.96 66.128 0.503 7.68 7.93 8.16
8/17/2022 5:45:00 AM 19.1 66.38 0.495 7.67 5.27 8.06
8/17/2022 6:00:00 AM 19.2 66.56 0.49 7.64 6.05 7.94
8/17/2022 6:15:00 AM 19.27 66.686 0.489 7.61 8.42 7.72
8/17/2022 6:30:00 AM 19.28 66.704 0.479 7.61 6.62 7.74
8/17/2022 6:45:00 AM 19.31 66.758 0.469 7.62 5.63 7.64
8/17/2022 7:00:00 AM 19.3 66.74 0.462 7.62 5.72 7.79
8/17/2022 7:15:00 AM 19.38 66.884 0.455 7.63 5.87 7.76
8/17/2022 7:30:00 AM 19.43 66.974 0.448 7.48 123.84 7.49
8/17/2022 7:45:00 AM 19.24 66.632 0.464 7.68 20.87 8.08
8/17/2022 8:00:00 AM 19.39 66.902 0.462 7.62 24.6 7.81
8/17/2022 8:15:00 AM 19.5 67.1 0.458 7.63 14.82 7.84
8/17/2022 8:30:00 AM 19.6 67.28 0.454 7.65 20.28 7.94
8/17/2022 8:45:00 AM 19.69 67.442 0.453 7.67 8.27 8.1
8/17/2022 9:00:00 AM 19.74 67.532 0.454 7.71 7.43 8.34
8/17/2022 9:15:00 AM 19.82 67.676 0.454 7.71 4.99 8.35
8/17/2022 9:30:00 AM 19.95 67.91 0.454 7.75 4.77 8.54
8/17/2022 9:45:00 AM 20.07 68.126 0.454 7.75 4.21 8.61
8/17/2022 10:00:00 AM 20.17 68.306 0.454 7.77 4.54 8.75
8/17/2022 10:15:00 AM 20.21 68.378 0.452 7.8 4.5 8.94
8/17/2022 10:30:00 AM 20.27 68.486 0.451 7.81 4.39 9.02
8/17/2022 10:45:00 AM 20.41 68.738 0.451 7.83 4.02 9.18
8/17/2022 11:00:00 AM 20.53 68.954 0.452 7.86 3.6 9.33
8/17/2022 11:15:00 AM 20.62 69.116 0.452 7.87 3.98 9.43
8/17/2022 11:30:00 AM 20.83 69.494 0.451 7.9 5.29 9.62
8/17/2022 11:45:00 AM 21.19 70.142 0.447 7.96 4.16 9.98
8/17/2022 12:00:00 PM 21.48 70.664 0.451 7.97 3.96 10.02
8/17/2022 12:15:00 PM 21.55 70.79 0.453 8 3.73 10.11
8/17/2022 12:30:00 PM 21.47 70.646 0.451 8.05 4.07 10.28
8/17/2022 12:45:00 PM 21.7 71.06 0.449 8.04 3.84 10.38
8/17/2022 1:00:00 PM 21.83 71.294 0.451 8.08 3.78 10.5
8/17/2022 1:15:00 PM 21.98 71.564 0.444 8.09 4.21 10.58
8/17/2022 1:30:00 PM 22.2 71.96 0.443 8.11 3.85 10.67
8/17/2022 1:45:00 PM 22.43 72.374 0.444 8.11 4.53 10.74
8/17/2022 2:00:00 PM 23.31 73.958 0.447 8.12 6.71 10.84
8/17/2022 2:15:00 PM 22.93 73.274 0.512 8.04 6.41 10.29
8/17/2022 2:30:00 PM 22.7 72.86 0.528 8.03 4 10.17
8/17/2022 2:45:00 PM 22.99 73.382 0.495 8.14 3.49 10.72
8/17/2022 3:00:00 PM 23.7 74.66 0.495 8.11 9.66 10.6
8/17/2022 3:15:00 PM 23.57 74.426 0.507 8.12 13.94 10.5
8/17/2022 3:30:00 PM 22.77 72.986 0.488 8.13 57.3 10.16
8/17/2022 3:45:00 PM 22.25 72.05 0.468 8.09 54.85 9.83
8/17/2022 4:00:00 PM 22.22 71.996 0.444 8.07 70.37 9.96
8/17/2022 4:15:00 PM 22.1 71.78 0.43 8.05 71.22 9.86
8/17/2022 4:30:00 PM 21.79 71.222 0.435 8.01 35.36 9.72
8/17/2022 4:45:00 PM 22.29 72.122 0.436 8.01 23.33 9.83
8/17/2022 5:00:00 PM 22.41 72.338 0.45 8.01 25.81 9.79
8/17/2022 5:15:00 PM 22.37 72.266 0.465 7.99 14.52 9.8
8/17/2022 5:30:00 PM 22.35 72.23 0.475 8.01 9.5 9.91
8/17/2022 5:45:00 PM 22.55 72.59 0.475 8.02 8.42 10
8/17/2022 6:00:00 PM 22.65 72.77 0.471 8.03 6.12 10.03
8/17/2022 6:15:00 PM 22.66 72.788 0.468 8.06 6.59 10.09
8/17/2022 6:30:00 PM 22.61 72.698 0.461 8.06 6.51 10.06
8/17/2022 6:45:00 PM 22.49 72.482 0.447 8.1 5.21 10.09
8/17/2022 7:00:00 PM 21.82 71.276 0.438 8.09 29.87 9.85
8/17/2022 7:15:00 PM 21.21 70.17799 0.428 7.98 91.42 9.56
8/17/2022 7:30:00 PM 21.06 69.908 0.42 7.9 121.25 9.38
8/17/2022 7:45:00 PM 21 69.8 0.415 7.88 87.75 9.23
8/17/2022 8:00:00 PM 20.58 69.044 0.429 7.81 106.18 9.08
8/17/2022 8:15:00 PM 20.14 68.252 0.504 7.68 78.67 8.83
8/17/2022 8:30:00 PM 20.2 68.36 0.499 7.61 37.56 8.67
8/17/2022 8:45:00 PM 20.11 68.198 0.51 7.52 23.98 8.51
8/17/2022 9:00:00 PM 20.07 68.126 0.511 7.49 23.4 8.43
8/17/2022 9:15:00 PM 20.02 68.036 0.505 7.47 17.76 8.37
8/17/2022 9:30:00 PM 19.96 67.92799 0.494 7.48 14.19 8.39
8/17/2022 9:45:00 PM 19.94 67.892 0.478 7.47 16.44 8.36
8/17/2022 10:00:00 PM 19.97 67.946 0.465 7.48 12.49 8.26
8/17/2022 10:15:00 PM 16.91 62.438 0.303 6.55 69.5 6.18
8/17/2022 10:30:00 PM 17.35 63.23 0.298 6.51 32.82 5.85
8/17/2022 10:45:00 PM 17.95 64.31 0.306 6.58 23.27 6.15
8/17/2022 11:00:00 PM 18.28 64.904 0.318 6.66 16.36 6.31
8/17/2022 11:15:00 PM 18.6 65.48 0.33 6.73 14.19 6.34
8/17/2022 11:30:00 PM 18.9 66.02 0.345 6.84 9.92 6.82
8/17/2022 11:45:00 PM 19.03 66.254 0.361 6.97 9.49 7.13
8/18/2022 12:00:00 AM 19.13 66.434 0.378 7.14 9.6 7.57
8/18/2022 12:15:00 AM 19.18 66.524 0.39 7.22 8.72 7.55
8/18/2022 12:30:00 AM 19.19 66.542 0.397 7.25 8.73 7.42
8/18/2022 12:45:00 AM 19.21 66.578 0.406 7.37 8.6 7.73
8/18/2022 1:00:00 AM 19.22 66.596 0.411 7.41 7.33 7.81
8/18/2022 1:15:00 AM 19.22 66.596 0.414 7.47 6.96 7.83
8/18/2022 1:30:00 AM 19.24 66.632 0.414 7.47 5.92 7.77
8/18/2022 1:45:00 AM 19.26 66.668 0.414 7.46 5.98 7.71
8/18/2022 2:00:00 AM 19.23 66.614 0.414 7.51 6.5 7.92
8/18/2022 2:15:00 AM 19.18 66.524 0.416 7.52 6.95 7.93
8/18/2022 2:30:00 AM 19.1 66.38 0.419 7.53 6.44 7.97
8/18/2022 2:45:00 AM 19.06 66.308 0.42 7.54 6.92 7.95
8/18/2022 3:00:00 AM 19.08 66.344 0.42 7.51 5.87 7.77
8/18/2022 3:15:00 AM 19.07 66.326 0.419 7.53 5.5 7.83
8/18/2022 3:30:00 AM 19.02 66.236 0.419 7.55 5.93 7.92
8/18/2022 3:45:00 AM 19.06 66.308 0.414 7.53 21.36 7.76
8/18/2022 4:00:00 AM 18.84 65.912 0.432 7.57 11.18 8.11
8/18/2022 4:15:00 AM 18.84 65.912 0.436 7.57 8.3 8.1
8/18/2022 4:30:00 AM 18.79 65.82201 0.438 7.58 6.3 8.13
8/18/2022 4:45:00 AM 18.81 65.858 0.439 7.57 6.99 8.06
8/18/2022 5:00:00 AM 18.77 65.786 0.441 7.57 6.33 8.05
8/18/2022 5:15:00 AM 18.71 65.67799 0.445 7.55 5.88 8.08
8/18/2022 5:30:00 AM 18.75 65.75 0.446 7.56 4.93 7.98
8/18/2022 5:45:00 AM 18.78 65.804 0.446 7.55 5.7 7.92
8/18/2022 6:00:00 AM 18.68 65.624 0.443 7.58 13.24 8.02
8/18/2022 6:15:00 AM 18.67 65.606 0.436 7.56 5.61 7.81
8/18/2022 6:30:00 AM 18.67 65.606 0.443 7.58 6.19 7.78
8/18/2022 6:45:00 AM 18.67 65.606 0.45 7.59 5.22 8.04
8/18/2022 7:00:00 AM 18.63 65.534 0.457 7.59 6.68 8.05
8/18/2022 7:15:00 AM 18.67 65.606 0.458 7.58 11.58 7.91
8/18/2022 7:30:00 AM 18.69 65.642 0.459 7.59 13.45 8
8/18/2022 7:45:00 AM 18.71 65.67799 0.46 7.6 12.48 7.99
8/18/2022 8:00:00 AM 18.68 65.624 0.463 7.61 4.32 8.12
8/18/2022 8:15:00 AM 18.76 65.768 0.464 7.59 5.57 7.97
8/18/2022 8:30:00 AM 18.8 65.84 0.467 7.61 5.49 8.14
8/18/2022 8:45:00 AM 18.86 65.948 0.469 7.62 4.45 8.25
8/18/2022 9:00:00 AM 18.94 66.092 0.469 7.64 4.18 8.31
8/18/2022 9:15:00 AM 19.03 66.254 0.47 7.66 7.9 8.44
8/18/2022 9:30:00 AM 19.17 66.506 0.469 7.67 4.88 8.5
8/18/2022 9:45:00 AM 19.25 66.65 0.472 7.68 6.3 8.64
8/18/2022 10:00:00 AM 19.26 66.668 0.48 7.7 4.04 8.79
8/18/2022 10:15:00 AM 19.22 66.596 0.487 7.71 3.97 8.9
8/18/2022 10:30:00 AM 19.4 66.92 0.49 7.72 3.62 8.91
8/18/2022 10:45:00 AM 19.56 67.208 0.493 7.73 3.38 8.99
8/18/2022 11:00:00 AM 19.45 67.01 0.504 7.76 3.25 9.13
8/18/2022 11:15:00 AM 19.63 67.334 0.508 7.75 2.79 9.32
8/18/2022 11:30:00 AM 19.81 67.658 0.513 7.76 5.18 9.35
8/18/2022 11:45:00 AM 20.14 68.252 0.515 7.78 4.63 9.45
8/18/2022 12:00:00 PM 20.23 68.414 0.51 7.85 3.57 9.71
8/18/2022 12:15:00 PM 20.61 69.098 0.501 7.85 3.28 9.75
8/18/2022 12:30:00 PM 21.21 70.17799 0.491 7.79 4.2 9.57
8/18/2022 12:45:00 PM 21.67 71.006 0.504 7.86 3.26 9.84
8/18/2022 1:00:00 PM 22.09 71.762 0.515 7.88 3.64 9.93
8/18/2022 1:15:00 PM 22.53 72.554 0.519 7.92 3.12 10.07
8/18/2022 1:30:00 PM 22.74 72.932 0.521 7.94 2.93 10.09
8/18/2022 1:45:00 PM 22.92 73.256 0.529 7.94 3.08 9.99
8/18/2022 2:00:00 PM 23.11 73.598 0.536 7.92 3.12 9.94
8/18/2022 2:15:00 PM 23.44 74.192 0.529 7.95 3.41 10.1
8/18/2022 2:30:00 PM 23.12 73.616 0.523 7.97 2.92 10.12
8/18/2022 2:45:00 PM 23.54 74.372 0.526 7.97 3.09 10.06
8/18/2022 3:00:00 PM 23.61 74.498 0.527 7.94 3.24 10.23
8/18/2022 3:15:00 PM 23.89 75.002 0.521 8 3.06 10.29
8/18/2022 3:30:00 PM 24.47 76.046 0.515 8.03 3.43 10.33
8/18/2022 3:45:00 PM 24.47 76.046 0.51 8.05 3.67 10.39
8/18/2022 4:00:00 PM 24.25 75.65 0.52 8.04 3.88 10.22
8/18/2022 4:15:00 PM 23.72 74.696 0.52 8.03 4.48 10.13
8/18/2022 4:30:00 PM 23.88 74.984 0.514 8.06 3.54 10.23
8/18/2022 4:45:00 PM 24.15 75.47 0.506 8.08 3.59 10.31
8/18/2022 5:00:00 PM 24.23 75.614 0.506 8.1 4.46 10.26
8/18/2022 5:15:00 PM 24.17 75.506 0.516 8.07 5.73 10.18
8/18/2022 5:30:00 PM 23.86 74.948 0.504 8.07 6.66 10.07
8/18/2022 5:45:00 PM 23.77 74.786 0.464 8.13 6.63 10.19
8/18/2022 6:00:00 PM 22.95 73.31 0.489 8.03 13.36 9.68
8/18/2022 6:15:00 PM 22.6 72.68 0.498 7.99 4.98 9.48
8/18/2022 6:30:00 PM 22.48 72.464 0.503 7.98 4 9.47
8/18/2022 6:45:00 PM 22.32 72.176 0.51 7.92 8.93 9.06
8/18/2022 7:00:00 PM 22.18 71.924 0.514 7.9 4.42 9.11
8/18/2022 7:15:00 PM 21.99 71.582 0.518 7.89 3.68 8.99
8/18/2022 7:30:00 PM 21.86 71.348 0.515 7.93 3.53 9.13
8/18/2022 7:45:00 PM 21.61 70.898 0.517 7.91 3.44 8.96
8/18/2022 8:00:00 PM 21.49 70.682 0.519 7.88 3.34 8.94
8/18/2022 8:15:00 PM 21.61 70.898 0.514 7.88 3.39 8.89
8/18/2022 8:30:00 PM 22.21 71.978 0.453 7.93 4.35 8.86
8/18/2022 8:45:00 PM 22.4 72.32 0.413 7.92 4.36 8.65
8/18/2022 9:00:00 PM 22.49 72.482 0.376 7.9 10.68 8.44
8/18/2022 9:15:00 PM 21.93 71.474 0.393 7.87 9.01 8.43
8/18/2022 9:30:00 PM 21.37 70.466 0.422 7.87 7.12 8.58
8/18/2022 9:45:00 PM 21.24 70.232 0.434 7.83 7.28 8.52
8/18/2022 10:00:00 PM 21.14 70.052 0.442 7.81 7.46 8.4
8/18/2022 10:15:00 PM 17.4 63.32 0.286 6.56 56.5 6.3
8/18/2022 10:30:00 PM 18.07 64.526 0.282 6.52 27.09 5.99
8/18/2022 10:45:00 PM 19.2 66.56 0.278 6.66 30.09 6.27
8/18/2022 11:00:00 PM 19.5 67.1 0.275 6.66 21.61 6.09
8/18/2022 11:15:00 PM 19.61 67.298 0.276 6.65 18.01 5.9
8/18/2022 11:30:00 PM 19.75 67.55 0.305 6.75 15.79 5.85
8/18/2022 11:45:00 PM 19.78 67.604 0.347 6.88 17.92 6.28
8/19/2022 12:00:00 AM 19.84 67.712 0.384 7.02 15.17 6.74
8/19/2022 12:15:00 AM 19.84 67.712 0.419 7.27 15.92 7.22
8/19/2022 12:30:00 AM 19.83 67.694 0.439 7.28 10.9 7.44
8/19/2022 12:45:00 AM 19.82 67.676 0.451 7.4 7.03 7.64
8/19/2022 1:00:00 AM 19.8 67.64 0.459 7.43 6.14 7.59
8/19/2022 1:15:00 AM 19.74 67.532 0.461 7.54 6.84 7.91
8/19/2022 1:30:00 AM 19.65 67.37 0.464 7.56 4.61 7.96
8/19/2022 1:45:00 AM 19.66 67.388 0.469 7.54 5.17 7.92
8/19/2022 2:00:00 AM 19.75 67.55 0.468 7.55 5.81 7.87
8/19/2022 2:15:00 AM 19.75 67.55 0.469 7.55 6.03 7.79
8/19/2022 2:30:00 AM 19.65 67.37 0.47 7.58 5.35 7.87
8/19/2022 2:45:00 AM 19.6 67.28 0.473 7.59 5.09 7.92
8/19/2022 3:00:00 AM 19.65 67.37 0.467 7.61 6.86 7.88
8/19/2022 3:15:00 AM 19.5 67.1 0.467 7.63 5.29 7.93
8/19/2022 3:30:00 AM 19.42 66.956 0.475 7.65 6.57 8.06
8/19/2022 3:45:00 AM 19.22 66.596 0.483 7.65 13.31 8.18
8/19/2022 4:00:00 AM 19.09 66.362 0.495 7.65 11.68 8.25
8/19/2022 4:15:00 AM 19.09 66.362 0.497 7.64 10.87 8.18
8/19/2022 4:30:00 AM 19.03 66.254 0.499 7.64 10.47 8.18
8/19/2022 4:45:00 AM 19.02 66.236 0.502 7.62 10.56 8.09
8/19/2022 5:00:00 AM 19.01 66.218 0.502 7.62 9.27 8.08
8/19/2022 5:15:00 AM 18.92 66.056 0.503 7.63 6.42 8.09
8/19/2022 5:30:00 AM 18.85 65.93 0.507 7.63 5.85 8.1
8/19/2022 5:45:00 AM 18.82 65.876 0.508 7.62 7.4 8.07
8/19/2022 6:00:00 AM 19.26 66.668 0.471 7.58 26.57 7.64
8/19/2022 6:15:00 AM 19.03 66.254 0.465 7.61 27.04 7.75
8/19/2022 6:30:00 AM 18.61 65.498 0.488 7.64 16.21 8.15
8/19/2022 6:45:00 AM 18.48 65.264 0.513 7.65 8.6 8.26
8/19/2022 7:00:00 AM 18.37 65.066 0.525 7.65 7.82 8.39
8/19/2022 7:15:00 AM 18.35 65.03 0.531 7.64 6.73 8.36
8/19/2022 7:30:00 AM 18.48 65.264 0.53 7.64 6.64 8.38
8/19/2022 7:45:00 AM 18.53 65.354 0.527 7.63 7.17 8.37
8/19/2022 8:00:00 AM 18.53 65.354 0.526 7.64 6.71 8.3
8/19/2022 8:15:00 AM 18.57 65.426 0.524 7.64 6.8 8.33
8/19/2022 8:30:00 AM 18.64 65.552 0.523 7.65 5.9 8.42
8/19/2022 8:45:00 AM 18.73 65.714 0.524 7.67 5.44 8.55
8/19/2022 9:00:00 AM 18.8 65.84 0.526 7.68 4.86 8.55
8/19/2022 9:15:00 AM 18.8 65.84 0.525 7.68 4.31 8.58
8/19/2022 9:30:00 AM 18.73 65.714 0.525 7.7 3.92 8.72
8/19/2022 9:45:00 AM 18.67 65.606 0.524 7.71 3.71 8.84
8/19/2022 10:00:00 AM 18.68 65.624 0.522 7.71 3.61 8.77
8/19/2022 10:15:00 AM 16.84 62.312 0.3 6.58 42.74 6.24
8/19/2022 10:30:00 AM 17.59 63.662 0.29 6.55 31.29 6.57
8/19/2022 10:45:00 AM 18.23 64.814 0.284 6.69 22.82 6.94
8/19/2022 11:00:00 AM 18.4 65.12 0.281 6.67 19.32 6.88
8/19/2022 11:15:00 AM 15.83 60.494 0.297 6.44 41.27 6.44
8/19/2022 11:30:00 AM 17.52 63.536 0.296 6.46 21.86 6.73
8/19/2022 11:45:00 AM 18.89 66.002 0.292 6.57 13.25 7.1
8/19/2022 12:00:00 PM 19.93 67.874 0.287 6.74 11.13 7.26
8/19/2022 12:15:00 PM 20.74 69.332 0.283 6.81 9.21 7.3
8/19/2022 12:30:00 PM 22.13 71.834 0.28 6.96 9.14 8
8/19/2022 12:45:00 PM 23.28 73.904 0.292 7.15 12.77 8.56
8/19/2022 1:00:00 PM 23.75 74.75 0.351 7.35 7.26 8.96
8/19/2022 1:15:00 PM 24.29 75.722 0.384 7.45 7.14 9.06
8/19/2022 1:30:00 PM 23.82 74.876 0.443 7.73 5.69 9.44
8/19/2022 1:45:00 PM 23.94 75.092 0.484 7.73 4.03 9.38
8/19/2022 2:00:00 PM 24.6 76.28 0.467 7.73 4.8 9.48
8/19/2022 2:15:00 PM 24.11 75.398 0.484 7.81 4.37 9.55
8/19/2022 2:30:00 PM 24.23 75.614 0.496 7.79 3.94 9.46
8/19/2022 2:45:00 PM 24.28 75.704 0.504 7.82 3.64 9.57
8/19/2022 3:00:00 PM 24.2 75.56 0.505 7.78 3.5 9.51
8/19/2022 3:15:00 PM 24.44 75.992 0.507 7.8 3.3 9.51
8/19/2022 3:30:00 PM 24.83 76.694 0.5 7.82 3.34 9.72
8/19/2022 3:45:00 PM 25.31 77.558 0.505 7.83 3.13 9.64
8/19/2022 4:00:00 PM 25.06 77.108 0.505 7.95 3.36 9.89
8/19/2022 4:15:00 PM 24.81 76.658 0.501 7.93 3.5 9.94
8/19/2022 4:30:00 PM 24.59 76.262 0.514 7.89 3.36 9.59
8/19/2022 4:45:00 PM 24.57 76.226 0.51 7.93 4.16 9.8
8/19/2022 5:00:00 PM 24.16 75.488 0.514 7.91 3.57 9.73
8/19/2022 5:15:00 PM 23.89 75.002 0.518 7.91 5.76 9.64
8/19/2022 5:30:00 PM 23.98 75.164 0.52 7.88 5.67 9.59
8/19/2022 5:45:00 PM 24 75.2 0.518 7.91 4.2 9.47
8/19/2022 6:00:00 PM 24.06 75.308 0.508 7.92 22.03 9.64
8/19/2022 6:15:00 PM 23.55 74.39 0.516 7.91 4.43 9.47
8/19/2022 6:30:00 PM 23.34 74.012 0.52 7.9 3.46 9.41
8/19/2022 6:45:00 PM 23.32 73.976 0.522 7.85 2.89 9.2
8/19/2022 7:00:00 PM 23.25 73.85 0.526 7.84 3.36 9.08
8/19/2022 7:15:00 PM 23.12 73.616 0.523 7.88 3.28 9.07
8/19/2022 7:30:00 PM 22.98 73.364 0.517 7.87 3.4 9.12
8/19/2022 7:45:00 PM 22.88 73.184 0.51 7.88 2.75 8.9
8/19/2022 8:00:00 PM 22.72 72.896 0.504 7.88 3.11 9.12
8/19/2022 8:15:00 PM 22.75 72.95 0.491 7.88 3.18 9.12
8/19/2022 8:30:00 PM 23.23 73.814 0.444 7.93 3.64 9.25
8/19/2022 8:45:00 PM 23.3 73.94 0.422 7.79 5.07 8.8
8/19/2022 9:00:00 PM 22.71 72.878 0.434 7.85 6.52 8.75
8/19/2022 9:15:00 PM 22.22 71.996 0.452 7.84 6.33 8.78
8/19/2022 9:30:00 PM 22.05 71.69 0.46 7.82 8 8.69
8/19/2022 9:45:00 PM 21.88 71.384 0.468 7.79 8.97 8.54
8/19/2022 10:00:00 PM 21.71 71.078 0.474 7.8 8.31 8.56
8/19/2022 10:15:00 PM 17.42 63.356 0.294 6.55 36.15 6.11
8/19/2022 10:30:00 PM 18.37 65.066 0.289 6.56 20.94 6.06
8/19/2022 10:45:00 PM 18.87 65.966 0.287 6.55 15.15 5.9
8/19/2022 11:00:00 PM 19.47 67.046 0.287 6.6 14.13 5.66
8/19/2022 11:15:00 PM 19.72 67.496 0.287 6.63 12.02 5.49
8/19/2022 11:30:00 PM 20.05 68.09 0.324 6.82 8.51 7.11
8/19/2022 11:45:00 PM 20.22 68.396 0.366 7.03 6.84 7.56
8/20/2022 12:00:00 AM 20.36 68.648 0.399 7.21 5.56 7.76
8/20/2022 12:15:00 AM 20.4 68.72 0.421 7.3 5.2 7.77
8/20/2022 12:30:00 AM 20.43 68.774 0.432 7.33 5.67 7.53
8/20/2022 12:45:00 AM 20.45 68.81 0.444 7.42 5.24 7.67
8/20/2022 1:00:00 AM 20.44 68.792 0.453 7.53 5.42 7.77
8/20/2022 1:15:00 AM 20.44 68.792 0.458 7.57 6 7.98
8/20/2022 1:30:00 AM 20.33 68.594 0.461 7.67 5.65 8.18
8/20/2022 1:45:00 AM 20.17 68.306 0.461 7.7 5.24 8.29
8/20/2022 2:00:00 AM 20.11 68.198 0.458 7.69 5.54 8.19
8/20/2022 2:15:00 AM 19.98 67.964 0.461 7.7 5.34 8.2
8/20/2022 2:30:00 AM 19.95 67.91 0.462 7.67 4.93 8.19
8/20/2022 2:45:00 AM 19.84 67.712 0.463 7.7 4.99 8.26
8/20/2022 3:00:00 AM 19.76 67.568 0.462 7.7 6.02 8.23
8/20/2022 3:15:00 AM 19.76 67.568 0.458 7.67 5.57 8.07
8/20/2022 3:30:00 AM 19.61 67.298 0.456 7.69 18.67 8.24
8/20/2022 3:45:00 AM 19.55 67.19 0.457 7.67 34.44 8.19
8/20/2022 4:00:00 AM 19.44 66.992 0.458 7.65 44.31 8.18
8/20/2022 4:15:00 AM 19.37 66.866 0.458 7.63 39.91 8.16
8/20/2022 4:30:00 AM 19.29 66.722 0.458 7.65 27.01 8.15
8/20/2022 4:45:00 AM 19.19 66.542 0.458 7.65 19.85 8.15
8/20/2022 5:00:00 AM 19.21 66.578 0.456 7.62 21.28 7.99
8/20/2022 5:15:00 AM 19.09 66.362 0.46 7.65 39.48 8.22
8/20/2022 5:30:00 AM 19.08 66.344 0.463 7.65 26.84 8.19
8/20/2022 5:45:00 AM 18.96 66.128 0.465 7.66 14.98 8.18
8/20/2022 6:00:00 AM 18.89 66.002 0.468 7.64 23.62 8.12
8/20/2022 6:15:00 AM 18.82 65.876 0.472 7.67 8.2 8.28
8/20/2022 6:30:00 AM 18.84 65.912 0.473 7.64 18.43 7.9
8/20/2022 6:45:00 AM 18.82 65.876 0.476 7.64 17.15 8.1
8/20/2022 7:00:00 AM 18.89 66.002 0.472 7.65 8.88 8.21
8/20/2022 7:15:00 AM 18.89 66.002 0.468 7.64 5.61 8.18
8/20/2022 7:30:00 AM 18.84 65.912 0.464 7.66 6.27 8.2
8/20/2022 7:45:00 AM 18.86 65.948 0.463 7.65 5.12 8.08
8/20/2022 8:00:00 AM 18.86 65.948 0.462 7.66 5.02 8.23
8/20/2022 8:15:00 AM 18.85 65.93 0.462 7.68 5.29 8.37
8/20/2022 8:30:00 AM 18.88 65.984 0.462 7.67 5.04 8.25
8/20/2022 8:45:00 AM 18.92 66.056 0.461 7.66 4.35 8.11
8/20/2022 9:00:00 AM 18.98 66.164 0.46 7.63 4.16 8.1
8/20/2022 9:15:00 AM 19.04 66.272 0.463 7.69 5.65 8.47
8/20/2022 9:30:00 AM 19.1 66.38 0.463 7.69 5.3 8.32
8/20/2022 9:45:00 AM 19.18 66.524 0.461 7.68 4.13 8.51
8/20/2022 10:00:00 AM 19.34 66.812 0.459 7.69 8.19 8.46
8/20/2022 10:15:00 AM 19.51 67.118 0.461 7.7 4.17 8.72
8/20/2022 10:30:00 AM 19.66 67.388 0.46 7.68 3.98 8.59
8/20/2022 10:45:00 AM 19.8 67.64 0.46 7.68 3.73 8.53
8/20/2022 11:00:00 AM 19.94 67.892 0.457 7.67 3.53 8.42
8/20/2022 11:15:00 AM 20.16 68.288 0.455 7.66 4.37 8.62
8/20/2022 11:30:00 AM 20.52 68.936 0.454 7.69 4.65 8.59
8/20/2022 11:45:00 AM 20.94 69.692 0.452 7.66 4.68 8.73
8/20/2022 12:00:00 PM 21.3 70.34 0.45 7.67 4.53 8.76
8/20/2022 12:15:00 PM 21.77 71.186 0.45 7.71 3.87 9.05
8/20/2022 12:30:00 PM 22.24 72.032 0.449 7.76 4.61 9.16
8/20/2022 12:45:00 PM 22.87 73.166 0.449 7.81 4.26 9.41
8/20/2022 1:00:00 PM 23.58 74.444 0.452 7.86 4.82 9.87
8/20/2022 1:15:00 PM 24.18 75.524 0.466 7.95 3.53 10.14
8/20/2022 1:30:00 PM 24.61 76.298 0.476 8.05 4.22 10.35
8/20/2022 1:45:00 PM 25.06 77.108 0.492 8.03 3.56 10.34
8/20/2022 2:00:00 PM 25.14 77.252 0.507 8.01 6.6 10.16
8/20/2022 2:15:00 PM 25.51 77.918 0.503 8.03 7.97 10.27
8/20/2022 2:30:00 PM 25.52 77.936 0.506 8.04 7.02 10.32
8/20/2022 2:45:00 PM 26.24 79.232 0.509 8.04 10.37 10.28
8/20/2022 3:00:00 PM 26 78.8 0.504 8.09 5.73 10.4
8/20/2022 3:15:00 PM 26.63 79.934 0.523 8.04 7.28 10.13
8/20/2022 3:30:00 PM 26.33 79.394 0.526 8.08 6.45 10.25
8/20/2022 3:45:00 PM 26.53 79.754 0.52 8.05 10.26 10.06
8/20/2022 4:00:00 PM 25.88 78.584 0.507 8.07 6.27 9.73
8/20/2022 4:15:00 PM 25.58 78.044 0.48 8.03 6.63 9.45
8/20/2022 4:30:00 PM 24.18 75.524 0.476 8.06 22.48 9.41
8/20/2022 4:45:00 PM 23.9 75.02 0.456 8.1 20.33 9.66
8/20/2022 5:00:00 PM 23.72 74.696 0.444 8.1 13.78 9.74
8/20/2022 5:15:00 PM 23.71 74.67799 0.439 8.09 12.17 9.68
8/20/2022 5:30:00 PM 23.62 74.516 0.437 8.06 9.4 9.58
8/20/2022 5:45:00 PM 23.38 74.084 0.435 8.07 7.15 9.57
8/20/2022 6:00:00 PM 23.39 74.102 0.433 8.05 5.21 9.44
8/20/2022 6:15:00 PM 23.34 74.012 0.435 8.03 5.53 9.53
8/20/2022 6:30:00 PM 23.22 73.796 0.441 8.02 7.36 9.56
8/20/2022 6:45:00 PM 23.11 73.598 0.448 7.99 6.22 9.42
8/20/2022 7:00:00 PM 23.04 73.472 0.452 7.96 4.93 9.3
8/20/2022 7:15:00 PM 22.89 73.202 0.459 7.94 4.89 9.27
8/20/2022 7:30:00 PM 22.82 73.076 0.462 7.93 5.33 9.09
8/20/2022 7:45:00 PM 22.74 72.932 0.461 7.91 4.73 9.1
8/20/2022 8:00:00 PM 22.58 72.644 0.461 7.89 4.21 8.93
8/20/2022 8:15:00 PM 22.41 72.338 0.465 7.88 5.16 8.96
8/20/2022 8:30:00 PM 22.38 72.284 0.466 7.84 5.88 8.81
8/20/2022 8:45:00 PM 22.34 72.212 0.461 7.85 7.35 8.75
8/20/2022 9:00:00 PM 17.34 63.212 0.298 6.73 98.31 6.02
8/20/2022 9:15:00 PM 18.69 65.642 0.297 6.63 33.99 6.42
8/20/2022 9:30:00 PM 20.14 68.252 0.321 6.82 15.44 6.95
8/20/2022 9:45:00 PM 21.38 70.484 0.376 7.33 9.07 8.01
8/20/2022 10:00:00 PM 21.63 70.934 0.39 7.34 8.04 8.01
8/20/2022 10:15:00 PM 21.84 71.312 0.401 7.53 12.55 8.08
8/20/2022 10:30:00 PM 21.96 71.528 0.407 7.61 9.9 8.19
8/20/2022 10:45:00 PM 22 71.6 0.411 7.63 9.97 8.17
8/20/2022 11:00:00 PM 21.91 71.438 0.416 7.67 11.46 8.13
8/20/2022 11:15:00 PM 21.6 70.88 0.433 7.72 7.81 8.31
8/20/2022 11:30:00 PM 21.55 70.79 0.44 7.73 8.99 8.29
8/20/2022 11:45:00 PM 21.41 70.538 0.445 7.74 7.23 8.29
8/21/2022 12:00:00 AM 21.37 70.466 0.447 7.72 6.08 8.24
8/21/2022 12:15:00 AM 21.27 70.286 0.447 7.74 6.97 8.23
8/21/2022 12:30:00 AM 21.31 70.358 0.444 7.71 7.24 8.01
8/21/2022 12:45:00 AM 21.34 70.412 0.439 7.68 6.72 7.97
8/21/2022 1:00:00 AM 21.37 70.466 0.432 7.7 5.07 8.01
8/21/2022 1:15:00 AM 21.32 70.376 0.428 7.65 2861.75 7.88
8/21/2022 1:30:00 AM 21.19 70.142 0.427 7.67 6.56 7.9
8/21/2022 1:45:00 AM 21.12 70.016 0.426 7.68 6.21 7.98
8/21/2022 2:00:00 AM 21.11 69.998 0.422 7.63 6.39 7.67
8/21/2022 2:15:00 AM 21.04 69.872 0.42 7.68 5.98 7.88
8/21/2022 2:30:00 AM 20.94 69.692 0.419 7.66 6.26 7.87
8/21/2022 2:45:00 AM 20.74 69.332 0.424 7.68 5.3 7.99
8/21/2022 3:00:00 AM 20.54 68.972 0.432 7.68 6.28 8.07
8/21/2022 3:15:00 AM 20.61 69.098 0.431 7.65 6.24 7.87
8/21/2022 3:30:00 AM 20.64 69.152 0.427 7.65 7.26 7.84
8/21/2022 3:45:00 AM 20.68 69.224 0.423 7.61 9.92 7.59
8/21/2022 4:00:00 AM 20.44 68.792 0.427 7.66 8.87 7.88
8/21/2022 4:15:00 AM 20.42 68.756 0.427 7.62 6.13 7.74
8/21/2022 4:30:00 AM 20.42 68.756 0.426 7.62 6.43 7.65
8/21/2022 4:45:00 AM 20.31 68.558 0.428 7.63 6.61 7.73
8/21/2022 5:00:00 AM 20.27 68.486 0.43 7.64 5.62 7.83
8/21/2022 5:15:00 AM 20.28 68.504 0.428 7.63 6.39 7.74
8/21/2022 5:30:00 AM 20.18 68.324 0.431 7.63 8.13 7.81
8/21/2022 5:45:00 AM 20.08 68.144 0.435 7.63 7.73 7.83
8/21/2022 6:00:00 AM 20.12 68.216 0.432 7.59 12.59 7.63
8/21/2022 6:15:00 AM 19.92 67.856 0.44 7.64 11.78 7.83
8/21/2022 6:30:00 AM 19.86 67.748 0.444 7.6 8.76 7.6
8/21/2022 6:45:00 AM 19.89 67.802 0.443 7.62 6.12 7.81
8/21/2022 7:00:00 AM 19.95 67.91 0.441 7.59 12.75 7.74
8/21/2022 7:15:00 AM 19.88 67.784 0.445 7.64 5.36 8.05
8/21/2022 7:30:00 AM 19.92 67.856 0.447 7.62 4.62 7.87
8/21/2022 7:45:00 AM 20.05 68.09 0.444 7.63 4.42 7.95
8/21/2022 8:00:00 AM 20.21 68.378 0.442 7.64 4.9 8.07
8/21/2022 8:15:00 AM 20.33 68.594 0.442 7.66 4.56 8.2
8/21/2022 8:30:00 AM 20.44 68.792 0.442 7.68 4.79 8.32
8/21/2022 8:45:00 AM 20.54 68.972 0.443 7.69 4.96 8.36
8/21/2022 9:00:00 AM 20.62 69.116 0.443 7.72 4.39 8.59
8/21/2022 9:15:00 AM 20.72 69.296 0.443 7.74 4.43 8.7
8/21/2022 9:30:00 AM 20.85 69.53 0.442 7.75 4.14 8.81
8/21/2022 9:45:00 AM 20.94 69.692 0.443 7.77 4.26 8.88
8/21/2022 10:00:00 AM 21.01 69.818 0.443 7.8 4.39 9.06
8/21/2022 10:15:00 AM 21.07 69.926 0.442 7.82 4.6 9.15
8/21/2022 10:30:00 AM 21.13 70.034 0.439 7.82 4.45 9.19
8/21/2022 10:45:00 AM 21.29 70.32201 0.434 7.87 6.03 9.43
8/21/2022 11:00:00 AM 21.31 70.358 0.432 7.89 5.2 9.5
8/21/2022 11:15:00 AM 21.29 70.32201 0.437 7.89 6.05 9.59
8/21/2022 11:30:00 AM 21.39 70.502 0.448 7.9 9.27 9.7
8/21/2022 11:45:00 AM 21.3 70.34 0.468 7.88 11.09 9.76
8/21/2022 12:00:00 PM 21.44 70.592 0.475 7.88 8.27 9.82
8/21/2022 12:15:00 PM 21.53 70.754 0.478 7.89 8.49 9.84
8/21/2022 12:30:00 PM 21.69 71.042 0.478 7.9 9.19 9.92
8/21/2022 12:45:00 PM 21.57 70.826 0.487 7.9 6.45 9.89
8/21/2022 1:00:00 PM 21.85 71.33 0.478 7.93 7.14 10.06
8/21/2022 1:15:00 PM 22.09 71.762 0.474 7.95 6.13 10.05
8/21/2022 1:30:00 PM 22.45 72.41 0.473 7.96 6.11 10.12
8/21/2022 1:45:00 PM 22.64 72.752 0.477 7.94 6.18 10
8/21/2022 2:00:00 PM 23.07 73.526 0.471 7.97 5.43 10.13
8/21/2022 2:15:00 PM 23.39 74.102 0.462 8.01 5.03 10.28
8/21/2022 2:30:00 PM 23.2 73.76 0.457 8.04 4.65 10.24
8/21/2022 2:45:00 PM 23.29 73.922 0.45 8.04 3.98 10.27
8/21/2022 3:00:00 PM 23.17 73.706 0.444 8.07 4.09 10.3
8/21/2022 3:15:00 PM 23.04 73.472 0.44 8.06 3.93 10.22
8/21/2022 3:30:00 PM 22.89 73.202 0.433 8.09 4.88 10.25
8/21/2022 3:45:00 PM 22.87 73.166 0.429 8.1 4.66 10.21
8/21/2022 4:00:00 PM 22.82 73.076 0.428 8.08 4.71 10.11
8/21/2022 4:15:00 PM 22.77 72.986 0.427 8.08 4.05 10.12
8/21/2022 4:30:00 PM 22.69 72.842 0.429 8.06 3.57 9.99
8/21/2022 4:45:00 PM 22.57 72.626 0.426 8.06 4.3 9.89
8/21/2022 5:00:00 PM 22.51 72.518 0.426 8.03 8.22 9.76
8/21/2022 5:15:00 PM 22.39 72.302 0.425 8.05 5.09 9.79
8/21/2022 5:30:00 PM 22.26 72.068 0.431 7.99 4.87 9.6
8/21/2022 5:45:00 PM 22.03 71.654 0.427 8 5.99 9.42
8/21/2022 6:00:00 PM 21.9 71.42 0.428 7.98 13.69 9.31
8/21/2022 6:15:00 PM 17.77 63.986 0.292 6.63 69.68 5.93
8/21/2022 6:30:00 PM 18.59 65.462 0.289 6.54 47.2 5.89
8/21/2022 6:45:00 PM 19.53 67.154 0.287 6.59 41.66 5.96
8/21/2022 7:00:00 PM 20.08 68.144 0.304 6.7 24.26 6.63
8/21/2022 7:15:00 PM 20.63 69.134 0.315 6.84 16.34 7.24
8/21/2022 7:30:00 PM 21.07 69.926 0.338 7.06 13.08 7.86
8/21/2022 7:45:00 PM 21.29 70.32201 0.361 7.36 16.59 8.39
8/21/2022 8:00:00 PM 21.37 70.466 0.381 7.51 14.16 8.51
8/21/2022 8:15:00 PM 21.46 70.628 0.394 7.65 26.8 8.59
8/21/2022 8:30:00 PM 21.51 70.718 0.403 7.66 26.19 8.61
8/21/2022 8:45:00 PM 21.49 70.682 0.408 7.78 19.45 8.74
8/21/2022 9:00:00 PM 21.36 70.448 0.417 7.77 17.04 8.76
8/21/2022 9:15:00 PM 21.29 70.32201 0.423 7.77 10.16 8.69
8/21/2022 9:30:00 PM 21.25 70.25 0.426 7.78 7.67 8.42
8/21/2022 9:45:00 PM 21.2 70.16 0.428 7.79 9.7 8.56
8/21/2022 10:00:00 PM 21.18 70.124 0.427 7.71 8.9 8.47
8/21/2022 10:15:00 PM 21.14 70.052 0.429 7.78 6.65 8.56
8/21/2022 10:30:00 PM 21.14 70.052 0.429 7.79 7.32 8.53
8/21/2022 10:45:00 PM 21.06 69.908 0.431 7.77 6.36 8.48
8/21/2022 11:00:00 PM 20.99 69.782 0.435 7.76 5.39 8.45
8/21/2022 11:15:00 PM 20.91 69.638 0.44 7.75 5.51 8.39
8/21/2022 11:30:00 PM 20.92 69.656 0.441 7.74 6.15 8.29
8/21/2022 11:45:00 PM 20.9 69.62 0.442 7.72 7.6 8.26
8/22/2022 12:00:00 AM 20.81 69.458 0.446 7.73 6.81 8.24
8/22/2022 12:15:00 AM 20.77 69.386 0.449 7.72 7.28 8.19
8/22/2022 12:30:00 AM 20.71 69.278 0.451 7.7 7.04 8.14
8/22/2022 12:45:00 AM 20.71 69.278 0.451 7.68 54.85 8.01
8/22/2022 1:00:00 AM 20.69 69.242 0.452 7.66 36.64 8.02
8/22/2022 1:15:00 AM 20.69 69.242 0.451 7.65 22.98 7.85
8/22/2022 1:30:00 AM 20.6 69.08 0.452 7.67 17.59 7.94
8/22/2022 1:45:00 AM 20.57 69.026 0.453 7.66 12.49 7.94
8/22/2022 2:00:00 AM 20.53 68.954 0.454 7.66 9.74 7.92
8/22/2022 2:15:00 AM 20.55 68.99 0.453 7.64 7.49 7.83
8/22/2022 2:30:00 AM 20.53 68.954 0.453 7.65 7.47 7.87
8/22/2022 2:45:00 AM 20.54 68.972 0.452 7.62 6.62 7.66
8/22/2022 3:00:00 AM 20.47 68.846 0.453 7.66 6.09 7.91
8/22/2022 3:15:00 AM 20.49 68.882 0.451 7.66 5.75 7.91
8/22/2022 3:30:00 AM 20.48 68.864 0.45 7.64 6.09 7.74
8/22/2022 3:45:00 AM 20.44 68.792 0.45 7.64 5.59 7.78
8/22/2022 4:00:00 AM 20.41 68.738 0.45 7.65 9.62 7.81
8/22/2022 4:15:00 AM 20.45 68.81 0.449 7.61 6.8 7.65
8/22/2022 4:30:00 AM 20.39 68.702 0.45 7.64 8.65 7.79
8/22/2022 4:45:00 AM 20.4 68.72 0.45 7.63 8.28 7.71
8/22/2022 5:00:00 AM 20.39 68.702 0.45 7.62 5.84 7.69
8/22/2022 5:15:00 AM 20.4 68.72 0.448 7.61 11 7.67
8/22/2022 5:30:00 AM 20.38 68.684 0.449 7.61 6.93 7.63
8/22/2022 5:45:00 AM 20.4 68.72 0.448 7.58 7.35 7.43
8/22/2022 6:00:00 AM 20.38 68.684 0.449 7.61 6.88 7.65
8/22/2022 6:15:00 AM 20.36 68.648 0.45 7.61 6.75 7.71
8/22/2022 6:30:00 AM 20.34 68.612 0.452 7.6 11.53 7.71
8/22/2022 6:45:00 AM 20.39 68.702 0.449 7.59 14.47 7.6
8/22/2022 7:00:00 AM 20.37 68.666 0.449 7.59 15.58 7.68
8/22/2022 7:15:00 AM 20.37 68.666 0.448 7.58 15.69 7.64
8/22/2022 7:30:00 AM 20.37 68.666 0.448 7.6 11.42 7.77
8/22/2022 7:45:00 AM 20.37 68.666 0.447 7.61 14.27 7.81
8/22/2022 8:00:00 AM 20.36 68.648 0.444 7.62 20.41 8.03
8/22/2022 8:15:00 AM 20.4 68.72 0.436 7.6 31.53 7.93
8/22/2022 8:30:00 AM 20.38 68.684 0.424 7.6 61.56 8.13
8/22/2022 8:45:00 AM 20.34 68.612 0.415 7.59 82.83 8.15
8/22/2022 9:00:00 AM 20.12 68.216 0.433 7.56 89.43 8.34
8/22/2022 9:15:00 AM 19.99 67.982 0.487 7.44 103.44 8.36
8/22/2022 9:30:00 AM 19.95 67.91 0.508 7.26 63.12 8.22
8/22/2022 9:45:00 AM 19.97 67.946 0.506 7.22 43.98 8.08
8/22/2022 10:00:00 AM 20.09 68.162 0.495 7.25 32.14 8.07
8/22/2022 10:15:00 AM 20.36 68.648 0.464 7.29 20.21 8.12
8/22/2022 10:30:00 AM 20.59 69.062 0.427 7.34 14.41 8.22
8/22/2022 10:45:00 AM 20.71 69.278 0.403 7.38 13.04 8.3
8/22/2022 11:00:00 AM 21.02 69.836 0.387 7.42 11.21 8.41
8/22/2022 11:15:00 AM 21.46 70.628 0.378 7.46 21.53 8.61
8/22/2022 11:30:00 AM 21.56 70.808 0.374 7.47 15.89 8.57
8/22/2022 11:45:00 AM 21.55 70.79 0.379 7.48 11.29 8.54
8/22/2022 12:00:00 PM 21.66 70.988 0.379 7.49 9.8 8.68
8/22/2022 12:15:00 PM 21.54 70.772 0.379 7.51 8.67 8.68
8/22/2022 12:30:00 PM 21.62 70.916 0.378 7.53 12.06 8.8
8/22/2022 12:45:00 PM 21.76 71.168 0.376 7.56 8.51 8.9
8/22/2022 1:00:00 PM 21.77 71.186 0.374 7.6 9.1 9
8/22/2022 1:15:00 PM 21.84 71.312 0.374 7.59 10.59 8.94
8/22/2022 1:30:00 PM 22.12 71.816 0.374 7.63 9.05 9.14
8/22/2022 1:45:00 PM 22.15 71.87 0.379 7.66 8.64 9.19
8/22/2022 2:00:00 PM 22.01 71.618 0.381 7.67 7.88 9.15
8/22/2022 2:15:00 PM 21.88 71.384 0.382 7.68 7.28 9.1
8/22/2022 2:30:00 PM 21.79 71.222 0.382 7.66 6.97 8.96
8/22/2022 2:45:00 PM 21.57 70.826 0.387 7.66 20.14 8.88
8/22/2022 3:00:00 PM 21.44 70.592 0.394 7.63 12.13 8.8
8/22/2022 3:15:00 PM 21.4 70.52 0.399 7.61 7.68 8.78
8/22/2022 3:30:00 PM 21.42 70.556 0.404 7.6 6.26 8.71
8/22/2022 3:45:00 PM 22.03 71.654 0.408 7.62 6.24 8.96
8/22/2022 4:00:00 PM 22.5 72.5 0.417 7.64 4.65 9.07
8/22/2022 4:15:00 PM 22.89 73.202 0.421 7.65 4.2 9.27
8/22/2022 4:30:00 PM 23.17 73.706 0.431 7.65 4.66 9.31
8/22/2022 4:45:00 PM 23.24 73.832 0.432 7.67 5.09 9.4
8/22/2022 5:00:00 PM 22.72 72.896 0.437 7.64 8.8 9.29
8/22/2022 5:15:00 PM 22.5 72.5 0.439 7.64 4.51 9.23
8/22/2022 5:30:00 PM 22.29 72.122 0.443 7.6 6.29 9.08
8/22/2022 5:45:00 PM 22.17 71.906 0.448 7.63 4.99 9.1
8/22/2022 6:00:00 PM 22.05 71.69 0.453 7.6 47.26 8.95
8/22/2022 6:15:00 PM 22.15 71.87 0.452 7.6 27.74 8.74
8/22/2022 6:30:00 PM 22.06 71.708 0.45 7.63 11.53 8.7
8/22/2022 6:45:00 PM 22.05 71.69 0.448 7.65 8.06 8.7
8/22/2022 7:00:00 PM 22.01 71.618 0.445 7.66 9.4 8.71
8/22/2022 7:15:00 PM 21.91 71.438 0.446 7.68 9.35 8.71
8/22/2022 7:30:00 PM 21.81 71.258 0.447 7.68 11.3 8.65
8/22/2022 7:45:00 PM 21.72 71.096 0.448 7.69 5.62 8.73
8/22/2022 8:00:00 PM 21.64 70.952 0.45 7.7 4.73 8.69
8/22/2022 8:15:00 PM 21.63 70.934 0.45 7.68 4.78 8.47
8/22/2022 8:30:00 PM 21.53 70.754 0.449 7.67 4.63 8.53
8/22/2022 8:45:00 PM 21.44 70.592 0.448 7.69 7.33 8.56
8/22/2022 9:00:00 PM 21.42 70.556 0.45 7.66 6.15 8.46
8/22/2022 9:15:00 PM 21.42 70.556 0.449 7.64 6.51 8.29
8/22/2022 9:30:00 PM 21.3 70.34 0.451 7.66 9.56 8.32
8/22/2022 9:45:00 PM 21.29 70.32201 0.451 7.64 6.92 8.2
8/22/2022 10:00:00 PM 21.27 70.286 0.451 7.62 6.44 8.2
8/22/2022 10:15:00 PM 17.66 63.788 0.3 6.59 60.29 6
8/22/2022 10:30:00 PM 18.31 64.958 0.293 6.54 31.82 5.82
8/22/2022 10:45:00 PM 18.73 65.714 0.296 6.55 20.8 5.81
8/22/2022 11:00:00 PM 19.19 66.542 0.306 6.63 15.21 6.11
8/22/2022 11:15:00 PM 19.53 67.154 0.316 6.68 12.24 6.19
8/22/2022 11:30:00 PM 19.84 67.712 0.326 6.75 10.16 6.37
8/22/2022 11:45:00 PM 20.05 68.09 0.336 6.83 7.27 6.48
8/23/2022 12:00:00 AM 20.24 68.432 0.353 6.93 6.83 6.79
8/23/2022 12:15:00 AM 20.36 68.648 0.365 7.02 6.23 7.13
8/23/2022 12:30:00 AM 20.49 68.882 0.377 7.12 5.64 7.07
8/23/2022 12:45:00 AM 20.57 69.026 0.386 7.15 5.64 7.16
8/23/2022 1:00:00 AM 20.61 69.098 0.397 7.24 5.98 7.06
8/23/2022 1:15:00 AM 20.68 69.224 0.414 7.44 5.22 7.67
8/23/2022 1:30:00 AM 20.72 69.296 0.422 7.44 5.08 7.77
8/23/2022 1:45:00 AM 20.71 69.278 0.431 7.5 5.27 7.68
8/23/2022 2:00:00 AM 20.72 69.296 0.437 7.53 4.97 7.73
8/23/2022 2:15:00 AM 20.73 69.314 0.441 7.53 5.36 7.77
8/23/2022 2:30:00 AM 20.74 69.332 0.442 7.59 6 7.86
8/23/2022 2:45:00 AM 20.74 69.332 0.442 7.56 5.22 7.78
8/23/2022 3:00:00 AM 20.66 69.188 0.443 7.61 5.45 7.86
8/23/2022 3:15:00 AM 20.63 69.134 0.446 7.61 7.3 7.95
8/23/2022 3:30:00 AM 20.52 68.936 0.453 7.63 4.56 8.01
8/23/2022 3:45:00 AM 20.53 68.954 0.455 7.62 8.07 7.96
8/23/2022 4:00:00 AM 20.57 69.026 0.454 7.6 5.64 7.86
8/23/2022 4:15:00 AM 20.53 68.954 0.455 7.59 8.59 7.81
8/23/2022 4:30:00 AM 20.52 68.936 0.457 7.62 4.86 7.93
8/23/2022 4:45:00 AM 20.54 68.972 0.458 7.57 5.37 7.66
8/23/2022 5:00:00 AM 20.73 69.314 0.449 7.52 22.42 7.34
8/23/2022 5:15:00 AM 20.63 69.134 0.451 7.58 12.64 7.68
8/23/2022 5:30:00 AM 20.57 69.026 0.456 7.58 10.16 7.66
8/23/2022 5:45:00 AM 20.55 68.99 0.46 7.6 7.73 7.8
8/23/2022 6:00:00 AM 20.56 69.008 0.461 7.6 9.11 7.8
8/23/2022 6:15:00 AM 20.57 69.026 0.461 7.55 11.75 7.55
8/23/2022 6:30:00 AM 20.49 68.882 0.468 7.59 9.29 7.79
8/23/2022 6:45:00 AM 20.47 68.846 0.472 7.58 7.22 7.71
8/23/2022 7:00:00 AM 20.46 68.828 0.473 7.6 5.82 7.79
8/23/2022 7:15:00 AM 20.46 68.828 0.474 7.59 7.22 7.63
8/23/2022 7:30:00 AM 20.41 68.738 0.479 7.62 4.16 7.8
8/23/2022 7:45:00 AM 20.45 68.81 0.481 7.62 5.32 7.89
8/23/2022 8:00:00 AM 20.49 68.882 0.482 7.62 5.68 7.81
8/23/2022 8:15:00 AM 20.56 69.008 0.481 7.64 4.24 7.96
8/23/2022 8:30:00 AM 20.64 69.152 0.479 7.62 8.06 7.79
8/23/2022 8:45:00 AM 20.65 69.17 0.481 7.61 4.26 7.93
8/23/2022 9:00:00 AM 20.63 69.134 0.483 7.64 4.46 7.91
8/23/2022 9:15:00 AM 20.69 69.242 0.482 7.65 6.26 8.12
8/23/2022 9:30:00 AM 20.7 69.26 0.482 7.67 4.64 8.24
8/23/2022 9:45:00 AM 20.82 69.476 0.48 7.68 5.33 8.38
8/23/2022 10:00:00 AM 20.94 69.692 0.48 7.69 7.1 8.46
8/23/2022 10:15:00 AM 21.02 69.836 0.476 7.72 5.22 8.64
8/23/2022 10:30:00 AM 21.11 69.998 0.476 7.72 6.68 8.67
8/23/2022 10:45:00 AM 21.19 70.142 0.48 7.74 4.67 8.76
8/23/2022 11:00:00 AM 21.27 70.286 0.483 7.78 4 9
8/23/2022 11:15:00 AM 21.38 70.484 0.483 7.77 3.38 9.02
8/23/2022 11:30:00 AM 21.4 70.52 0.483 7.82 5.64 9.21
8/23/2022 11:45:00 AM 21.59 70.862 0.482 7.82 4.32 9.31
8/23/2022 12:00:00 PM 22.09 71.762 0.477 7.8 4.38 9.3
8/23/2022 12:15:00 PM 21.47 70.646 0.447 7.81 201.04 9.13
8/23/2022 12:30:00 PM 21.45 70.61 0.411 7.68 232.43 9.04
8/23/2022 12:45:00 PM 21.51 70.718 0.401 7.63 174.56 8.8
8/23/2022 1:00:00 PM 22 71.6 0.431 7.67 196.86 9.08
8/23/2022 1:15:00 PM 21.69 71.042 0.491 7.45 92.57 8.46
8/23/2022 1:30:00 PM 21.45 70.61 0.466 7.33 40.92 8.19
8/23/2022 1:45:00 PM 22.13 71.834 0.422 7.36 31.42 8.35
8/23/2022 2:00:00 PM 22.2 71.96 0.391 7.4 28.02 8.37
8/23/2022 2:15:00 PM 22.21 71.978 0.37 7.44 23.26 8.53
8/23/2022 2:30:00 PM 22.17 71.906 0.357 7.5 20.49 8.69
8/23/2022 2:45:00 PM 22.12 71.816 0.348 7.55 20.3 8.8
8/23/2022 3:00:00 PM 22.17 71.906 0.344 7.55 15.99 8.75
8/23/2022 3:15:00 PM 22.58 72.644 0.344 7.57 14.56 8.86
8/23/2022 3:30:00 PM 22.92 73.256 0.345 7.61 14.98 8.98
8/23/2022 3:45:00 PM 22.18 71.924 0.341 7.63 111.24 8.76
8/23/2022 4:00:00 PM 22.16 71.888 0.331 7.59 117.36 8.78
8/23/2022 4:15:00 PM 22.13 71.834 0.33 7.56 79.72 8.61
8/23/2022 4:30:00 PM 21.99 71.582 0.338 7.58 31.71 8.6
8/23/2022 4:45:00 PM 21.52 70.736 0.386 7.44 50.1 8.31
8/23/2022 5:00:00 PM 21.43 70.574 0.4 7.31 43.48 8.09
8/23/2022 5:15:00 PM 21.51 70.718 0.392 7.32 30.68 8.11
8/23/2022 5:30:00 PM 21.83 71.294 0.366 7.37 24.76 8.35
8/23/2022 5:45:00 PM 22.09 71.762 0.35 7.42 28.81 8.42
8/23/2022 6:00:00 PM 22.25 72.05 0.34 7.43 25.3 8.39
8/23/2022 6:15:00 PM 22.27 72.086 0.334 7.45 25.04 8.47
8/23/2022 6:30:00 PM 22.28 72.104 0.331 7.47 23.63 8.56
8/23/2022 6:45:00 PM 22.17 71.906 0.329 7.48 20.13 8.53
8/23/2022 7:00:00 PM 21.92 71.456 0.329 7.49 18.32 8.49
8/23/2022 7:15:00 PM 21.82 71.276 0.329 7.5 18.34 8.39
8/23/2022 7:30:00 PM 21.68 71.024 0.332 7.51 16.17 8.46
8/23/2022 7:45:00 PM 21.63 70.934 0.334 7.51 16.46 8.31
8/23/2022 8:00:00 PM 21.49 70.682 0.341 7.51 12.85 8.35
8/23/2022 8:15:00 PM 21.44 70.592 0.345 7.51 11.55 8.24
8/23/2022 8:30:00 PM 21.48 70.664 0.345 7.52 10.93 8.27
8/23/2022 8:45:00 PM 21.46 70.628 0.347 7.56 10.75 8.34
8/23/2022 9:00:00 PM 21.38 70.484 0.35 7.55 12 8.31
8/23/2022 9:15:00 PM 21.26 70.268 0.358 7.56 10.14 8.28
8/23/2022 9:30:00 PM 21.21 70.17799 0.364 7.57 10.43 8.34
8/23/2022 9:45:00 PM 21.21 70.17799 0.367 7.56 8.53 8.24
8/23/2022 10:00:00 PM 21.08 69.944 0.372 7.57 9.59 8.32
8/23/2022 10:15:00 PM 17.9 64.22 0.273 6.61 53.06 6.15
8/23/2022 10:30:00 PM 18.37 65.066 0.27 6.55 30.62 5.92
8/23/2022 10:45:00 PM 18.75 65.75 0.269 6.55 28 5.74
8/23/2022 11:00:00 PM 19.04 66.272 0.267 6.55 20.78 5.53
8/23/2022 11:15:00 PM 19.37 66.866 0.268 6.57 17.31 5.4
8/23/2022 11:30:00 PM 19.64 67.352 0.27 6.59 16.26 5.33
8/23/2022 11:45:00 PM 19.81 67.658 0.273 6.63 21.02 5.37
8/24/2022 12:00:00 AM 20 68 0.287 6.73 13.2 5.89
8/24/2022 12:15:00 AM 20.18 68.324 0.303 6.81 9.89 6.48
8/24/2022 12:30:00 AM 20.29 68.522 0.324 6.95 8.43 6.86
8/24/2022 12:45:00 AM 20.38 68.684 0.345 7.1 9.13 7.24
8/24/2022 1:00:00 AM 20.46 68.828 0.364 7.21 8.71 7.54
8/24/2022 1:15:00 AM 20.53 68.954 0.377 7.3 6.86 7.71
8/24/2022 1:30:00 AM 20.57 69.026 0.389 7.45 7.49 7.88
8/24/2022 1:45:00 AM 20.55 68.99 0.399 7.52 6.34 7.97
8/24/2022 2:00:00 AM 20.52 68.936 0.407 7.54 7.99 7.98
8/24/2022 2:15:00 AM 20.51 68.918 0.412 7.56 5.9 7.96
8/24/2022 2:30:00 AM 20.48 68.864 0.415 7.58 7.04 8.01
8/24/2022 2:45:00 AM 20.45 68.81 0.418 7.58 6.77 7.97
8/24/2022 3:00:00 AM 20.39 68.702 0.421 7.6 5.3 8.01
8/24/2022 3:15:00 AM 20.39 68.702 0.423 7.57 13.48 7.94
8/24/2022 3:30:00 AM 20.31 68.558 0.426 7.61 6.04 8.09
8/24/2022 3:45:00 AM 20.27 68.486 0.426 7.61 6.48 8.03
8/24/2022 4:00:00 AM 20.24 68.432 0.43 7.6 7.05 8
8/24/2022 4:15:00 AM 20.24 68.432 0.432 7.57 11.1 7.84
8/24/2022 4:30:00 AM 20.29 68.522 0.429 7.56 9.55 7.75
8/24/2022 4:45:00 AM 20.18 68.324 0.431 7.6 7.46 7.99
8/24/2022 5:00:00 AM 20.13 68.234 0.436 7.59 8.95 7.96
8/24/2022 5:15:00 AM 20.1 68.18 0.438 7.6 7.42 7.92
8/24/2022 5:30:00 AM 20.07 68.126 0.441 7.57 8.79 7.82
8/24/2022 5:45:00 AM 20.04 68.07201 0.445 7.55 12.8 7.67
8/24/2022 6:00:00 AM 20.06 68.108 0.448 7.53 9.9 7.44
8/24/2022 6:15:00 AM 19.87 67.766 0.459 7.58 7.76 7.67
8/24/2022 6:30:00 AM 19.75 67.55 0.472 7.6 11.09 8.01
8/24/2022 6:45:00 AM 19.6 67.28 0.484 7.62 5.9 8.07
8/24/2022 7:00:00 AM 19.55 67.19 0.492 7.61 9.83 8.13
8/24/2022 7:15:00 AM 19.51 67.118 0.495 7.62 19.43 8.26
8/24/2022 7:30:00 AM 19.53 67.154 0.498 7.6 25.79 8.18
8/24/2022 7:45:00 AM 19.56 67.208 0.502 7.58 21.98 8.06
8/24/2022 8:00:00 AM 19.61 67.298 0.505 7.57 18.13 8.05
8/24/2022 8:15:00 AM 19.66 67.388 0.506 7.58 15.32 8.08
8/24/2022 8:30:00 AM 19.72 67.496 0.506 7.61 13.78 8.11
8/24/2022 8:45:00 AM 19.78 67.604 0.506 7.62 13.68 8.19
8/24/2022 9:00:00 AM 19.79 67.622 0.509 7.63 11.94 8.3
8/24/2022 9:15:00 AM 19.74 67.532 0.51 7.66 13.17 8.42
8/24/2022 9:30:00 AM 19.73 67.514 0.512 7.67 10.73 8.58
8/24/2022 9:45:00 AM 19.75 67.55 0.513 7.68 7.86 8.54
8/24/2022 10:00:00 AM 19.78 67.604 0.513 7.68 6.59 8.5
8/24/2022 10:15:00 AM 19.83 67.694 0.515 7.65 6.35 8.42
8/24/2022 10:30:00 AM 19.93 67.874 0.517 7.66 5.56 8.56
8/24/2022 10:45:00 AM 20.05 68.09 0.517 7.66 4.73 8.63
8/24/2022 11:00:00 AM 20.15 68.27 0.515 7.65 4.8 8.49
8/24/2022 11:15:00 AM 20.35 68.63 0.509 7.63 4.73 8.34
8/24/2022 11:30:00 AM 20.69 69.242 0.498 7.63 4.16 8.52
8/24/2022 11:45:00 AM 21.29 70.32201 0.489 7.74 6.32 9.16
8/24/2022 12:00:00 PM 21.73 71.114 0.489 7.79 5.35 9.24
8/24/2022 12:15:00 PM 22.02 71.636 0.489 7.81 6.28 9.33
8/24/2022 12:30:00 PM 22.21 71.978 0.51 7.84 5.83 9.45
8/24/2022 12:45:00 PM 22.57 72.626 0.509 7.85 5.52 9.52
8/24/2022 1:00:00 PM 22.83 73.094 0.509 7.85 4.75 9.65
8/24/2022 1:15:00 PM 22.98 73.364 0.503 7.86 4.78 9.59
8/24/2022 1:30:00 PM 22.89 73.202 0.493 7.86 6 9.57
8/24/2022 1:45:00 PM 22.91 73.238 0.484 7.86 7.11 9.55
8/24/2022 2:00:00 PM 23.24 73.832 0.473 7.84 5.29 9.54
8/24/2022 2:15:00 PM 23.38 74.084 0.462 7.87 4.74 9.66
8/24/2022 2:30:00 PM 23.62 74.516 0.451 7.88 4.89 9.7
8/24/2022 2:45:00 PM 24 75.2 0.444 7.89 4.06 9.78
8/24/2022 3:00:00 PM 24.04 75.272 0.438 7.91 4.58 9.8
8/24/2022 3:15:00 PM 24.09 75.362 0.435 7.91 4.1 9.73
8/24/2022 3:30:00 PM 24.28 75.704 0.433 7.91 4.28 9.71
8/24/2022 3:45:00 PM 24.64 76.352 0.43 7.92 3.64 9.77
8/24/2022 4:00:00 PM 24.56 76.208 0.431 7.93 3.79 9.71
8/24/2022 4:15:00 PM 24.82 76.676 0.426 7.94 6.87 9.75
8/24/2022 4:30:00 PM 24.77 76.586 0.427 7.93 5.28 9.61
8/24/2022 4:45:00 PM 24.41 75.938 0.431 7.93 3.95 9.49
8/24/2022 5:00:00 PM 24.26 75.668 0.43 7.93 4.33 9.48
8/24/2022 5:15:00 PM 23.69 74.642 0.431 7.91 4.27 9.29
8/24/2022 5:30:00 PM 23.7 74.66 0.43 7.91 5.92 9.31
8/24/2022 5:45:00 PM 23.59 74.462 0.433 7.9 4.7 9.21
8/24/2022 6:00:00 PM 23.41 74.138 0.435 7.88 4.55 9.13
8/24/2022 6:15:00 PM 23.27 73.886 0.436 7.89 3.92 9.22
8/24/2022 6:30:00 PM 23.35 74.03 0.435 7.88 5.49 9.17
8/24/2022 6:45:00 PM 23.28 73.904 0.437 7.88 4.5 9.19
8/24/2022 7:00:00 PM 23.16 73.688 0.439 7.86 6.24 9.12
8/24/2022 7:15:00 PM 22.94 73.292 0.441 7.87 4.39 9.08
8/24/2022 7:30:00 PM 22.69 72.842 0.446 7.87 4.47 9.06
8/24/2022 7:45:00 PM 22.47 72.446 0.452 7.86 4.18 8.98
8/24/2022 8:00:00 PM 22.28 72.104 0.46 7.83 3.46 8.87
8/24/2022 8:15:00 PM 22.69 72.842 0.453 7.78 3.91 8.49
8/24/2022 8:30:00 PM 23.3 73.94 0.417 7.85 4.66 8.59
8/24/2022 8:45:00 PM 23.23 73.814 0.402 7.92 8.64 8.59
8/24/2022 9:00:00 PM 22.43 72.374 0.427 7.83 7.7 8.65
8/24/2022 9:15:00 PM 22.02 71.636 0.444 7.79 10.12 8.53
8/24/2022 9:30:00 PM 21.74 71.132 0.462 7.79 8.43 8.59
8/24/2022 9:45:00 PM 21.59 70.862 0.47 7.78 8.49 8.61
8/24/2022 10:00:00 PM 21.55 70.79 0.475 7.75 13.07 8.45
8/24/2022 10:15:00 PM 18.11 64.598 0.294 6.62 72.88 6.04
8/24/2022 10:30:00 PM 19.01 66.218 0.285 6.58 38.12 6.01
8/24/2022 10:45:00 PM 19.43 66.974 0.28 6.57 26.42 5.7
8/24/2022 11:00:00 PM 19.82 67.676 0.274 6.57 23.3 5.45
8/24/2022 11:15:00 PM 20.06 68.108 0.271 6.57 20.65 5.25
8/24/2022 11:30:00 PM 20.24 68.432 0.281 6.64 20.51 5.46
8/24/2022 11:45:00 PM 20.39 68.702 0.3 6.74 15.51 5.76
8/25/2022 12:00:00 AM 20.85 69.53 0.345 7.13 40.66 6.99
8/25/2022 12:15:00 AM 20.74 69.332 0.377 7.34 17.14 7.53
8/25/2022 12:30:00 AM 20.54 68.972 0.404 7.49 11.6 7.96
8/25/2022 12:45:00 AM 20.42 68.756 0.422 7.54 8.44 8.09
8/25/2022 1:00:00 AM 20.22 68.396 0.441 7.58 10.18 8.22
8/25/2022 1:15:00 AM 20.14 68.252 0.451 7.6 9.61 8.28
8/25/2022 1:30:00 AM 20.12 68.216 0.458 7.59 7.36 8.21
8/25/2022 1:45:00 AM 20.1 68.18 0.461 7.61 8.97 8.25
8/25/2022 2:00:00 AM 20 68 0.465 7.62 7.67 8.23
8/25/2022 2:15:00 AM 19.96 67.92799 0.467 7.61 10.21 8.26
8/25/2022 2:30:00 AM 19.86 67.748 0.469 7.62 6.57 8.18
8/25/2022 2:45:00 AM 19.73 67.514 0.473 7.62 9.67 8.25
8/25/2022 3:00:00 AM 19.61 67.298 0.476 7.62 10.66 8.35
8/25/2022 3:15:00 AM 19.5 67.1 0.48 7.62 8.84 8.38
8/25/2022 3:30:00 AM 19.52 67.136 0.477 7.61 9.03 8.32
8/25/2022 3:45:00 AM 19.47 67.046 0.477 7.59 6.48 8.18
8/25/2022 4:00:00 AM 19.38 66.884 0.477 7.6 8.55 8.3
8/25/2022 4:15:00 AM 19.48 67.064 0.469 7.59 16.5 8.15
8/25/2022 4:30:00 AM 19.53 67.154 0.46 7.57 23.69 7.91
8/25/2022 4:45:00 AM 19.09 66.362 0.467 7.62 18.17 8.44
8/25/2022 5:00:00 AM 19.26 66.668 0.459 7.57 35.38 8.03
8/25/2022 5:15:00 AM 19.2 66.56 0.46 7.59 22.98 8.13
8/25/2022 5:30:00 AM 18.94 66.092 0.469 7.61 13.75 8.35
8/25/2022 5:45:00 AM 18.97 66.146 0.473 7.58 14.19 8.15
8/25/2022 6:00:00 AM 18.81 65.858 0.482 7.58 13.73 8.36
8/25/2022 6:15:00 AM 18.57 65.426 0.495 7.61 12.24 8.64
8/25/2022 6:30:00 AM 18.47 65.246 0.502 7.62 19.99 8.6
8/25/2022 6:45:00 AM 18.43 65.174 0.506 7.62 22.47 8.65
8/25/2022 7:00:00 AM 18.44 65.192 0.509 7.6 15.92 8.51
8/25/2022 7:15:00 AM 18.45 65.21 0.513 7.61 14.9 8.56
8/25/2022 7:30:00 AM 18.45 65.21 0.515 7.61 9.77 8.55
8/25/2022 7:45:00 AM 18.52 65.336 0.516 7.61 7.44 8.53
8/25/2022 8:00:00 AM 18.6 65.48 0.516 7.61 7.38 8.52
8/25/2022 8:15:00 AM 18.63 65.534 0.517 7.64 5.1 8.51
8/25/2022 8:30:00 AM 18.68 65.624 0.517 7.65 5.66 8.63
8/25/2022 8:45:00 AM 18.74 65.732 0.516 7.67 4.49 8.72
8/25/2022 9:00:00 AM 18.74 65.732 0.517 7.67 4.21 8.45
8/25/2022 9:15:00 AM 18.74 65.732 0.514 7.7 4.05 8.67
8/25/2022 9:30:00 AM 18.72 65.696 0.513 7.71 4.1 8.79
8/25/2022 9:45:00 AM 18.78 65.804 0.511 7.71 5.22 8.81
8/25/2022 10:00:00 AM 18.84 65.912